<?xml version="1.0" encoding="UTF-8" standalone="no" ?>
<gpx xmlns="http://www.topografix.com/GPX/1/1" xmlns:xsi="http://www.w3.org/2001/XMLSchema-instance" xsi:schemaLocation="http://www.topografix.com/GPX/1/1 http://www.topografix.com/GPX/1/1/gpx.xsd" version="1.1" creator="VisuGPX - https://www.visugpx.com">
  <metadata>
    <name>VTT-AM-3_Mont_Lyonnais-38km_1000D</name>
  </metadata>
  <trk>
    <name><![CDATA[VTT-AM-3_Mont_Lyonnais-38km_1000D]]></name>
    <extensions>
      <line xmlns="http://www.topografix.com/GPX/gpx_style/0/2">
        <color>0000FF</color>
        <width>4</width>
      </line>
    </extensions>
    <trkseg>
      <trkpt lat="45.78449" lon="4.73029">
        <ele>276.1</ele>
        <time>2019-05-24T16:34:55.000Z</time>
      </trkpt>
      <trkpt lat="45.78448" lon="4.7303">
        <ele>276</ele>
        <time>2019-05-24T16:34:55.021Z</time>
      </trkpt>
      <trkpt lat="45.78451" lon="4.73028">
        <ele>276.2</ele>
        <time>2019-05-24T16:34:55.081Z</time>
      </trkpt>
      <trkpt lat="45.78449" lon="4.73027">
        <ele>276.2</ele>
        <time>2019-05-24T16:34:55.113Z</time>
      </trkpt>
      <trkpt lat="45.78456" lon="4.73032">
        <ele>276.2</ele>
        <time>2019-05-24T16:34:55.255Z</time>
      </trkpt>
      <trkpt lat="45.78469" lon="4.73035">
        <ele>276.4</ele>
        <time>2019-05-24T16:34:55.531Z</time>
      </trkpt>
      <trkpt lat="45.7847" lon="4.73031">
        <ele>276.7</ele>
        <time>2019-05-24T16:34:55.585Z</time>
      </trkpt>
      <trkpt lat="45.78457" lon="4.73008">
        <ele>276.8</ele>
        <time>2019-05-24T16:34:55.994Z</time>
      </trkpt>
      <trkpt lat="45.78407" lon="4.7301">
        <ele>273.7</ele>
        <time>2019-05-24T16:34:56.990Z</time>
      </trkpt>
      <trkpt lat="45.78404" lon="4.73005">
        <ele>273.2</ele>
        <time>2019-05-24T16:34:57.084Z</time>
      </trkpt>
      <trkpt lat="45.78408" lon="4.72997">
        <ele>274.1</ele>
        <time>2019-05-24T16:34:57.215Z</time>
      </trkpt>
      <trkpt lat="45.78425" lon="4.72917">
        <ele>276.2</ele>
        <time>2019-05-24T16:34:58.384Z</time>
      </trkpt>
      <trkpt lat="45.7843" lon="4.72885">
        <ele>277.5</ele>
        <time>2019-05-24T16:34:58.841Z</time>
      </trkpt>
      <trkpt lat="45.78421" lon="4.72824">
        <ele>278.9</ele>
        <time>2019-05-24T16:34:59.718Z</time>
      </trkpt>
      <trkpt lat="45.78417" lon="4.72766">
        <ele>279</ele>
        <time>2019-05-24T16:35:00.528Z</time>
      </trkpt>
      <trkpt lat="45.78416" lon="4.72711">
        <ele>280.2</ele>
        <time>2019-05-24T16:35:01.296Z</time>
      </trkpt>
      <trkpt lat="45.78423" lon="4.72603">
        <ele>283.5</ele>
        <time>2019-05-24T16:35:02.808Z</time>
      </trkpt>
      <trkpt lat="45.7843" lon="4.72556">
        <ele>284.9</ele>
        <time>2019-05-24T16:35:03.487Z</time>
      </trkpt>
      <trkpt lat="45.78436" lon="4.72525">
        <ele>285.5</ele>
        <time>2019-05-24T16:35:03.933Z</time>
      </trkpt>
      <trkpt lat="45.78445" lon="4.72496">
        <ele>287.1</ele>
        <time>2019-05-24T16:35:04.369Z</time>
      </trkpt>
      <trkpt lat="45.78453" lon="4.72474">
        <ele>288.3</ele>
        <time>2019-05-24T16:35:04.726Z</time>
      </trkpt>
      <trkpt lat="45.78482" lon="4.72432">
        <ele>289.7</ele>
        <time>2019-05-24T16:35:05.555Z</time>
      </trkpt>
      <trkpt lat="45.78498" lon="4.72418">
        <ele>290</ele>
        <time>2019-05-24T16:35:05.921Z</time>
      </trkpt>
      <trkpt lat="45.78519" lon="4.72388">
        <ele>290</ele>
        <time>2019-05-24T16:35:06.521Z</time>
      </trkpt>
      <trkpt lat="45.78525" lon="4.72344">
        <ele>290.9</ele>
        <time>2019-05-24T16:35:07.138Z</time>
      </trkpt>
      <trkpt lat="45.78524" lon="4.72213">
        <ele>288.7</ele>
        <time>2019-05-24T16:35:08.979Z</time>
      </trkpt>
      <trkpt lat="45.78511" lon="4.72015">
        <ele>288.3</ele>
        <time>2019-05-24T16:35:11.753Z</time>
      </trkpt>
      <trkpt lat="45.7851" lon="4.71963">
        <ele>289</ele>
        <time>2019-05-24T16:35:12.476Z</time>
      </trkpt>
      <trkpt lat="45.7851" lon="4.71938">
        <ele>289.6</ele>
        <time>2019-05-24T16:35:12.835Z</time>
      </trkpt>
      <trkpt lat="45.78521" lon="4.7185">
        <ele>288.8</ele>
        <time>2019-05-24T16:35:14.075Z</time>
      </trkpt>
      <trkpt lat="45.78517" lon="4.71851">
        <ele>289</ele>
        <time>2019-05-24T16:35:14.146Z</time>
      </trkpt>
      <trkpt lat="45.78513" lon="4.71849">
        <ele>289.3</ele>
        <time>2019-05-24T16:35:14.236Z</time>
      </trkpt>
      <trkpt lat="45.78493" lon="4.71799">
        <ele>291.4</ele>
        <time>2019-05-24T16:35:15.029Z</time>
      </trkpt>
      <trkpt lat="45.78497" lon="4.71772">
        <ele>292</ele>
        <time>2019-05-24T16:35:15.416Z</time>
      </trkpt>
      <trkpt lat="45.78523" lon="4.71703">
        <ele>292.7</ele>
        <time>2019-05-24T16:35:16.510Z</time>
      </trkpt>
      <trkpt lat="45.78596" lon="4.71588">
        <ele>293.3</ele>
        <time>2019-05-24T16:35:18.689Z</time>
      </trkpt>
      <trkpt lat="45.78627" lon="4.71543">
        <ele>292.9</ele>
        <time>2019-05-24T16:35:19.559Z</time>
      </trkpt>
      <trkpt lat="45.78618" lon="4.71521">
        <ele>294.1</ele>
        <time>2019-05-24T16:35:19.917Z</time>
      </trkpt>
      <trkpt lat="45.78612" lon="4.71513">
        <ele>294.5</ele>
        <time>2019-05-24T16:35:20.080Z</time>
      </trkpt>
      <trkpt lat="45.78618" lon="4.71511">
        <ele>294.5</ele>
        <time>2019-05-24T16:35:20.204Z</time>
      </trkpt>
      <trkpt lat="45.7862" lon="4.71512">
        <ele>294.4</ele>
        <time>2019-05-24T16:35:20.241Z</time>
      </trkpt>
      <trkpt lat="45.78621" lon="4.71504">
        <ele>294.8</ele>
        <time>2019-05-24T16:35:20.355Z</time>
      </trkpt>
      <trkpt lat="45.7862" lon="4.715">
        <ele>295</ele>
        <time>2019-05-24T16:35:20.421Z</time>
      </trkpt>
      <trkpt lat="45.78633" lon="4.71481">
        <ele>295.1</ele>
        <time>2019-05-24T16:35:20.798Z</time>
      </trkpt>
      <trkpt lat="45.78661" lon="4.71452">
        <ele>295.7</ele>
        <time>2019-05-24T16:35:21.493Z</time>
      </trkpt>
      <trkpt lat="45.78777" lon="4.71351">
        <ele>296</ele>
        <time>2019-05-24T16:35:24.204Z</time>
      </trkpt>
      <trkpt lat="45.78832" lon="4.71307">
        <ele>295.1</ele>
        <time>2019-05-24T16:35:25.463Z</time>
      </trkpt>
      <trkpt lat="45.78842" lon="4.71285">
        <ele>295.2</ele>
        <time>2019-05-24T16:35:25.837Z</time>
      </trkpt>
      <trkpt lat="45.78849" lon="4.71274">
        <ele>294.7</ele>
        <time>2019-05-24T16:35:26.044Z</time>
      </trkpt>
      <trkpt lat="45.78871" lon="4.71252">
        <ele>293.3</ele>
        <time>2019-05-24T16:35:26.572Z</time>
      </trkpt>
      <trkpt lat="45.78891" lon="4.71252">
        <ele>292.1</ele>
        <time>2019-05-24T16:35:26.971Z</time>
      </trkpt>
      <trkpt lat="45.78925" lon="4.71212">
        <ele>290.3</ele>
        <time>2019-05-24T16:35:27.860Z</time>
      </trkpt>
      <trkpt lat="45.7896" lon="4.71161">
        <ele>286.9</ele>
        <time>2019-05-24T16:35:28.862Z</time>
      </trkpt>
      <trkpt lat="45.78971" lon="4.71148">
        <ele>285.7</ele>
        <time>2019-05-24T16:35:29.148Z</time>
      </trkpt>
      <trkpt lat="45.79007" lon="4.71068">
        <ele>282.2</ele>
        <time>2019-05-24T16:35:30.476Z</time>
      </trkpt>
      <trkpt lat="45.79025" lon="4.71011">
        <ele>285.1</ele>
        <time>2019-05-24T16:35:31.353Z</time>
      </trkpt>
      <trkpt lat="45.7905" lon="4.70943">
        <ele>288.8</ele>
        <time>2019-05-24T16:35:32.420Z</time>
      </trkpt>
      <trkpt lat="45.79057" lon="4.70938">
        <ele>289.2</ele>
        <time>2019-05-24T16:35:32.576Z</time>
      </trkpt>
      <trkpt lat="45.79069" lon="4.70935">
        <ele>289.3</ele>
        <time>2019-05-24T16:35:32.818Z</time>
      </trkpt>
      <trkpt lat="45.79078" lon="4.70938">
        <ele>289.3</ele>
        <time>2019-05-24T16:35:32.993Z</time>
      </trkpt>
      <trkpt lat="45.79086" lon="4.70945">
        <ele>289.1</ele>
        <time>2019-05-24T16:35:33.188Z</time>
      </trkpt>
      <trkpt lat="45.79103" lon="4.70966">
        <ele>288.7</ele>
        <time>2019-05-24T16:35:33.634Z</time>
      </trkpt>
      <trkpt lat="45.79115" lon="4.70984">
        <ele>288.8</ele>
        <time>2019-05-24T16:35:33.989Z</time>
      </trkpt>
      <trkpt lat="45.79146" lon="4.71048">
        <ele>288.5</ele>
        <time>2019-05-24T16:35:35.073Z</time>
      </trkpt>
      <trkpt lat="45.79172" lon="4.71109">
        <ele>287.5</ele>
        <time>2019-05-24T16:35:36.075Z</time>
      </trkpt>
      <trkpt lat="45.79233" lon="4.71237">
        <ele>285.8</ele>
        <time>2019-05-24T16:35:38.238Z</time>
      </trkpt>
      <trkpt lat="45.7924" lon="4.71264">
        <ele>285.9</ele>
        <time>2019-05-24T16:35:38.643Z</time>
      </trkpt>
      <trkpt lat="45.79265" lon="4.71397">
        <ele>288</ele>
        <time>2019-05-24T16:35:40.565Z</time>
      </trkpt>
      <trkpt lat="45.79272" lon="4.71421">
        <ele>288.2</ele>
        <time>2019-05-24T16:35:40.934Z</time>
      </trkpt>
      <trkpt lat="45.79329" lon="4.71521">
        <ele>287</ele>
        <time>2019-05-24T16:35:42.740Z</time>
      </trkpt>
      <trkpt lat="45.79354" lon="4.71582">
        <ele>285.5</ele>
        <time>2019-05-24T16:35:43.731Z</time>
      </trkpt>
      <trkpt lat="45.79357" lon="4.71601">
        <ele>285.2</ele>
        <time>2019-05-24T16:35:43.998Z</time>
      </trkpt>
      <trkpt lat="45.79365" lon="4.71614">
        <ele>285.1</ele>
        <time>2019-05-24T16:35:44.250Z</time>
      </trkpt>
      <trkpt lat="45.79402" lon="4.71706">
        <ele>282.1</ele>
        <time>2019-05-24T16:35:45.734Z</time>
      </trkpt>
      <trkpt lat="45.79413" lon="4.71761">
        <ele>282.2</ele>
        <time>2019-05-24T16:35:46.526Z</time>
      </trkpt>
      <trkpt lat="45.79438" lon="4.71927">
        <ele>277.6</ele>
        <time>2019-05-24T16:35:48.897Z</time>
      </trkpt>
      <trkpt lat="45.79449" lon="4.71955">
        <ele>277</ele>
        <time>2019-05-24T16:35:49.346Z</time>
      </trkpt>
      <trkpt lat="45.79461" lon="4.71969">
        <ele>276</ele>
        <time>2019-05-24T16:35:49.657Z</time>
      </trkpt>
      <trkpt lat="45.79476" lon="4.71976">
        <ele>274.4</ele>
        <time>2019-05-24T16:35:49.979Z</time>
      </trkpt>
      <trkpt lat="45.795" lon="4.71974">
        <ele>272.7</ele>
        <time>2019-05-24T16:35:50.451Z</time>
      </trkpt>
      <trkpt lat="45.7953" lon="4.71961">
        <ele>272.5</ele>
        <time>2019-05-24T16:35:51.096Z</time>
      </trkpt>
      <trkpt lat="45.79561" lon="4.71945">
        <ele>269.7</ele>
        <time>2019-05-24T16:35:51.742Z</time>
      </trkpt>
      <trkpt lat="45.79677" lon="4.71878">
        <ele>263.3</ele>
        <time>2019-05-24T16:35:54.249Z</time>
      </trkpt>
      <trkpt lat="45.79691" lon="4.71864">
        <ele>261.8</ele>
        <time>2019-05-24T16:35:54.587Z</time>
      </trkpt>
      <trkpt lat="45.7971" lon="4.71838">
        <ele>258</ele>
        <time>2019-05-24T16:35:55.112Z</time>
      </trkpt>
      <trkpt lat="45.79724" lon="4.71823">
        <ele>256.8</ele>
        <time>2019-05-24T16:35:55.471Z</time>
      </trkpt>
      <trkpt lat="45.79748" lon="4.71807">
        <ele>258</ele>
        <time>2019-05-24T16:35:56.000Z</time>
      </trkpt>
      <trkpt lat="45.79775" lon="4.71796">
        <ele>260.6</ele>
        <time>2019-05-24T16:35:56.573Z</time>
      </trkpt>
      <trkpt lat="45.79792" lon="4.71787">
        <ele>261.1</ele>
        <time>2019-05-24T16:35:56.934Z</time>
      </trkpt>
      <trkpt lat="45.7982" lon="4.71777">
        <ele>259.5</ele>
        <time>2019-05-24T16:35:57.500Z</time>
      </trkpt>
      <trkpt lat="45.79827" lon="4.71766">
        <ele>258.1</ele>
        <time>2019-05-24T16:35:57.713Z</time>
      </trkpt>
      <trkpt lat="45.79832" lon="4.71739">
        <ele>256.5</ele>
        <time>2019-05-24T16:35:58.103Z</time>
      </trkpt>
      <trkpt lat="45.7983" lon="4.7174">
        <ele>256.6</ele>
        <time>2019-05-24T16:35:58.135Z</time>
      </trkpt>
      <trkpt lat="45.79832" lon="4.71734">
        <ele>256.6</ele>
        <time>2019-05-24T16:35:58.219Z</time>
      </trkpt>
      <trkpt lat="45.79865" lon="4.71672">
        <ele>259.2</ele>
        <time>2019-05-24T16:35:59.301Z</time>
      </trkpt>
      <trkpt lat="45.79878" lon="4.71648">
        <ele>261.8</ele>
        <time>2019-05-24T16:35:59.735Z</time>
      </trkpt>
      <trkpt lat="45.79914" lon="4.71595">
        <ele>263.6</ele>
        <time>2019-05-24T16:36:00.778Z</time>
      </trkpt>
      <trkpt lat="45.79944" lon="4.71535">
        <ele>267.2</ele>
        <time>2019-05-24T16:36:01.804Z</time>
      </trkpt>
      <trkpt lat="45.79972" lon="4.71498">
        <ele>269.3</ele>
        <time>2019-05-24T16:36:02.558Z</time>
      </trkpt>
      <trkpt lat="45.79973" lon="4.71486">
        <ele>271.3</ele>
        <time>2019-05-24T16:36:02.735Z</time>
      </trkpt>
      <trkpt lat="45.79969" lon="4.71482">
        <ele>272.9</ele>
        <time>2019-05-24T16:36:02.837Z</time>
      </trkpt>
      <trkpt lat="45.79964" lon="4.71483">
        <ele>273.7</ele>
        <time>2019-05-24T16:36:02.934Z</time>
      </trkpt>
      <trkpt lat="45.79958" lon="4.71488">
        <ele>273.7</ele>
        <time>2019-05-24T16:36:03.088Z</time>
      </trkpt>
      <trkpt lat="45.79942" lon="4.7151">
        <ele>272.1</ele>
        <time>2019-05-24T16:36:03.520Z</time>
      </trkpt>
      <trkpt lat="45.7992" lon="4.71537">
        <ele>273.2</ele>
        <time>2019-05-24T16:36:04.116Z</time>
      </trkpt>
      <trkpt lat="45.79904" lon="4.71554">
        <ele>273.2</ele>
        <time>2019-05-24T16:36:04.509Z</time>
      </trkpt>
      <trkpt lat="45.79862" lon="4.71578">
        <ele>277.2</ele>
        <time>2019-05-24T16:36:05.404Z</time>
      </trkpt>
      <trkpt lat="45.79845" lon="4.71586">
        <ele>278</ele>
        <time>2019-05-24T16:36:05.761Z</time>
      </trkpt>
      <trkpt lat="45.79839" lon="4.71587">
        <ele>278.4</ele>
        <time>2019-05-24T16:36:05.884Z</time>
      </trkpt>
      <trkpt lat="45.79826" lon="4.71579">
        <ele>279.5</ele>
        <time>2019-05-24T16:36:06.165Z</time>
      </trkpt>
      <trkpt lat="45.7982" lon="4.71561">
        <ele>280.7</ele>
        <time>2019-05-24T16:36:06.451Z</time>
      </trkpt>
      <trkpt lat="45.79821" lon="4.71514">
        <ele>282.5</ele>
        <time>2019-05-24T16:36:07.108Z</time>
      </trkpt>
      <trkpt lat="45.79817" lon="4.71484">
        <ele>283.2</ele>
        <time>2019-05-24T16:36:07.532Z</time>
      </trkpt>
      <trkpt lat="45.79798" lon="4.71374">
        <ele>286</ele>
        <time>2019-05-24T16:36:09.118Z</time>
      </trkpt>
      <trkpt lat="45.79793" lon="4.71337">
        <ele>286.5</ele>
        <time>2019-05-24T16:36:09.641Z</time>
      </trkpt>
      <trkpt lat="45.79803" lon="4.71302">
        <ele>287.7</ele>
        <time>2019-05-24T16:36:10.156Z</time>
      </trkpt>
      <trkpt lat="45.79824" lon="4.71281">
        <ele>288.3</ele>
        <time>2019-05-24T16:36:10.677Z</time>
      </trkpt>
      <trkpt lat="45.79843" lon="4.71264">
        <ele>289.7</ele>
        <time>2019-05-24T16:36:11.119Z</time>
      </trkpt>
      <trkpt lat="45.79894" lon="4.71208">
        <ele>293.2</ele>
        <time>2019-05-24T16:36:12.412Z</time>
      </trkpt>
      <trkpt lat="45.79934" lon="4.71171">
        <ele>294.5</ele>
        <time>2019-05-24T16:36:13.365Z</time>
      </trkpt>
      <trkpt lat="45.79964" lon="4.71133">
        <ele>296</ele>
        <time>2019-05-24T16:36:14.176Z</time>
      </trkpt>
      <trkpt lat="45.79979" lon="4.71109">
        <ele>296.1</ele>
        <time>2019-05-24T16:36:14.618Z</time>
      </trkpt>
      <trkpt lat="45.80007" lon="4.7105">
        <ele>297.8</ele>
        <time>2019-05-24T16:36:15.617Z</time>
      </trkpt>
      <trkpt lat="45.80012" lon="4.71035">
        <ele>297.6</ele>
        <time>2019-05-24T16:36:15.852Z</time>
      </trkpt>
      <trkpt lat="45.80024" lon="4.70976">
        <ele>298</ele>
        <time>2019-05-24T16:36:16.712Z</time>
      </trkpt>
      <trkpt lat="45.80032" lon="4.70955">
        <ele>297.7</ele>
        <time>2019-05-24T16:36:17.047Z</time>
      </trkpt>
      <trkpt lat="45.8008" lon="4.70881">
        <ele>298.4</ele>
        <time>2019-05-24T16:36:18.455Z</time>
      </trkpt>
      <trkpt lat="45.80099" lon="4.70777">
        <ele>299.4</ele>
        <time>2019-05-24T16:36:19.957Z</time>
      </trkpt>
      <trkpt lat="45.80101" lon="4.70732">
        <ele>298.8</ele>
        <time>2019-05-24T16:36:20.580Z</time>
      </trkpt>
      <trkpt lat="45.8008" lon="4.70658">
        <ele>300.1</ele>
        <time>2019-05-24T16:36:21.697Z</time>
      </trkpt>
      <trkpt lat="45.8003" lon="4.70564">
        <ele>302.6</ele>
        <time>2019-05-24T16:36:23.338Z</time>
      </trkpt>
      <trkpt lat="45.80022" lon="4.70543">
        <ele>303</ele>
        <time>2019-05-24T16:36:23.677Z</time>
      </trkpt>
      <trkpt lat="45.80015" lon="4.70515">
        <ele>303.2</ele>
        <time>2019-05-24T16:36:24.091Z</time>
      </trkpt>
      <trkpt lat="45.80013" lon="4.70493">
        <ele>303.6</ele>
        <time>2019-05-24T16:36:24.412Z</time>
      </trkpt>
      <trkpt lat="45.80017" lon="4.70463">
        <ele>304.2</ele>
        <time>2019-05-24T16:36:24.841Z</time>
      </trkpt>
      <trkpt lat="45.80031" lon="4.70402">
        <ele>305.1</ele>
        <time>2019-05-24T16:36:25.738Z</time>
      </trkpt>
      <trkpt lat="45.8005" lon="4.70346">
        <ele>305.8</ele>
        <time>2019-05-24T16:36:26.602Z</time>
      </trkpt>
      <trkpt lat="45.80087" lon="4.70264">
        <ele>307.1</ele>
        <time>2019-05-24T16:36:27.974Z</time>
      </trkpt>
      <trkpt lat="45.80096" lon="4.70216">
        <ele>308.5</ele>
        <time>2019-05-24T16:36:28.664Z</time>
      </trkpt>
      <trkpt lat="45.80069" lon="4.70149">
        <ele>307.8</ele>
        <time>2019-05-24T16:36:29.746Z</time>
      </trkpt>
      <trkpt lat="45.80053" lon="4.70129">
        <ele>308</ele>
        <time>2019-05-24T16:36:30.168Z</time>
      </trkpt>
      <trkpt lat="45.79998" lon="4.70123">
        <ele>308.6</ele>
        <time>2019-05-24T16:36:31.274Z</time>
      </trkpt>
      <trkpt lat="45.79962" lon="4.70128">
        <ele>308.4</ele>
        <time>2019-05-24T16:36:31.997Z</time>
      </trkpt>
      <trkpt lat="45.7992" lon="4.7008">
        <ele>309</ele>
        <time>2019-05-24T16:36:33.079Z</time>
      </trkpt>
      <trkpt lat="45.79894" lon="4.70027">
        <ele>309.2</ele>
        <time>2019-05-24T16:36:33.984Z</time>
      </trkpt>
      <trkpt lat="45.79887" lon="4.70003">
        <ele>309.7</ele>
        <time>2019-05-24T16:36:34.351Z</time>
      </trkpt>
      <trkpt lat="45.79888" lon="4.69936">
        <ele>310.9</ele>
        <time>2019-05-24T16:36:35.283Z</time>
      </trkpt>
      <trkpt lat="45.79904" lon="4.69865">
        <ele>312.9</ele>
        <time>2019-05-24T16:36:36.329Z</time>
      </trkpt>
      <trkpt lat="45.79914" lon="4.69828">
        <ele>313.9</ele>
        <time>2019-05-24T16:36:36.885Z</time>
      </trkpt>
      <trkpt lat="45.79922" lon="4.69784">
        <ele>314.8</ele>
        <time>2019-05-24T16:36:37.521Z</time>
      </trkpt>
      <trkpt lat="45.79925" lon="4.69679">
        <ele>316.5</ele>
        <time>2019-05-24T16:36:38.986Z</time>
      </trkpt>
      <trkpt lat="45.79924" lon="4.6966">
        <ele>317</ele>
        <time>2019-05-24T16:36:39.262Z</time>
      </trkpt>
      <trkpt lat="45.79937" lon="4.6956">
        <ele>319.6</ele>
        <time>2019-05-24T16:36:40.677Z</time>
      </trkpt>
      <trkpt lat="45.79943" lon="4.69476">
        <ele>320</ele>
        <time>2019-05-24T16:36:41.853Z</time>
      </trkpt>
      <trkpt lat="45.79944" lon="4.69427">
        <ele>320.6</ele>
        <time>2019-05-24T16:36:42.541Z</time>
      </trkpt>
      <trkpt lat="45.799" lon="4.69389">
        <ele>322</ele>
        <time>2019-05-24T16:36:43.573Z</time>
      </trkpt>
      <trkpt lat="45.79874" lon="4.69355">
        <ele>323.2</ele>
        <time>2019-05-24T16:36:44.285Z</time>
      </trkpt>
      <trkpt lat="45.79844" lon="4.69304">
        <ele>325</ele>
        <time>2019-05-24T16:36:45.211Z</time>
      </trkpt>
      <trkpt lat="45.79791" lon="4.69204">
        <ele>328.7</ele>
        <time>2019-05-24T16:36:46.969Z</time>
      </trkpt>
      <trkpt lat="45.79782" lon="4.69191">
        <ele>329</ele>
        <time>2019-05-24T16:36:47.218Z</time>
      </trkpt>
      <trkpt lat="45.79767" lon="4.69177">
        <ele>328.9</ele>
        <time>2019-05-24T16:36:47.583Z</time>
      </trkpt>
      <trkpt lat="45.7965" lon="4.69099">
        <ele>329.2</ele>
        <time>2019-05-24T16:36:50.174Z</time>
      </trkpt>
      <trkpt lat="45.79649" lon="4.69099">
        <ele>329.2</ele>
        <time>2019-05-24T16:36:50.174Z</time>
      </trkpt>
      <trkpt lat="45.79649" lon="4.69099">
        <ele>329.2</ele>
        <time>2019-05-24T16:36:50.174Z</time>
      </trkpt>
      <trkpt lat="45.79613" lon="4.69047">
        <ele>328.5</ele>
        <time>2019-05-24T16:36:51.201Z</time>
      </trkpt>
      <trkpt lat="45.79598" lon="4.6903">
        <ele>329</ele>
        <time>2019-05-24T16:36:51.595Z</time>
      </trkpt>
      <trkpt lat="45.79576" lon="4.69019">
        <ele>330.1</ele>
        <time>2019-05-24T16:36:52.052Z</time>
      </trkpt>
      <trkpt lat="45.79487" lon="4.6901">
        <ele>336.1</ele>
        <time>2019-05-24T16:36:53.854Z</time>
      </trkpt>
      <trkpt lat="45.79472" lon="4.68981">
        <ele>337</ele>
        <time>2019-05-24T16:36:54.347Z</time>
      </trkpt>
      <trkpt lat="45.79474" lon="4.68908">
        <ele>338.3</ele>
        <time>2019-05-24T16:36:55.375Z</time>
      </trkpt>
      <trkpt lat="45.79475" lon="4.68894">
        <ele>338.7</ele>
        <time>2019-05-24T16:36:55.569Z</time>
      </trkpt>
      <trkpt lat="45.79484" lon="4.68866">
        <ele>338.9</ele>
        <time>2019-05-24T16:36:56.006Z</time>
      </trkpt>
      <trkpt lat="45.79485" lon="4.68858">
        <ele>339.1</ele>
        <time>2019-05-24T16:36:56.110Z</time>
      </trkpt>
      <trkpt lat="45.79482" lon="4.6884">
        <ele>339.8</ele>
        <time>2019-05-24T16:36:56.374Z</time>
      </trkpt>
      <trkpt lat="45.79482" lon="4.68824">
        <ele>340.1</ele>
        <time>2019-05-24T16:36:56.600Z</time>
      </trkpt>
      <trkpt lat="45.79491" lon="4.68756">
        <ele>341.5</ele>
        <time>2019-05-24T16:36:57.560Z</time>
      </trkpt>
      <trkpt lat="45.79514" lon="4.68702">
        <ele>343.3</ele>
        <time>2019-05-24T16:36:58.452Z</time>
      </trkpt>
      <trkpt lat="45.79544" lon="4.6864">
        <ele>345.5</ele>
        <time>2019-05-24T16:36:59.496Z</time>
      </trkpt>
      <trkpt lat="45.79544" lon="4.68636">
        <ele>345.7</ele>
        <time>2019-05-24T16:36:59.551Z</time>
      </trkpt>
      <trkpt lat="45.79537" lon="4.68624">
        <ele>346.2</ele>
        <time>2019-05-24T16:36:59.772Z</time>
      </trkpt>
      <trkpt lat="45.79499" lon="4.68603">
        <ele>346.6</ele>
        <time>2019-05-24T16:37:00.586Z</time>
      </trkpt>
      <trkpt lat="45.7944" lon="4.68573">
        <ele>344.4</ele>
        <time>2019-05-24T16:37:01.855Z</time>
      </trkpt>
      <trkpt lat="45.79411" lon="4.68555">
        <ele>343.6</ele>
        <time>2019-05-24T16:37:02.474Z</time>
      </trkpt>
      <trkpt lat="45.79362" lon="4.68512">
        <ele>341.1</ele>
        <time>2019-05-24T16:37:03.634Z</time>
      </trkpt>
      <trkpt lat="45.7934" lon="4.68489">
        <ele>338.4</ele>
        <time>2019-05-24T16:37:04.177Z</time>
      </trkpt>
      <trkpt lat="45.79312" lon="4.68446">
        <ele>332.9</ele>
        <time>2019-05-24T16:37:05.010Z</time>
      </trkpt>
      <trkpt lat="45.79301" lon="4.68413">
        <ele>328.9</ele>
        <time>2019-05-24T16:37:05.515Z</time>
      </trkpt>
      <trkpt lat="45.793" lon="4.68386">
        <ele>326.7</ele>
        <time>2019-05-24T16:37:05.883Z</time>
      </trkpt>
      <trkpt lat="45.79296" lon="4.68375">
        <ele>324.8</ele>
        <time>2019-05-24T16:37:06.070Z</time>
      </trkpt>
      <trkpt lat="45.79286" lon="4.68366">
        <ele>322.6</ele>
        <time>2019-05-24T16:37:06.296Z</time>
      </trkpt>
      <trkpt lat="45.79273" lon="4.68359">
        <ele>320.7</ele>
        <time>2019-05-24T16:37:06.585Z</time>
      </trkpt>
      <trkpt lat="45.79255" lon="4.68357">
        <ele>319.5</ele>
        <time>2019-05-24T16:37:06.946Z</time>
      </trkpt>
      <trkpt lat="45.79243" lon="4.68353">
        <ele>320.2</ele>
        <time>2019-05-24T16:37:07.180Z</time>
      </trkpt>
      <trkpt lat="45.79211" lon="4.68327">
        <ele>328.6</ele>
        <time>2019-05-24T16:37:07.925Z</time>
      </trkpt>
      <trkpt lat="45.79193" lon="4.68301">
        <ele>333.3</ele>
        <time>2019-05-24T16:37:08.432Z</time>
      </trkpt>
      <trkpt lat="45.79184" lon="4.68272">
        <ele>339</ele>
        <time>2019-05-24T16:37:08.873Z</time>
      </trkpt>
      <trkpt lat="45.79184" lon="4.68261">
        <ele>340.1</ele>
        <time>2019-05-24T16:37:09.032Z</time>
      </trkpt>
      <trkpt lat="45.79187" lon="4.68255">
        <ele>340.9</ele>
        <time>2019-05-24T16:37:09.130Z</time>
      </trkpt>
      <trkpt lat="45.7919" lon="4.68254">
        <ele>341.2</ele>
        <time>2019-05-24T16:37:09.189Z</time>
      </trkpt>
      <trkpt lat="45.79193" lon="4.68256">
        <ele>341</ele>
        <time>2019-05-24T16:37:09.257Z</time>
      </trkpt>
      <trkpt lat="45.792" lon="4.68257">
        <ele>341.2</ele>
        <time>2019-05-24T16:37:09.415Z</time>
      </trkpt>
      <trkpt lat="45.79206" lon="4.68256">
        <ele>341.6</ele>
        <time>2019-05-24T16:37:09.528Z</time>
      </trkpt>
      <trkpt lat="45.79211" lon="4.68249">
        <ele>342.7</ele>
        <time>2019-05-24T16:37:09.666Z</time>
      </trkpt>
      <trkpt lat="45.79213" lon="4.68243">
        <ele>343.5</ele>
        <time>2019-05-24T16:37:09.758Z</time>
      </trkpt>
      <trkpt lat="45.79204" lon="4.68196">
        <ele>348.8</ele>
        <time>2019-05-24T16:37:10.443Z</time>
      </trkpt>
      <trkpt lat="45.79197" lon="4.68183">
        <ele>350.6</ele>
        <time>2019-05-24T16:37:10.666Z</time>
      </trkpt>
      <trkpt lat="45.79187" lon="4.68178">
        <ele>351</ele>
        <time>2019-05-24T16:37:10.880Z</time>
      </trkpt>
      <trkpt lat="45.7917" lon="4.68164">
        <ele>352.5</ele>
        <time>2019-05-24T16:37:11.273Z</time>
      </trkpt>
      <trkpt lat="45.79154" lon="4.68146">
        <ele>353.4</ele>
        <time>2019-05-24T16:37:11.687Z</time>
      </trkpt>
      <trkpt lat="45.79145" lon="4.68139">
        <ele>353.5</ele>
        <time>2019-05-24T16:37:11.895Z</time>
      </trkpt>
      <trkpt lat="45.79146" lon="4.68136">
        <ele>354</ele>
        <time>2019-05-24T16:37:11.943Z</time>
      </trkpt>
      <trkpt lat="45.79143" lon="4.68137">
        <ele>353.7</ele>
        <time>2019-05-24T16:37:11.994Z</time>
      </trkpt>
      <trkpt lat="45.79144" lon="4.68138">
        <ele>353.6</ele>
        <time>2019-05-24T16:37:12.018Z</time>
      </trkpt>
      <trkpt lat="45.7914" lon="4.68143">
        <ele>352.5</ele>
        <time>2019-05-24T16:37:12.113Z</time>
      </trkpt>
      <trkpt lat="45.79137" lon="4.68142">
        <ele>352.4</ele>
        <time>2019-05-24T16:37:12.178Z</time>
      </trkpt>
      <trkpt lat="45.79125" lon="4.68129">
        <ele>353.1</ele>
        <time>2019-05-24T16:37:12.488Z</time>
      </trkpt>
      <trkpt lat="45.79083" lon="4.68113">
        <ele>357</ele>
        <time>2019-05-24T16:37:13.353Z</time>
      </trkpt>
      <trkpt lat="45.79072" lon="4.68099">
        <ele>360</ele>
        <time>2019-05-24T16:37:13.652Z</time>
      </trkpt>
      <trkpt lat="45.79064" lon="4.68095">
        <ele>361.4</ele>
        <time>2019-05-24T16:37:13.805Z</time>
      </trkpt>
      <trkpt lat="45.7906" lon="4.68098">
        <ele>361.8</ele>
        <time>2019-05-24T16:37:13.904Z</time>
      </trkpt>
      <trkpt lat="45.79022" lon="4.68164">
        <ele>365.6</ele>
        <time>2019-05-24T16:37:15.093Z</time>
      </trkpt>
      <trkpt lat="45.79009" lon="4.68164">
        <ele>367.1</ele>
        <time>2019-05-24T16:37:15.364Z</time>
      </trkpt>
      <trkpt lat="45.7898" lon="4.68153">
        <ele>370.7</ele>
        <time>2019-05-24T16:37:15.971Z</time>
      </trkpt>
      <trkpt lat="45.78953" lon="4.68148">
        <ele>372.1</ele>
        <time>2019-05-24T16:37:16.497Z</time>
      </trkpt>
      <trkpt lat="45.78927" lon="4.68139">
        <ele>373</ele>
        <time>2019-05-24T16:37:17.051Z</time>
      </trkpt>
      <trkpt lat="45.78913" lon="4.68136">
        <ele>373.2</ele>
        <time>2019-05-24T16:37:17.333Z</time>
      </trkpt>
      <trkpt lat="45.78886" lon="4.68124">
        <ele>373.1</ele>
        <time>2019-05-24T16:37:17.898Z</time>
      </trkpt>
      <trkpt lat="45.78863" lon="4.68102">
        <ele>372.1</ele>
        <time>2019-05-24T16:37:18.453Z</time>
      </trkpt>
      <trkpt lat="45.78826" lon="4.68059">
        <ele>370.5</ele>
        <time>2019-05-24T16:37:19.403Z</time>
      </trkpt>
      <trkpt lat="45.7873" lon="4.67957">
        <ele>357.7</ele>
        <time>2019-05-24T16:37:21.805Z</time>
      </trkpt>
      <trkpt lat="45.78706" lon="4.67926">
        <ele>353.2</ele>
        <time>2019-05-24T16:37:22.450Z</time>
      </trkpt>
      <trkpt lat="45.78677" lon="4.67879">
        <ele>346.8</ele>
        <time>2019-05-24T16:37:23.321Z</time>
      </trkpt>
      <trkpt lat="45.78658" lon="4.67852">
        <ele>342.7</ele>
        <time>2019-05-24T16:37:23.859Z</time>
      </trkpt>
      <trkpt lat="45.78652" lon="4.67839">
        <ele>341.1</ele>
        <time>2019-05-24T16:37:24.076Z</time>
      </trkpt>
      <trkpt lat="45.78651" lon="4.67825">
        <ele>340.3</ele>
        <time>2019-05-24T16:37:24.275Z</time>
      </trkpt>
      <trkpt lat="45.78658" lon="4.67801">
        <ele>340.1</ele>
        <time>2019-05-24T16:37:24.647Z</time>
      </trkpt>
      <trkpt lat="45.78658" lon="4.67791">
        <ele>340</ele>
        <time>2019-05-24T16:37:24.791Z</time>
      </trkpt>
      <trkpt lat="45.78655" lon="4.67781">
        <ele>340</ele>
        <time>2019-05-24T16:37:24.935Z</time>
      </trkpt>
      <trkpt lat="45.78657" lon="4.67783">
        <ele>340</ele>
        <time>2019-05-24T16:37:24.969Z</time>
      </trkpt>
      <trkpt lat="45.78633" lon="4.67747">
        <ele>343.8</ele>
        <time>2019-05-24T16:37:25.649Z</time>
      </trkpt>
      <trkpt lat="45.78607" lon="4.67704">
        <ele>346</ele>
        <time>2019-05-24T16:37:26.443Z</time>
      </trkpt>
      <trkpt lat="45.78557" lon="4.67603">
        <ele>350.3</ele>
        <time>2019-05-24T16:37:28.182Z</time>
      </trkpt>
      <trkpt lat="45.78539" lon="4.67561">
        <ele>351.8</ele>
        <time>2019-05-24T16:37:28.875Z</time>
      </trkpt>
      <trkpt lat="45.78512" lon="4.67516">
        <ele>353.1</ele>
        <time>2019-05-24T16:37:29.695Z</time>
      </trkpt>
      <trkpt lat="45.78471" lon="4.6739">
        <ele>357.6</ele>
        <time>2019-05-24T16:37:31.647Z</time>
      </trkpt>
      <trkpt lat="45.78458" lon="4.67337">
        <ele>360.1</ele>
        <time>2019-05-24T16:37:32.429Z</time>
      </trkpt>
      <trkpt lat="45.78451" lon="4.67277">
        <ele>362.1</ele>
        <time>2019-05-24T16:37:33.283Z</time>
      </trkpt>
      <trkpt lat="45.78443" lon="4.67241">
        <ele>362</ele>
        <time>2019-05-24T16:37:33.803Z</time>
      </trkpt>
      <trkpt lat="45.7843" lon="4.67168">
        <ele>362.9</ele>
        <time>2019-05-24T16:37:34.853Z</time>
      </trkpt>
      <trkpt lat="45.78403" lon="4.67097">
        <ele>362.5</ele>
        <time>2019-05-24T16:37:35.981Z</time>
      </trkpt>
      <trkpt lat="45.7839" lon="4.67068">
        <ele>363.6</ele>
        <time>2019-05-24T16:37:36.480Z</time>
      </trkpt>
      <trkpt lat="45.78389" lon="4.67055">
        <ele>364</ele>
        <time>2019-05-24T16:37:36.654Z</time>
      </trkpt>
      <trkpt lat="45.7838" lon="4.66986">
        <ele>371.6</ele>
        <time>2019-05-24T16:37:37.636Z</time>
      </trkpt>
      <trkpt lat="45.78381" lon="4.6696">
        <ele>374.4</ele>
        <time>2019-05-24T16:37:37.995Z</time>
      </trkpt>
      <trkpt lat="45.78374" lon="4.66922">
        <ele>379.6</ele>
        <time>2019-05-24T16:37:38.556Z</time>
      </trkpt>
      <trkpt lat="45.78377" lon="4.66888">
        <ele>382.3</ele>
        <time>2019-05-24T16:37:39.032Z</time>
      </trkpt>
      <trkpt lat="45.78365" lon="4.66785">
        <ele>390.6</ele>
        <time>2019-05-24T16:37:40.483Z</time>
      </trkpt>
      <trkpt lat="45.78358" lon="4.66736">
        <ele>394.4</ele>
        <time>2019-05-24T16:37:41.179Z</time>
      </trkpt>
      <trkpt lat="45.78353" lon="4.66715">
        <ele>397.6</ele>
        <time>2019-05-24T16:37:41.495Z</time>
      </trkpt>
      <trkpt lat="45.78345" lon="4.66692">
        <ele>401.7</ele>
        <time>2019-05-24T16:37:41.851Z</time>
      </trkpt>
      <trkpt lat="45.78332" lon="4.66668">
        <ele>406.1</ele>
        <time>2019-05-24T16:37:42.277Z</time>
      </trkpt>
      <trkpt lat="45.78331" lon="4.66659">
        <ele>407.2</ele>
        <time>2019-05-24T16:37:42.405Z</time>
      </trkpt>
      <trkpt lat="45.78327" lon="4.66656">
        <ele>408</ele>
        <time>2019-05-24T16:37:42.486Z</time>
      </trkpt>
      <trkpt lat="45.78328" lon="4.66652">
        <ele>408.3</ele>
        <time>2019-05-24T16:37:42.540Z</time>
      </trkpt>
      <trkpt lat="45.78332" lon="4.66652">
        <ele>407.8</ele>
        <time>2019-05-24T16:37:42.622Z</time>
      </trkpt>
      <trkpt lat="45.7833" lon="4.6665">
        <ele>408.2</ele>
        <time>2019-05-24T16:37:42.662Z</time>
      </trkpt>
      <trkpt lat="45.78295" lon="4.66669">
        <ele>409.8</ele>
        <time>2019-05-24T16:37:43.410Z</time>
      </trkpt>
      <trkpt lat="45.78296" lon="4.6661">
        <ele>413.1</ele>
        <time>2019-05-24T16:37:44.223Z</time>
      </trkpt>
      <trkpt lat="45.78292" lon="4.66603">
        <ele>413.9</ele>
        <time>2019-05-24T16:37:44.359Z</time>
      </trkpt>
      <trkpt lat="45.78284" lon="4.66596">
        <ele>414.7</ele>
        <time>2019-05-24T16:37:44.547Z</time>
      </trkpt>
      <trkpt lat="45.7828" lon="4.66583">
        <ele>416</ele>
        <time>2019-05-24T16:37:44.743Z</time>
      </trkpt>
      <trkpt lat="45.78277" lon="4.66546">
        <ele>418.9</ele>
        <time>2019-05-24T16:37:45.265Z</time>
      </trkpt>
      <trkpt lat="45.78279" lon="4.66494">
        <ele>424.6</ele>
        <time>2019-05-24T16:37:45.989Z</time>
      </trkpt>
      <trkpt lat="45.78276" lon="4.66469">
        <ele>427.2</ele>
        <time>2019-05-24T16:37:46.348Z</time>
      </trkpt>
      <trkpt lat="45.78276" lon="4.66449">
        <ele>430.1</ele>
        <time>2019-05-24T16:37:46.627Z</time>
      </trkpt>
      <trkpt lat="45.78281" lon="4.66425">
        <ele>432.5</ele>
        <time>2019-05-24T16:37:46.966Z</time>
      </trkpt>
      <trkpt lat="45.78281" lon="4.66413">
        <ele>433.7</ele>
        <time>2019-05-24T16:37:47.137Z</time>
      </trkpt>
      <trkpt lat="45.78289" lon="4.66406">
        <ele>435.3</ele>
        <time>2019-05-24T16:37:47.327Z</time>
      </trkpt>
      <trkpt lat="45.78297" lon="4.66394">
        <ele>437.6</ele>
        <time>2019-05-24T16:37:47.559Z</time>
      </trkpt>
      <trkpt lat="45.78298" lon="4.66373">
        <ele>440.9</ele>
        <time>2019-05-24T16:37:47.863Z</time>
      </trkpt>
      <trkpt lat="45.78297" lon="4.66363">
        <ele>442.3</ele>
        <time>2019-05-24T16:37:47.994Z</time>
      </trkpt>
      <trkpt lat="45.78292" lon="4.6635">
        <ele>444.5</ele>
        <time>2019-05-24T16:37:48.204Z</time>
      </trkpt>
      <trkpt lat="45.78283" lon="4.66302">
        <ele>452</ele>
        <time>2019-05-24T16:37:48.901Z</time>
      </trkpt>
      <trkpt lat="45.78271" lon="4.66201">
        <ele>466.5</ele>
        <time>2019-05-24T16:37:50.332Z</time>
      </trkpt>
      <trkpt lat="45.78271" lon="4.66183">
        <ele>469.3</ele>
        <time>2019-05-24T16:37:50.590Z</time>
      </trkpt>
      <trkpt lat="45.78265" lon="4.66161">
        <ele>472.5</ele>
        <time>2019-05-24T16:37:50.913Z</time>
      </trkpt>
      <trkpt lat="45.78263" lon="4.66136">
        <ele>476.5</ele>
        <time>2019-05-24T16:37:51.265Z</time>
      </trkpt>
      <trkpt lat="45.78251" lon="4.66097">
        <ele>483.1</ele>
        <time>2019-05-24T16:37:51.869Z</time>
      </trkpt>
      <trkpt lat="45.78231" lon="4.66052">
        <ele>489.8</ele>
        <time>2019-05-24T16:37:52.609Z</time>
      </trkpt>
      <trkpt lat="45.78225" lon="4.66046">
        <ele>490.4</ele>
        <time>2019-05-24T16:37:52.755Z</time>
      </trkpt>
      <trkpt lat="45.78205" lon="4.66016">
        <ele>492.6</ele>
        <time>2019-05-24T16:37:53.338Z</time>
      </trkpt>
      <trkpt lat="45.78181" lon="4.65973">
        <ele>495.4</ele>
        <time>2019-05-24T16:37:54.100Z</time>
      </trkpt>
      <trkpt lat="45.78174" lon="4.65962">
        <ele>496.1</ele>
        <time>2019-05-24T16:37:54.316Z</time>
      </trkpt>
      <trkpt lat="45.78171" lon="4.65955">
        <ele>496.8</ele>
        <time>2019-05-24T16:37:54.425Z</time>
      </trkpt>
      <trkpt lat="45.78164" lon="4.6591">
        <ele>501.7</ele>
        <time>2019-05-24T16:37:55.079Z</time>
      </trkpt>
      <trkpt lat="45.78165" lon="4.659">
        <ele>503.2</ele>
        <time>2019-05-24T16:37:55.217Z</time>
      </trkpt>
      <trkpt lat="45.78164" lon="4.65882">
        <ele>505.8</ele>
        <time>2019-05-24T16:37:55.468Z</time>
      </trkpt>
      <trkpt lat="45.78158" lon="4.65857">
        <ele>509</ele>
        <time>2019-05-24T16:37:55.835Z</time>
      </trkpt>
      <trkpt lat="45.78159" lon="4.6584">
        <ele>512</ele>
        <time>2019-05-24T16:37:56.076Z</time>
      </trkpt>
      <trkpt lat="45.78148" lon="4.65767">
        <ele>520.7</ele>
        <time>2019-05-24T16:37:57.124Z</time>
      </trkpt>
      <trkpt lat="45.78143" lon="4.65743">
        <ele>523.3</ele>
        <time>2019-05-24T16:37:57.477Z</time>
      </trkpt>
      <trkpt lat="45.78132" lon="4.65719">
        <ele>524.7</ele>
        <time>2019-05-24T16:37:57.873Z</time>
      </trkpt>
      <trkpt lat="45.7813" lon="4.65708">
        <ele>525.9</ele>
        <time>2019-05-24T16:37:58.032Z</time>
      </trkpt>
      <trkpt lat="45.7813" lon="4.65692">
        <ele>527.9</ele>
        <time>2019-05-24T16:37:58.255Z</time>
      </trkpt>
      <trkpt lat="45.78122" lon="4.65665">
        <ele>529.1</ele>
        <time>2019-05-24T16:37:58.666Z</time>
      </trkpt>
      <trkpt lat="45.78115" lon="4.656">
        <ele>532.8</ele>
        <time>2019-05-24T16:37:59.592Z</time>
      </trkpt>
      <trkpt lat="45.78118" lon="4.65599">
        <ele>533.6</ele>
        <time>2019-05-24T16:37:59.656Z</time>
      </trkpt>
      <trkpt lat="45.78119" lon="4.65552">
        <ele>536.6</ele>
        <time>2019-05-24T16:38:00.315Z</time>
      </trkpt>
      <trkpt lat="45.78126" lon="4.65542">
        <ele>539.2</ele>
        <time>2019-05-24T16:38:00.505Z</time>
      </trkpt>
      <trkpt lat="45.78119" lon="4.65522">
        <ele>538.4</ele>
        <time>2019-05-24T16:38:00.811Z</time>
      </trkpt>
      <trkpt lat="45.78121" lon="4.65502">
        <ele>539.4</ele>
        <time>2019-05-24T16:38:01.099Z</time>
      </trkpt>
      <trkpt lat="45.78122" lon="4.65496">
        <ele>539.8</ele>
        <time>2019-05-24T16:38:01.183Z</time>
      </trkpt>
      <trkpt lat="45.78122" lon="4.65487">
        <ele>539.7</ele>
        <time>2019-05-24T16:38:01.316Z</time>
      </trkpt>
      <trkpt lat="45.78124" lon="4.65481">
        <ele>540.2</ele>
        <time>2019-05-24T16:38:01.404Z</time>
      </trkpt>
      <trkpt lat="45.78131" lon="4.65384">
        <ele>544.9</ele>
        <time>2019-05-24T16:38:02.777Z</time>
      </trkpt>
      <trkpt lat="45.78126" lon="4.6536">
        <ele>545.3</ele>
        <time>2019-05-24T16:38:03.118Z</time>
      </trkpt>
      <trkpt lat="45.78126" lon="4.65342">
        <ele>547</ele>
        <time>2019-05-24T16:38:03.377Z</time>
      </trkpt>
      <trkpt lat="45.78127" lon="4.65338">
        <ele>547.6</ele>
        <time>2019-05-24T16:38:03.432Z</time>
      </trkpt>
      <trkpt lat="45.78125" lon="4.65313">
        <ele>549.5</ele>
        <time>2019-05-24T16:38:03.793Z</time>
      </trkpt>
      <trkpt lat="45.78128" lon="4.65266">
        <ele>553.9</ele>
        <time>2019-05-24T16:38:04.450Z</time>
      </trkpt>
      <trkpt lat="45.78125" lon="4.65244">
        <ele>554.5</ele>
        <time>2019-05-24T16:38:04.764Z</time>
      </trkpt>
      <trkpt lat="45.78127" lon="4.65241">
        <ele>555.2</ele>
        <time>2019-05-24T16:38:04.820Z</time>
      </trkpt>
      <trkpt lat="45.78129" lon="4.65228">
        <ele>556.2</ele>
        <time>2019-05-24T16:38:05.001Z</time>
      </trkpt>
      <trkpt lat="45.78128" lon="4.65223">
        <ele>555.9</ele>
        <time>2019-05-24T16:38:05.083Z</time>
      </trkpt>
      <trkpt lat="45.78132" lon="4.65215">
        <ele>557.9</ele>
        <time>2019-05-24T16:38:05.220Z</time>
      </trkpt>
      <trkpt lat="45.78134" lon="4.65188">
        <ele>559.9</ele>
        <time>2019-05-24T16:38:05.599Z</time>
      </trkpt>
      <trkpt lat="45.78137" lon="4.65183">
        <ele>560.7</ele>
        <time>2019-05-24T16:38:05.686Z</time>
      </trkpt>
      <trkpt lat="45.78144" lon="4.65179">
        <ele>562.2</ele>
        <time>2019-05-24T16:38:05.824Z</time>
      </trkpt>
      <trkpt lat="45.78148" lon="4.65178">
        <ele>563.4</ele>
        <time>2019-05-24T16:38:05.922Z</time>
      </trkpt>
      <trkpt lat="45.78151" lon="4.65173">
        <ele>564</ele>
        <time>2019-05-24T16:38:06.010Z</time>
      </trkpt>
      <trkpt lat="45.78151" lon="4.65174">
        <ele>564.1</ele>
        <time>2019-05-24T16:38:06.028Z</time>
      </trkpt>
      <trkpt lat="45.78148" lon="4.6514">
        <ele>563.6</ele>
        <time>2019-05-24T16:38:06.504Z</time>
      </trkpt>
      <trkpt lat="45.78143" lon="4.65136">
        <ele>562.8</ele>
        <time>2019-05-24T16:38:06.621Z</time>
      </trkpt>
      <trkpt lat="45.78126" lon="4.65141">
        <ele>561.9</ele>
        <time>2019-05-24T16:38:06.968Z</time>
      </trkpt>
      <trkpt lat="45.78083" lon="4.65161">
        <ele>561.9</ele>
        <time>2019-05-24T16:38:07.862Z</time>
      </trkpt>
      <trkpt lat="45.78055" lon="4.65188">
        <ele>559.9</ele>
        <time>2019-05-24T16:38:08.543Z</time>
      </trkpt>
      <trkpt lat="45.78047" lon="4.65201">
        <ele>557.8</ele>
        <time>2019-05-24T16:38:08.788Z</time>
      </trkpt>
      <trkpt lat="45.78037" lon="4.65215">
        <ele>556.3</ele>
        <time>2019-05-24T16:38:09.071Z</time>
      </trkpt>
      <trkpt lat="45.78022" lon="4.65244">
        <ele>554.9</ele>
        <time>2019-05-24T16:38:09.576Z</time>
      </trkpt>
      <trkpt lat="45.78014" lon="4.65255">
        <ele>555</ele>
        <time>2019-05-24T16:38:09.802Z</time>
      </trkpt>
      <trkpt lat="45.7801" lon="4.6527">
        <ele>553.1</ele>
        <time>2019-05-24T16:38:10.029Z</time>
      </trkpt>
      <trkpt lat="45.77993" lon="4.65311">
        <ele>547.7</ele>
        <time>2019-05-24T16:38:10.686Z</time>
      </trkpt>
      <trkpt lat="45.7798" lon="4.65338">
        <ele>544</ele>
        <time>2019-05-24T16:38:11.141Z</time>
      </trkpt>
      <trkpt lat="45.77969" lon="4.65348">
        <ele>543.1</ele>
        <time>2019-05-24T16:38:11.401Z</time>
      </trkpt>
      <trkpt lat="45.77966" lon="4.65348">
        <ele>542.8</ele>
        <time>2019-05-24T16:38:11.460Z</time>
      </trkpt>
      <trkpt lat="45.77963" lon="4.65351">
        <ele>541.8</ele>
        <time>2019-05-24T16:38:11.532Z</time>
      </trkpt>
      <trkpt lat="45.77961" lon="4.6535">
        <ele>541.7</ele>
        <time>2019-05-24T16:38:11.588Z</time>
      </trkpt>
      <trkpt lat="45.77955" lon="4.65352">
        <ele>540.5</ele>
        <time>2019-05-24T16:38:11.712Z</time>
      </trkpt>
      <trkpt lat="45.77947" lon="4.65366">
        <ele>536.2</ele>
        <time>2019-05-24T16:38:11.964Z</time>
      </trkpt>
      <trkpt lat="45.77936" lon="4.65389">
        <ele>534.3</ele>
        <time>2019-05-24T16:38:12.351Z</time>
      </trkpt>
      <trkpt lat="45.7793" lon="4.65429">
        <ele>529.8</ele>
        <time>2019-05-24T16:38:12.923Z</time>
      </trkpt>
      <trkpt lat="45.77935" lon="4.65521">
        <ele>527.3</ele>
        <time>2019-05-24T16:38:14.206Z</time>
      </trkpt>
      <trkpt lat="45.77935" lon="4.65539">
        <ele>526.2</ele>
        <time>2019-05-24T16:38:14.462Z</time>
      </trkpt>
      <trkpt lat="45.77897" lon="4.65656">
        <ele>520.6</ele>
        <time>2019-05-24T16:38:16.268Z</time>
      </trkpt>
      <trkpt lat="45.7786" lon="4.657">
        <ele>518.4</ele>
        <time>2019-05-24T16:38:17.224Z</time>
      </trkpt>
      <trkpt lat="45.77858" lon="4.65714">
        <ele>517.3</ele>
        <time>2019-05-24T16:38:17.431Z</time>
      </trkpt>
      <trkpt lat="45.77863" lon="4.65741">
        <ele>513.7</ele>
        <time>2019-05-24T16:38:17.823Z</time>
      </trkpt>
      <trkpt lat="45.77882" lon="4.65787">
        <ele>510.4</ele>
        <time>2019-05-24T16:38:18.566Z</time>
      </trkpt>
      <trkpt lat="45.77885" lon="4.65804">
        <ele>510.2</ele>
        <time>2019-05-24T16:38:18.800Z</time>
      </trkpt>
      <trkpt lat="45.77885" lon="4.65836">
        <ele>510.3</ele>
        <time>2019-05-24T16:38:19.248Z</time>
      </trkpt>
      <trkpt lat="45.77884" lon="4.65857">
        <ele>508.9</ele>
        <time>2019-05-24T16:38:19.551Z</time>
      </trkpt>
      <trkpt lat="45.77876" lon="4.65895">
        <ele>506.5</ele>
        <time>2019-05-24T16:38:20.101Z</time>
      </trkpt>
      <trkpt lat="45.77871" lon="4.65915">
        <ele>505.1</ele>
        <time>2019-05-24T16:38:20.402Z</time>
      </trkpt>
      <trkpt lat="45.7787" lon="4.659">
        <ele>506.4</ele>
        <time>2019-05-24T16:38:20.618Z</time>
      </trkpt>
      <trkpt lat="45.77866" lon="4.65887">
        <ele>507.8</ele>
        <time>2019-05-24T16:38:20.807Z</time>
      </trkpt>
      <trkpt lat="45.77866" lon="4.6587">
        <ele>509.6</ele>
        <time>2019-05-24T16:38:21.054Z</time>
      </trkpt>
      <trkpt lat="45.77864" lon="4.65855">
        <ele>511.3</ele>
        <time>2019-05-24T16:38:21.267Z</time>
      </trkpt>
      <trkpt lat="45.77855" lon="4.65831">
        <ele>514.9</ele>
        <time>2019-05-24T16:38:21.644Z</time>
      </trkpt>
      <trkpt lat="45.77856" lon="4.65826">
        <ele>515.4</ele>
        <time>2019-05-24T16:38:21.713Z</time>
      </trkpt>
      <trkpt lat="45.77852" lon="4.6581">
        <ele>517.8</ele>
        <time>2019-05-24T16:38:21.947Z</time>
      </trkpt>
      <trkpt lat="45.77838" lon="4.65792">
        <ele>521.2</ele>
        <time>2019-05-24T16:38:22.334Z</time>
      </trkpt>
      <trkpt lat="45.77828" lon="4.65784">
        <ele>523.5</ele>
        <time>2019-05-24T16:38:22.545Z</time>
      </trkpt>
      <trkpt lat="45.77824" lon="4.65773">
        <ele>525.3</ele>
        <time>2019-05-24T16:38:22.727Z</time>
      </trkpt>
      <trkpt lat="45.77801" lon="4.65748">
        <ele>532.3</ele>
        <time>2019-05-24T16:38:23.308Z</time>
      </trkpt>
      <trkpt lat="45.77792" lon="4.6572">
        <ele>536.1</ele>
        <time>2019-05-24T16:38:23.735Z</time>
      </trkpt>
      <trkpt lat="45.77788" lon="4.65714">
        <ele>537</ele>
        <time>2019-05-24T16:38:23.852Z</time>
      </trkpt>
      <trkpt lat="45.77783" lon="4.65711">
        <ele>537.9</ele>
        <time>2019-05-24T16:38:23.950Z</time>
      </trkpt>
      <trkpt lat="45.77779" lon="4.65701">
        <ele>539.4</ele>
        <time>2019-05-24T16:38:24.127Z</time>
      </trkpt>
      <trkpt lat="45.77775" lon="4.65683">
        <ele>541.2</ele>
        <time>2019-05-24T16:38:24.386Z</time>
      </trkpt>
      <trkpt lat="45.77769" lon="4.65674">
        <ele>542.7</ele>
        <time>2019-05-24T16:38:24.558Z</time>
      </trkpt>
      <trkpt lat="45.77769" lon="4.65668">
        <ele>543.2</ele>
        <time>2019-05-24T16:38:24.640Z</time>
      </trkpt>
      <trkpt lat="45.7777" lon="4.65667">
        <ele>543.1</ele>
        <time>2019-05-24T16:38:24.665Z</time>
      </trkpt>
      <trkpt lat="45.77767" lon="4.65665">
        <ele>543.9</ele>
        <time>2019-05-24T16:38:24.748Z</time>
      </trkpt>
      <trkpt lat="45.77766" lon="4.65666">
        <ele>543.8</ele>
        <time>2019-05-24T16:38:24.767Z</time>
      </trkpt>
      <trkpt lat="45.77762" lon="4.65659">
        <ele>545.2</ele>
        <time>2019-05-24T16:38:24.894Z</time>
      </trkpt>
      <trkpt lat="45.77759" lon="4.65642">
        <ele>547.6</ele>
        <time>2019-05-24T16:38:25.132Z</time>
      </trkpt>
      <trkpt lat="45.77753" lon="4.65629">
        <ele>549.8</ele>
        <time>2019-05-24T16:38:25.368Z</time>
      </trkpt>
      <trkpt lat="45.77753" lon="4.65616">
        <ele>551.1</ele>
        <time>2019-05-24T16:38:25.543Z</time>
      </trkpt>
      <trkpt lat="45.77751" lon="4.65602">
        <ele>552.2</ele>
        <time>2019-05-24T16:38:25.747Z</time>
      </trkpt>
      <trkpt lat="45.77753" lon="4.65583">
        <ele>552.9</ele>
        <time>2019-05-24T16:38:26.017Z</time>
      </trkpt>
      <trkpt lat="45.7775" lon="4.65575">
        <ele>553.3</ele>
        <time>2019-05-24T16:38:26.139Z</time>
      </trkpt>
      <trkpt lat="45.77748" lon="4.65523">
        <ele>555.9</ele>
        <time>2019-05-24T16:38:26.855Z</time>
      </trkpt>
      <trkpt lat="45.77757" lon="4.65507">
        <ele>556.4</ele>
        <time>2019-05-24T16:38:27.150Z</time>
      </trkpt>
      <trkpt lat="45.77772" lon="4.65493">
        <ele>557.6</ele>
        <time>2019-05-24T16:38:27.507Z</time>
      </trkpt>
      <trkpt lat="45.77783" lon="4.65477">
        <ele>558.3</ele>
        <time>2019-05-24T16:38:27.821Z</time>
      </trkpt>
      <trkpt lat="45.77794" lon="4.65453">
        <ele>559.4</ele>
        <time>2019-05-24T16:38:28.218Z</time>
      </trkpt>
      <trkpt lat="45.77801" lon="4.65429">
        <ele>560.2</ele>
        <time>2019-05-24T16:38:28.582Z</time>
      </trkpt>
      <trkpt lat="45.7783" lon="4.65354">
        <ele>563.7</ele>
        <time>2019-05-24T16:38:29.776Z</time>
      </trkpt>
      <trkpt lat="45.77835" lon="4.65329">
        <ele>566.1</ele>
        <time>2019-05-24T16:38:30.145Z</time>
      </trkpt>
      <trkpt lat="45.77833" lon="4.65315">
        <ele>567.4</ele>
        <time>2019-05-24T16:38:30.352Z</time>
      </trkpt>
      <trkpt lat="45.77835" lon="4.65294">
        <ele>569.2</ele>
        <time>2019-05-24T16:38:30.640Z</time>
      </trkpt>
      <trkpt lat="45.77831" lon="4.6529">
        <ele>569.6</ele>
        <time>2019-05-24T16:38:30.744Z</time>
      </trkpt>
      <trkpt lat="45.77822" lon="4.6527">
        <ele>571.8</ele>
        <time>2019-05-24T16:38:31.078Z</time>
      </trkpt>
      <trkpt lat="45.77819" lon="4.6525">
        <ele>574.4</ele>
        <time>2019-05-24T16:38:31.358Z</time>
      </trkpt>
      <trkpt lat="45.77813" lon="4.65235">
        <ele>575.7</ele>
        <time>2019-05-24T16:38:31.606Z</time>
      </trkpt>
      <trkpt lat="45.77815" lon="4.65219">
        <ele>577.2</ele>
        <time>2019-05-24T16:38:31.819Z</time>
      </trkpt>
      <trkpt lat="45.77813" lon="4.65208">
        <ele>577.6</ele>
        <time>2019-05-24T16:38:31.981Z</time>
      </trkpt>
      <trkpt lat="45.77813" lon="4.65199">
        <ele>578.1</ele>
        <time>2019-05-24T16:38:32.114Z</time>
      </trkpt>
      <trkpt lat="45.77812" lon="4.65192">
        <ele>578.3</ele>
        <time>2019-05-24T16:38:32.219Z</time>
      </trkpt>
      <trkpt lat="45.7781" lon="4.6519">
        <ele>578</ele>
        <time>2019-05-24T16:38:32.256Z</time>
      </trkpt>
      <trkpt lat="45.77811" lon="4.65192">
        <ele>578.1</ele>
        <time>2019-05-24T16:38:32.285Z</time>
      </trkpt>
      <trkpt lat="45.7781" lon="4.65156">
        <ele>580.4</ele>
        <time>2019-05-24T16:38:32.792Z</time>
      </trkpt>
      <trkpt lat="45.77806" lon="4.65135">
        <ele>582.3</ele>
        <time>2019-05-24T16:38:33.094Z</time>
      </trkpt>
      <trkpt lat="45.77805" lon="4.6512">
        <ele>583.1</ele>
        <time>2019-05-24T16:38:33.305Z</time>
      </trkpt>
      <trkpt lat="45.77795" lon="4.65091">
        <ele>582.5</ele>
        <time>2019-05-24T16:38:33.745Z</time>
      </trkpt>
      <trkpt lat="45.7779" lon="4.65014">
        <ele>582.6</ele>
        <time>2019-05-24T16:38:34.838Z</time>
      </trkpt>
      <trkpt lat="45.77793" lon="4.64968">
        <ele>583.2</ele>
        <time>2019-05-24T16:38:35.472Z</time>
      </trkpt>
      <trkpt lat="45.77797" lon="4.6494">
        <ele>585.5</ele>
        <time>2019-05-24T16:38:35.876Z</time>
      </trkpt>
      <trkpt lat="45.77796" lon="4.64917">
        <ele>586</ele>
        <time>2019-05-24T16:38:36.200Z</time>
      </trkpt>
      <trkpt lat="45.77798" lon="4.64905">
        <ele>588.3</ele>
        <time>2019-05-24T16:38:36.377Z</time>
      </trkpt>
      <trkpt lat="45.77802" lon="4.64856">
        <ele>591.3</ele>
        <time>2019-05-24T16:38:37.062Z</time>
      </trkpt>
      <trkpt lat="45.77802" lon="4.6483">
        <ele>590.9</ele>
        <time>2019-05-24T16:38:37.430Z</time>
      </trkpt>
      <trkpt lat="45.77809" lon="4.64808">
        <ele>594.2</ele>
        <time>2019-05-24T16:38:37.774Z</time>
      </trkpt>
      <trkpt lat="45.77814" lon="4.64781">
        <ele>595.3</ele>
        <time>2019-05-24T16:38:38.153Z</time>
      </trkpt>
      <trkpt lat="45.77824" lon="4.64756">
        <ele>598.5</ele>
        <time>2019-05-24T16:38:38.559Z</time>
      </trkpt>
      <trkpt lat="45.7783" lon="4.64725">
        <ele>599.5</ele>
        <time>2019-05-24T16:38:39.009Z</time>
      </trkpt>
      <trkpt lat="45.77833" lon="4.64698">
        <ele>599.1</ele>
        <time>2019-05-24T16:38:39.392Z</time>
      </trkpt>
      <trkpt lat="45.77832" lon="4.64683">
        <ele>598</ele>
        <time>2019-05-24T16:38:39.609Z</time>
      </trkpt>
      <trkpt lat="45.77832" lon="4.64663">
        <ele>598.3</ele>
        <time>2019-05-24T16:38:39.882Z</time>
      </trkpt>
      <trkpt lat="45.77838" lon="4.64602">
        <ele>598.5</ele>
        <time>2019-05-24T16:38:40.749Z</time>
      </trkpt>
      <trkpt lat="45.77838" lon="4.64564">
        <ele>601</ele>
        <time>2019-05-24T16:38:41.278Z</time>
      </trkpt>
      <trkpt lat="45.77837" lon="4.64545">
        <ele>602.6</ele>
        <time>2019-05-24T16:38:41.545Z</time>
      </trkpt>
      <trkpt lat="45.77831" lon="4.64504">
        <ele>604.7</ele>
        <time>2019-05-24T16:38:42.128Z</time>
      </trkpt>
      <trkpt lat="45.77828" lon="4.64456">
        <ele>606.4</ele>
        <time>2019-05-24T16:38:42.798Z</time>
      </trkpt>
      <trkpt lat="45.77829" lon="4.64407">
        <ele>605.3</ele>
        <time>2019-05-24T16:38:43.483Z</time>
      </trkpt>
      <trkpt lat="45.7784" lon="4.64309">
        <ele>601.8</ele>
        <time>2019-05-24T16:38:44.875Z</time>
      </trkpt>
      <trkpt lat="45.7784" lon="4.64309">
        <ele>601.9</ele>
        <time>2019-05-24T16:38:44.879Z</time>
      </trkpt>
      <trkpt lat="45.77847" lon="4.64275">
        <ele>599.9</ele>
        <time>2019-05-24T16:38:45.378Z</time>
      </trkpt>
      <trkpt lat="45.77848" lon="4.64256">
        <ele>598.9</ele>
        <time>2019-05-24T16:38:45.643Z</time>
      </trkpt>
      <trkpt lat="45.7783" lon="4.64193">
        <ele>596.7</ele>
        <time>2019-05-24T16:38:46.593Z</time>
      </trkpt>
      <trkpt lat="45.77807" lon="4.6401">
        <ele>602.4</ele>
        <time>2019-05-24T16:38:49.191Z</time>
      </trkpt>
      <trkpt lat="45.77799" lon="4.63995">
        <ele>602.6</ele>
        <time>2019-05-24T16:38:49.458Z</time>
      </trkpt>
      <trkpt lat="45.77803" lon="4.63988">
        <ele>602.9</ele>
        <time>2019-05-24T16:38:49.591Z</time>
      </trkpt>
      <trkpt lat="45.77802" lon="4.63987">
        <ele>602.9</ele>
        <time>2019-05-24T16:38:49.614Z</time>
      </trkpt>
      <trkpt lat="45.77802" lon="4.63989">
        <ele>602.8</ele>
        <time>2019-05-24T16:38:49.641Z</time>
      </trkpt>
      <trkpt lat="45.77803" lon="4.63986">
        <ele>602.9</ele>
        <time>2019-05-24T16:38:49.679Z</time>
      </trkpt>
      <trkpt lat="45.77803" lon="4.63988">
        <ele>602.9</ele>
        <time>2019-05-24T16:38:49.708Z</time>
      </trkpt>
      <trkpt lat="45.77803" lon="4.63984">
        <ele>602.9</ele>
        <time>2019-05-24T16:38:49.764Z</time>
      </trkpt>
      <trkpt lat="45.77802" lon="4.63989">
        <ele>602.8</ele>
        <time>2019-05-24T16:38:49.833Z</time>
      </trkpt>
      <trkpt lat="45.77789" lon="4.63984">
        <ele>602.5</ele>
        <time>2019-05-24T16:38:50.094Z</time>
      </trkpt>
      <trkpt lat="45.77742" lon="4.63934">
        <ele>603.2</ele>
        <time>2019-05-24T16:38:51.274Z</time>
      </trkpt>
      <trkpt lat="45.77725" lon="4.6393">
        <ele>604</ele>
        <time>2019-05-24T16:38:51.613Z</time>
      </trkpt>
      <trkpt lat="45.77712" lon="4.6393">
        <ele>604.4</ele>
        <time>2019-05-24T16:38:51.875Z</time>
      </trkpt>
      <trkpt lat="45.77702" lon="4.63926">
        <ele>605</ele>
        <time>2019-05-24T16:38:52.090Z</time>
      </trkpt>
      <trkpt lat="45.77683" lon="4.63912">
        <ele>605.5</ele>
        <time>2019-05-24T16:38:52.517Z</time>
      </trkpt>
      <trkpt lat="45.77631" lon="4.63881">
        <ele>602.3</ele>
        <time>2019-05-24T16:38:53.649Z</time>
      </trkpt>
      <trkpt lat="45.77589" lon="4.63849">
        <ele>602.5</ele>
        <time>2019-05-24T16:38:54.599Z</time>
      </trkpt>
      <trkpt lat="45.77585" lon="4.63848">
        <ele>602.9</ele>
        <time>2019-05-24T16:38:54.689Z</time>
      </trkpt>
      <trkpt lat="45.77581" lon="4.63852">
        <ele>603.5</ele>
        <time>2019-05-24T16:38:54.785Z</time>
      </trkpt>
      <trkpt lat="45.7757" lon="4.63847">
        <ele>605.6</ele>
        <time>2019-05-24T16:38:55.000Z</time>
      </trkpt>
      <trkpt lat="45.77559" lon="4.63834">
        <ele>608.2</ele>
        <time>2019-05-24T16:38:55.290Z</time>
      </trkpt>
      <trkpt lat="45.77555" lon="4.63823">
        <ele>608.8</ele>
        <time>2019-05-24T16:38:55.460Z</time>
      </trkpt>
      <trkpt lat="45.77551" lon="4.6382">
        <ele>609.9</ele>
        <time>2019-05-24T16:38:55.546Z</time>
      </trkpt>
      <trkpt lat="45.77546" lon="4.63819">
        <ele>611.7</ele>
        <time>2019-05-24T16:38:55.664Z</time>
      </trkpt>
      <trkpt lat="45.77537" lon="4.63814">
        <ele>614.3</ele>
        <time>2019-05-24T16:38:55.850Z</time>
      </trkpt>
      <trkpt lat="45.77525" lon="4.63813">
        <ele>618.2</ele>
        <time>2019-05-24T16:38:56.099Z</time>
      </trkpt>
      <trkpt lat="45.77519" lon="4.6381">
        <ele>620.1</ele>
        <time>2019-05-24T16:38:56.226Z</time>
      </trkpt>
      <trkpt lat="45.77515" lon="4.63812">
        <ele>621.4</ele>
        <time>2019-05-24T16:38:56.302Z</time>
      </trkpt>
      <trkpt lat="45.77512" lon="4.63811">
        <ele>622.2</ele>
        <time>2019-05-24T16:38:56.358Z</time>
      </trkpt>
      <trkpt lat="45.77503" lon="4.638">
        <ele>624.8</ele>
        <time>2019-05-24T16:38:56.592Z</time>
      </trkpt>
      <trkpt lat="45.775" lon="4.638">
        <ele>625.9</ele>
        <time>2019-05-24T16:38:56.663Z</time>
      </trkpt>
      <trkpt lat="45.77477" lon="4.63778">
        <ele>631.7</ele>
        <time>2019-05-24T16:38:57.222Z</time>
      </trkpt>
      <trkpt lat="45.77463" lon="4.63771">
        <ele>633.3</ele>
        <time>2019-05-24T16:38:57.512Z</time>
      </trkpt>
      <trkpt lat="45.77458" lon="4.63775">
        <ele>634.6</ele>
        <time>2019-05-24T16:38:57.629Z</time>
      </trkpt>
      <trkpt lat="45.77454" lon="4.63782">
        <ele>635.9</ele>
        <time>2019-05-24T16:38:57.754Z</time>
      </trkpt>
      <trkpt lat="45.77445" lon="4.63783">
        <ele>637.2</ele>
        <time>2019-05-24T16:38:57.927Z</time>
      </trkpt>
      <trkpt lat="45.77431" lon="4.63788">
        <ele>638.3</ele>
        <time>2019-05-24T16:38:58.220Z</time>
      </trkpt>
      <trkpt lat="45.77421" lon="4.63794">
        <ele>638.9</ele>
        <time>2019-05-24T16:38:58.432Z</time>
      </trkpt>
      <trkpt lat="45.77411" lon="4.63798">
        <ele>639.9</ele>
        <time>2019-05-24T16:38:58.640Z</time>
      </trkpt>
      <trkpt lat="45.77393" lon="4.63796">
        <ele>643</ele>
        <time>2019-05-24T16:38:59.006Z</time>
      </trkpt>
      <trkpt lat="45.77378" lon="4.63808">
        <ele>645.2</ele>
        <time>2019-05-24T16:38:59.353Z</time>
      </trkpt>
      <trkpt lat="45.77368" lon="4.6382">
        <ele>646.7</ele>
        <time>2019-05-24T16:38:59.621Z</time>
      </trkpt>
      <trkpt lat="45.77355" lon="4.63831">
        <ele>648.1</ele>
        <time>2019-05-24T16:38:59.914Z</time>
      </trkpt>
      <trkpt lat="45.77339" lon="4.63837">
        <ele>649.9</ele>
        <time>2019-05-24T16:39:00.249Z</time>
      </trkpt>
      <trkpt lat="45.77325" lon="4.63838">
        <ele>651.5</ele>
        <time>2019-05-24T16:39:00.526Z</time>
      </trkpt>
      <trkpt lat="45.77309" lon="4.63832">
        <ele>653.8</ele>
        <time>2019-05-24T16:39:00.859Z</time>
      </trkpt>
      <trkpt lat="45.77291" lon="4.63816">
        <ele>657</ele>
        <time>2019-05-24T16:39:01.283Z</time>
      </trkpt>
      <trkpt lat="45.77269" lon="4.63805">
        <ele>659.4</ele>
        <time>2019-05-24T16:39:01.751Z</time>
      </trkpt>
      <trkpt lat="45.77256" lon="4.63795">
        <ele>660.7</ele>
        <time>2019-05-24T16:39:02.043Z</time>
      </trkpt>
      <trkpt lat="45.77242" lon="4.63771">
        <ele>663.3</ele>
        <time>2019-05-24T16:39:02.493Z</time>
      </trkpt>
      <trkpt lat="45.77229" lon="4.63733">
        <ele>668.3</ele>
        <time>2019-05-24T16:39:03.069Z</time>
      </trkpt>
      <trkpt lat="45.77219" lon="4.63725">
        <ele>669.1</ele>
        <time>2019-05-24T16:39:03.309Z</time>
      </trkpt>
      <trkpt lat="45.77211" lon="4.63721">
        <ele>670.3</ele>
        <time>2019-05-24T16:39:03.474Z</time>
      </trkpt>
      <trkpt lat="45.77198" lon="4.6372">
        <ele>672</ele>
        <time>2019-05-24T16:39:03.736Z</time>
      </trkpt>
      <trkpt lat="45.77187" lon="4.63712">
        <ele>674.5</ele>
        <time>2019-05-24T16:39:03.975Z</time>
      </trkpt>
      <trkpt lat="45.77174" lon="4.63709">
        <ele>676.9</ele>
        <time>2019-05-24T16:39:04.240Z</time>
      </trkpt>
      <trkpt lat="45.77161" lon="4.637">
        <ele>680</ele>
        <time>2019-05-24T16:39:04.534Z</time>
      </trkpt>
      <trkpt lat="45.77152" lon="4.63696">
        <ele>681.9</ele>
        <time>2019-05-24T16:39:04.721Z</time>
      </trkpt>
      <trkpt lat="45.77117" lon="4.63702">
        <ele>685.7</ele>
        <time>2019-05-24T16:39:05.427Z</time>
      </trkpt>
      <trkpt lat="45.77104" lon="4.63699">
        <ele>687.2</ele>
        <time>2019-05-24T16:39:05.688Z</time>
      </trkpt>
      <trkpt lat="45.77091" lon="4.63686">
        <ele>690.7</ele>
        <time>2019-05-24T16:39:06.004Z</time>
      </trkpt>
      <trkpt lat="45.77071" lon="4.63682">
        <ele>693.4</ele>
        <time>2019-05-24T16:39:06.396Z</time>
      </trkpt>
      <trkpt lat="45.77058" lon="4.63686">
        <ele>693.7</ele>
        <time>2019-05-24T16:39:06.664Z</time>
      </trkpt>
      <trkpt lat="45.77037" lon="4.63689">
        <ele>696.5</ele>
        <time>2019-05-24T16:39:07.096Z</time>
      </trkpt>
      <trkpt lat="45.77028" lon="4.63689">
        <ele>698.1</ele>
        <time>2019-05-24T16:39:07.281Z</time>
      </trkpt>
      <trkpt lat="45.7702" lon="4.63686">
        <ele>699.6</ele>
        <time>2019-05-24T16:39:07.448Z</time>
      </trkpt>
      <trkpt lat="45.77011" lon="4.63686">
        <ele>700.7</ele>
        <time>2019-05-24T16:39:07.625Z</time>
      </trkpt>
      <trkpt lat="45.76972" lon="4.63661">
        <ele>706.6</ele>
        <time>2019-05-24T16:39:08.482Z</time>
      </trkpt>
      <trkpt lat="45.76956" lon="4.63649">
        <ele>707.4</ele>
        <time>2019-05-24T16:39:08.841Z</time>
      </trkpt>
      <trkpt lat="45.76942" lon="4.63624">
        <ele>708.8</ele>
        <time>2019-05-24T16:39:09.285Z</time>
      </trkpt>
      <trkpt lat="45.76943" lon="4.6362">
        <ele>709.2</ele>
        <time>2019-05-24T16:39:09.340Z</time>
      </trkpt>
      <trkpt lat="45.7691" lon="4.63568">
        <ele>709.9</ele>
        <time>2019-05-24T16:39:10.326Z</time>
      </trkpt>
      <trkpt lat="45.76897" lon="4.63541">
        <ele>710.1</ele>
        <time>2019-05-24T16:39:10.784Z</time>
      </trkpt>
      <trkpt lat="45.76874" lon="4.63487">
        <ele>711.5</ele>
        <time>2019-05-24T16:39:11.675Z</time>
      </trkpt>
      <trkpt lat="45.76868" lon="4.63469">
        <ele>712.2</ele>
        <time>2019-05-24T16:39:11.950Z</time>
      </trkpt>
      <trkpt lat="45.76854" lon="4.63407">
        <ele>715.4</ele>
        <time>2019-05-24T16:39:12.860Z</time>
      </trkpt>
      <trkpt lat="45.76842" lon="4.63376">
        <ele>716.5</ele>
        <time>2019-05-24T16:39:13.348Z</time>
      </trkpt>
      <trkpt lat="45.76833" lon="4.63357">
        <ele>717.4</ele>
        <time>2019-05-24T16:39:13.682Z</time>
      </trkpt>
      <trkpt lat="45.76826" lon="4.63336">
        <ele>718.4</ele>
        <time>2019-05-24T16:39:13.998Z</time>
      </trkpt>
      <trkpt lat="45.76777" lon="4.63265">
        <ele>719.7</ele>
        <time>2019-05-24T16:39:15.404Z</time>
      </trkpt>
      <trkpt lat="45.76768" lon="4.6324">
        <ele>721.8</ele>
        <time>2019-05-24T16:39:15.799Z</time>
      </trkpt>
      <trkpt lat="45.7674" lon="4.63194">
        <ele>723.5</ele>
        <time>2019-05-24T16:39:16.641Z</time>
      </trkpt>
      <trkpt lat="45.76702" lon="4.63137">
        <ele>722.2</ele>
        <time>2019-05-24T16:39:17.746Z</time>
      </trkpt>
      <trkpt lat="45.76681" lon="4.6311">
        <ele>721.1</ele>
        <time>2019-05-24T16:39:18.313Z</time>
      </trkpt>
      <trkpt lat="45.76663" lon="4.63096">
        <ele>719.8</ele>
        <time>2019-05-24T16:39:18.720Z</time>
      </trkpt>
      <trkpt lat="45.76625" lon="4.6307">
        <ele>722.2</ele>
        <time>2019-05-24T16:39:19.576Z</time>
      </trkpt>
      <trkpt lat="45.7659" lon="4.63057">
        <ele>724.7</ele>
        <time>2019-05-24T16:39:20.291Z</time>
      </trkpt>
      <trkpt lat="45.7658" lon="4.63056">
        <ele>724.8</ele>
        <time>2019-05-24T16:39:20.488Z</time>
      </trkpt>
      <trkpt lat="45.7657" lon="4.63059">
        <ele>724.2</ele>
        <time>2019-05-24T16:39:20.700Z</time>
      </trkpt>
      <trkpt lat="45.7654" lon="4.63061">
        <ele>723.9</ele>
        <time>2019-05-24T16:39:21.306Z</time>
      </trkpt>
      <trkpt lat="45.76484" lon="4.63059">
        <ele>725.2</ele>
        <time>2019-05-24T16:39:22.418Z</time>
      </trkpt>
      <trkpt lat="45.76448" lon="4.63054">
        <ele>726.1</ele>
        <time>2019-05-24T16:39:23.157Z</time>
      </trkpt>
      <trkpt lat="45.76439" lon="4.6305">
        <ele>726.2</ele>
        <time>2019-05-24T16:39:23.338Z</time>
      </trkpt>
      <trkpt lat="45.76428" lon="4.63043">
        <ele>726.2</ele>
        <time>2019-05-24T16:39:23.582Z</time>
      </trkpt>
      <trkpt lat="45.76362" lon="4.62979">
        <ele>723.3</ele>
        <time>2019-05-24T16:39:25.171Z</time>
      </trkpt>
      <trkpt lat="45.76336" lon="4.6296">
        <ele>721.6</ele>
        <time>2019-05-24T16:39:25.751Z</time>
      </trkpt>
      <trkpt lat="45.763" lon="4.62924">
        <ele>716.6</ele>
        <time>2019-05-24T16:39:26.631Z</time>
      </trkpt>
      <trkpt lat="45.76291" lon="4.62904">
        <ele>715</ele>
        <time>2019-05-24T16:39:26.959Z</time>
      </trkpt>
      <trkpt lat="45.76279" lon="4.62886">
        <ele>715</ele>
        <time>2019-05-24T16:39:27.312Z</time>
      </trkpt>
      <trkpt lat="45.76277" lon="4.62892">
        <ele>714.8</ele>
        <time>2019-05-24T16:39:27.403Z</time>
      </trkpt>
      <trkpt lat="45.76239" lon="4.63051">
        <ele>707.3</ele>
        <time>2019-05-24T16:39:29.753Z</time>
      </trkpt>
      <trkpt lat="45.76219" lon="4.63153">
        <ele>702.8</ele>
        <time>2019-05-24T16:39:31.237Z</time>
      </trkpt>
      <trkpt lat="45.76213" lon="4.63177">
        <ele>700.3</ele>
        <time>2019-05-24T16:39:31.598Z</time>
      </trkpt>
      <trkpt lat="45.76215" lon="4.63179">
        <ele>701</ele>
        <time>2019-05-24T16:39:31.645Z</time>
      </trkpt>
      <trkpt lat="45.7622" lon="4.63171">
        <ele>702.9</ele>
        <time>2019-05-24T16:39:31.789Z</time>
      </trkpt>
      <trkpt lat="45.76231" lon="4.63109">
        <ele>706</ele>
        <time>2019-05-24T16:39:32.682Z</time>
      </trkpt>
      <trkpt lat="45.76244" lon="4.63061">
        <ele>708.6</ele>
        <time>2019-05-24T16:39:33.410Z</time>
      </trkpt>
      <trkpt lat="45.76258" lon="4.62996">
        <ele>710.5</ele>
        <time>2019-05-24T16:39:34.356Z</time>
      </trkpt>
      <trkpt lat="45.7626" lon="4.62996">
        <ele>710.8</ele>
        <time>2019-05-24T16:39:34.396Z</time>
      </trkpt>
      <trkpt lat="45.76264" lon="4.63">
        <ele>711.6</ele>
        <time>2019-05-24T16:39:34.496Z</time>
      </trkpt>
      <trkpt lat="45.76276" lon="4.63026">
        <ele>714.6</ele>
        <time>2019-05-24T16:39:34.937Z</time>
      </trkpt>
      <trkpt lat="45.76252" lon="4.63112">
        <ele>711.4</ele>
        <time>2019-05-24T16:39:36.231Z</time>
      </trkpt>
      <trkpt lat="45.76248" lon="4.63132">
        <ele>710.6</ele>
        <time>2019-05-24T16:39:36.526Z</time>
      </trkpt>
      <trkpt lat="45.76245" lon="4.63165">
        <ele>708.9</ele>
        <time>2019-05-24T16:39:36.993Z</time>
      </trkpt>
      <trkpt lat="45.76242" lon="4.63174">
        <ele>708</ele>
        <time>2019-05-24T16:39:37.124Z</time>
      </trkpt>
      <trkpt lat="45.76239" lon="4.63164">
        <ele>707.8</ele>
        <time>2019-05-24T16:39:37.268Z</time>
      </trkpt>
      <trkpt lat="45.76242" lon="4.6318">
        <ele>707.8</ele>
        <time>2019-05-24T16:39:37.489Z</time>
      </trkpt>
      <trkpt lat="45.76243" lon="4.63181">
        <ele>708</ele>
        <time>2019-05-24T16:39:37.519Z</time>
      </trkpt>
      <trkpt lat="45.76249" lon="4.63174">
        <ele>709.4</ele>
        <time>2019-05-24T16:39:37.660Z</time>
      </trkpt>
      <trkpt lat="45.7626" lon="4.63146">
        <ele>712.6</ele>
        <time>2019-05-24T16:39:38.119Z</time>
      </trkpt>
      <trkpt lat="45.76259" lon="4.63137">
        <ele>712.6</ele>
        <time>2019-05-24T16:39:38.238Z</time>
      </trkpt>
      <trkpt lat="45.76261" lon="4.63128">
        <ele>712.9</ele>
        <time>2019-05-24T16:39:38.374Z</time>
      </trkpt>
      <trkpt lat="45.76271" lon="4.63134">
        <ele>714.7</ele>
        <time>2019-05-24T16:39:38.596Z</time>
      </trkpt>
      <trkpt lat="45.76275" lon="4.63133">
        <ele>715.6</ele>
        <time>2019-05-24T16:39:38.688Z</time>
      </trkpt>
      <trkpt lat="45.76283" lon="4.63139">
        <ele>716.6</ele>
        <time>2019-05-24T16:39:38.867Z</time>
      </trkpt>
      <trkpt lat="45.76288" lon="4.63145">
        <ele>716.8</ele>
        <time>2019-05-24T16:39:38.985Z</time>
      </trkpt>
      <trkpt lat="45.76291" lon="4.63146">
        <ele>717.1</ele>
        <time>2019-05-24T16:39:39.051Z</time>
      </trkpt>
      <trkpt lat="45.76295" lon="4.63145">
        <ele>717.6</ele>
        <time>2019-05-24T16:39:39.132Z</time>
      </trkpt>
      <trkpt lat="45.76305" lon="4.63145">
        <ele>718.7</ele>
        <time>2019-05-24T16:39:39.339Z</time>
      </trkpt>
      <trkpt lat="45.76318" lon="4.63149">
        <ele>719.5</ele>
        <time>2019-05-24T16:39:39.608Z</time>
      </trkpt>
      <trkpt lat="45.76326" lon="4.63154">
        <ele>719.9</ele>
        <time>2019-05-24T16:39:39.785Z</time>
      </trkpt>
      <trkpt lat="45.76332" lon="4.63162">
        <ele>720.1</ele>
        <time>2019-05-24T16:39:39.952Z</time>
      </trkpt>
      <trkpt lat="45.76333" lon="4.63168">
        <ele>719.9</ele>
        <time>2019-05-24T16:39:40.035Z</time>
      </trkpt>
      <trkpt lat="45.76336" lon="4.63174">
        <ele>719.8</ele>
        <time>2019-05-24T16:39:40.146Z</time>
      </trkpt>
      <trkpt lat="45.76342" lon="4.63178">
        <ele>719.9</ele>
        <time>2019-05-24T16:39:40.284Z</time>
      </trkpt>
      <trkpt lat="45.76342" lon="4.63179">
        <ele>719.9</ele>
        <time>2019-05-24T16:39:40.308Z</time>
      </trkpt>
      <trkpt lat="45.76339" lon="4.63174">
        <ele>719.9</ele>
        <time>2019-05-24T16:39:40.404Z</time>
      </trkpt>
      <trkpt lat="45.76339" lon="4.63176">
        <ele>719.9</ele>
        <time>2019-05-24T16:39:40.424Z</time>
      </trkpt>
      <trkpt lat="45.76341" lon="4.63173">
        <ele>720</ele>
        <time>2019-05-24T16:39:40.477Z</time>
      </trkpt>
      <trkpt lat="45.76345" lon="4.63183">
        <ele>719.9</ele>
        <time>2019-05-24T16:39:40.636Z</time>
      </trkpt>
      <trkpt lat="45.76355" lon="4.63253">
        <ele>716.9</ele>
        <time>2019-05-24T16:39:41.638Z</time>
      </trkpt>
      <trkpt lat="45.76352" lon="4.63268">
        <ele>716.1</ele>
        <time>2019-05-24T16:39:41.857Z</time>
      </trkpt>
      <trkpt lat="45.76352" lon="4.63363">
        <ele>710.9</ele>
        <time>2019-05-24T16:39:43.184Z</time>
      </trkpt>
      <trkpt lat="45.76357" lon="4.6342">
        <ele>705.5</ele>
        <time>2019-05-24T16:39:43.992Z</time>
      </trkpt>
      <trkpt lat="45.76357" lon="4.63436">
        <ele>703.3</ele>
        <time>2019-05-24T16:39:44.213Z</time>
      </trkpt>
      <trkpt lat="45.76364" lon="4.63453">
        <ele>700.6</ele>
        <time>2019-05-24T16:39:44.497Z</time>
      </trkpt>
      <trkpt lat="45.76354" lon="4.63511">
        <ele>692.1</ele>
        <time>2019-05-24T16:39:45.335Z</time>
      </trkpt>
      <trkpt lat="45.76354" lon="4.63517">
        <ele>691.1</ele>
        <time>2019-05-24T16:39:45.416Z</time>
      </trkpt>
      <trkpt lat="45.76363" lon="4.63535">
        <ele>687.8</ele>
        <time>2019-05-24T16:39:45.723Z</time>
      </trkpt>
      <trkpt lat="45.76366" lon="4.6355">
        <ele>685.5</ele>
        <time>2019-05-24T16:39:45.940Z</time>
      </trkpt>
      <trkpt lat="45.76366" lon="4.63559">
        <ele>684.1</ele>
        <time>2019-05-24T16:39:46.057Z</time>
      </trkpt>
      <trkpt lat="45.76372" lon="4.63575">
        <ele>681</ele>
        <time>2019-05-24T16:39:46.324Z</time>
      </trkpt>
      <trkpt lat="45.76375" lon="4.6359">
        <ele>678.6</ele>
        <time>2019-05-24T16:39:46.533Z</time>
      </trkpt>
      <trkpt lat="45.76379" lon="4.63595">
        <ele>677.7</ele>
        <time>2019-05-24T16:39:46.639Z</time>
      </trkpt>
      <trkpt lat="45.76395" lon="4.63608">
        <ele>674.5</ele>
        <time>2019-05-24T16:39:47.005Z</time>
      </trkpt>
      <trkpt lat="45.76402" lon="4.63611">
        <ele>672.6</ele>
        <time>2019-05-24T16:39:47.158Z</time>
      </trkpt>
      <trkpt lat="45.76408" lon="4.63629">
        <ele>669</ele>
        <time>2019-05-24T16:39:47.431Z</time>
      </trkpt>
      <trkpt lat="45.76402" lon="4.6369">
        <ele>662.6</ele>
        <time>2019-05-24T16:39:48.292Z</time>
      </trkpt>
      <trkpt lat="45.76393" lon="4.63734">
        <ele>659.5</ele>
        <time>2019-05-24T16:39:48.925Z</time>
      </trkpt>
      <trkpt lat="45.7639" lon="4.63741">
        <ele>659</ele>
        <time>2019-05-24T16:39:49.039Z</time>
      </trkpt>
      <trkpt lat="45.76388" lon="4.6376">
        <ele>656.9</ele>
        <time>2019-05-24T16:39:49.319Z</time>
      </trkpt>
      <trkpt lat="45.76387" lon="4.63813">
        <ele>650.1</ele>
        <time>2019-05-24T16:39:50.059Z</time>
      </trkpt>
      <trkpt lat="45.76396" lon="4.63869">
        <ele>643.2</ele>
        <time>2019-05-24T16:39:50.849Z</time>
      </trkpt>
      <trkpt lat="45.76397" lon="4.63893">
        <ele>640</ele>
        <time>2019-05-24T16:39:51.189Z</time>
      </trkpt>
      <trkpt lat="45.76416" lon="4.63934">
        <ele>635.8</ele>
        <time>2019-05-24T16:39:51.877Z</time>
      </trkpt>
      <trkpt lat="45.76423" lon="4.63956">
        <ele>633.3</ele>
        <time>2019-05-24T16:39:52.219Z</time>
      </trkpt>
      <trkpt lat="45.76426" lon="4.6399">
        <ele>631.1</ele>
        <time>2019-05-24T16:39:52.693Z</time>
      </trkpt>
      <trkpt lat="45.76439" lon="4.64002">
        <ele>630.1</ele>
        <time>2019-05-24T16:39:52.994Z</time>
      </trkpt>
      <trkpt lat="45.76442" lon="4.64013">
        <ele>629.2</ele>
        <time>2019-05-24T16:39:53.164Z</time>
      </trkpt>
      <trkpt lat="45.76442" lon="4.64042">
        <ele>627</ele>
        <time>2019-05-24T16:39:53.578Z</time>
      </trkpt>
      <trkpt lat="45.76441" lon="4.64046">
        <ele>626.7</ele>
        <time>2019-05-24T16:39:53.639Z</time>
      </trkpt>
      <trkpt lat="45.76446" lon="4.64068">
        <ele>624.4</ele>
        <time>2019-05-24T16:39:53.965Z</time>
      </trkpt>
      <trkpt lat="45.76436" lon="4.64105">
        <ele>619.6</ele>
        <time>2019-05-24T16:39:54.515Z</time>
      </trkpt>
      <trkpt lat="45.76428" lon="4.64124">
        <ele>616.4</ele>
        <time>2019-05-24T16:39:54.818Z</time>
      </trkpt>
      <trkpt lat="45.7643" lon="4.64133">
        <ele>614.9</ele>
        <time>2019-05-24T16:39:54.956Z</time>
      </trkpt>
      <trkpt lat="45.76446" lon="4.64156">
        <ele>611.8</ele>
        <time>2019-05-24T16:39:55.412Z</time>
      </trkpt>
      <trkpt lat="45.76455" lon="4.64164">
        <ele>610.2</ele>
        <time>2019-05-24T16:39:55.613Z</time>
      </trkpt>
      <trkpt lat="45.7646" lon="4.64166">
        <ele>609.6</ele>
        <time>2019-05-24T16:39:55.727Z</time>
      </trkpt>
      <trkpt lat="45.76466" lon="4.64175">
        <ele>607.4</ele>
        <time>2019-05-24T16:39:55.903Z</time>
      </trkpt>
      <trkpt lat="45.76479" lon="4.64208">
        <ele>599.2</ele>
        <time>2019-05-24T16:39:56.435Z</time>
      </trkpt>
      <trkpt lat="45.76489" lon="4.64222">
        <ele>595.2</ele>
        <time>2019-05-24T16:39:56.708Z</time>
      </trkpt>
      <trkpt lat="45.76494" lon="4.64236">
        <ele>591.5</ele>
        <time>2019-05-24T16:39:56.931Z</time>
      </trkpt>
      <trkpt lat="45.76495" lon="4.64235">
        <ele>591.6</ele>
        <time>2019-05-24T16:39:56.965Z</time>
      </trkpt>
      <trkpt lat="45.76517" lon="4.64239">
        <ele>587.8</ele>
        <time>2019-05-24T16:39:57.398Z</time>
      </trkpt>
      <trkpt lat="45.7653" lon="4.64237">
        <ele>585.9</ele>
        <time>2019-05-24T16:39:57.660Z</time>
      </trkpt>
      <trkpt lat="45.76541" lon="4.64226">
        <ele>585.2</ele>
        <time>2019-05-24T16:39:57.925Z</time>
      </trkpt>
      <trkpt lat="45.76545" lon="4.64224">
        <ele>584.4</ele>
        <time>2019-05-24T16:39:58.017Z</time>
      </trkpt>
      <trkpt lat="45.76556" lon="4.64221">
        <ele>581.9</ele>
        <time>2019-05-24T16:39:58.244Z</time>
      </trkpt>
      <trkpt lat="45.76565" lon="4.64228">
        <ele>578.6</ele>
        <time>2019-05-24T16:39:58.452Z</time>
      </trkpt>
      <trkpt lat="45.76568" lon="4.64238">
        <ele>576.9</ele>
        <time>2019-05-24T16:39:58.603Z</time>
      </trkpt>
      <trkpt lat="45.76574" lon="4.64244">
        <ele>574.8</ele>
        <time>2019-05-24T16:39:58.752Z</time>
      </trkpt>
      <trkpt lat="45.76581" lon="4.64259">
        <ele>571.3</ele>
        <time>2019-05-24T16:39:59.002Z</time>
      </trkpt>
      <trkpt lat="45.76582" lon="4.64265">
        <ele>570.2</ele>
        <time>2019-05-24T16:39:59.088Z</time>
      </trkpt>
      <trkpt lat="45.7658" lon="4.64272">
        <ele>569.6</ele>
        <time>2019-05-24T16:39:59.203Z</time>
      </trkpt>
      <trkpt lat="45.76585" lon="4.64275">
        <ele>567.8</ele>
        <time>2019-05-24T16:39:59.299Z</time>
      </trkpt>
      <trkpt lat="45.76583" lon="4.64274">
        <ele>568.6</ele>
        <time>2019-05-24T16:39:59.330Z</time>
      </trkpt>
      <trkpt lat="45.76585" lon="4.64277">
        <ele>567.5</ele>
        <time>2019-05-24T16:39:59.377Z</time>
      </trkpt>
      <trkpt lat="45.76584" lon="4.64284">
        <ele>566.4</ele>
        <time>2019-05-24T16:39:59.480Z</time>
      </trkpt>
      <trkpt lat="45.76587" lon="4.64326">
        <ele>557.3</ele>
        <time>2019-05-24T16:40:00.066Z</time>
      </trkpt>
      <trkpt lat="45.76582" lon="4.64382">
        <ele>550.1</ele>
        <time>2019-05-24T16:40:00.858Z</time>
      </trkpt>
      <trkpt lat="45.76559" lon="4.64426">
        <ele>542.6</ele>
        <time>2019-05-24T16:40:01.626Z</time>
      </trkpt>
      <trkpt lat="45.76552" lon="4.64434">
        <ele>540.9</ele>
        <time>2019-05-24T16:40:01.815Z</time>
      </trkpt>
      <trkpt lat="45.76551" lon="4.64438">
        <ele>540.2</ele>
        <time>2019-05-24T16:40:01.869Z</time>
      </trkpt>
      <trkpt lat="45.76555" lon="4.64439">
        <ele>540.7</ele>
        <time>2019-05-24T16:40:01.944Z</time>
      </trkpt>
      <trkpt lat="45.76553" lon="4.64428">
        <ele>541.9</ele>
        <time>2019-05-24T16:40:02.099Z</time>
      </trkpt>
      <trkpt lat="45.76558" lon="4.64423">
        <ele>543</ele>
        <time>2019-05-24T16:40:02.214Z</time>
      </trkpt>
      <trkpt lat="45.76557" lon="4.6442">
        <ele>543.4</ele>
        <time>2019-05-24T16:40:02.253Z</time>
      </trkpt>
      <trkpt lat="45.76557" lon="4.64456">
        <ele>538.8</ele>
        <time>2019-05-24T16:40:02.754Z</time>
      </trkpt>
      <trkpt lat="45.76554" lon="4.64459">
        <ele>538.2</ele>
        <time>2019-05-24T16:40:02.821Z</time>
      </trkpt>
      <trkpt lat="45.76554" lon="4.64457">
        <ele>538.4</ele>
        <time>2019-05-24T16:40:02.840Z</time>
      </trkpt>
      <trkpt lat="45.76552" lon="4.64458">
        <ele>537.8</ele>
        <time>2019-05-24T16:40:02.887Z</time>
      </trkpt>
      <trkpt lat="45.76557" lon="4.6446">
        <ele>538.4</ele>
        <time>2019-05-24T16:40:02.984Z</time>
      </trkpt>
      <trkpt lat="45.76563" lon="4.64445">
        <ele>540</ele>
        <time>2019-05-24T16:40:03.234Z</time>
      </trkpt>
      <trkpt lat="45.76562" lon="4.6445">
        <ele>539.5</ele>
        <time>2019-05-24T16:40:03.306Z</time>
      </trkpt>
      <trkpt lat="45.76567" lon="4.64508">
        <ele>534.1</ele>
        <time>2019-05-24T16:40:04.127Z</time>
      </trkpt>
      <trkpt lat="45.76579" lon="4.64576">
        <ele>528.1</ele>
        <time>2019-05-24T16:40:05.111Z</time>
      </trkpt>
      <trkpt lat="45.76585" lon="4.64598">
        <ele>526.5</ele>
        <time>2019-05-24T16:40:05.438Z</time>
      </trkpt>
      <trkpt lat="45.76593" lon="4.64619">
        <ele>525.1</ele>
        <time>2019-05-24T16:40:05.772Z</time>
      </trkpt>
      <trkpt lat="45.76609" lon="4.64677">
        <ele>520.2</ele>
        <time>2019-05-24T16:40:06.642Z</time>
      </trkpt>
      <trkpt lat="45.76617" lon="4.64724">
        <ele>515.5</ele>
        <time>2019-05-24T16:40:07.314Z</time>
      </trkpt>
      <trkpt lat="45.76627" lon="4.64752">
        <ele>514.1</ele>
        <time>2019-05-24T16:40:07.755Z</time>
      </trkpt>
      <trkpt lat="45.76632" lon="4.64771">
        <ele>512.5</ele>
        <time>2019-05-24T16:40:08.046Z</time>
      </trkpt>
      <trkpt lat="45.76637" lon="4.6483">
        <ele>507</ele>
        <time>2019-05-24T16:40:08.876Z</time>
      </trkpt>
      <trkpt lat="45.76637" lon="4.6487">
        <ele>501.8</ele>
        <time>2019-05-24T16:40:09.431Z</time>
      </trkpt>
      <trkpt lat="45.76644" lon="4.64941">
        <ele>494</ele>
        <time>2019-05-24T16:40:10.436Z</time>
      </trkpt>
      <trkpt lat="45.76644" lon="4.64977">
        <ele>490.3</ele>
        <time>2019-05-24T16:40:10.941Z</time>
      </trkpt>
      <trkpt lat="45.76647" lon="4.65004">
        <ele>488.9</ele>
        <time>2019-05-24T16:40:11.321Z</time>
      </trkpt>
      <trkpt lat="45.76653" lon="4.65042">
        <ele>486.2</ele>
        <time>2019-05-24T16:40:11.862Z</time>
      </trkpt>
      <trkpt lat="45.76653" lon="4.65044">
        <ele>486.1</ele>
        <time>2019-05-24T16:40:11.896Z</time>
      </trkpt>
      <trkpt lat="45.76656" lon="4.65043">
        <ele>486.3</ele>
        <time>2019-05-24T16:40:11.945Z</time>
      </trkpt>
      <trkpt lat="45.76658" lon="4.65056">
        <ele>485.7</ele>
        <time>2019-05-24T16:40:12.140Z</time>
      </trkpt>
      <trkpt lat="45.76658" lon="4.65092">
        <ele>483</ele>
        <time>2019-05-24T16:40:12.640Z</time>
      </trkpt>
      <trkpt lat="45.76661" lon="4.65104">
        <ele>482.2</ele>
        <time>2019-05-24T16:40:12.817Z</time>
      </trkpt>
      <trkpt lat="45.76668" lon="4.65114">
        <ele>481.8</ele>
        <time>2019-05-24T16:40:13.020Z</time>
      </trkpt>
      <trkpt lat="45.76672" lon="4.65131">
        <ele>480.7</ele>
        <time>2019-05-24T16:40:13.270Z</time>
      </trkpt>
      <trkpt lat="45.76679" lon="4.65137">
        <ele>480.6</ele>
        <time>2019-05-24T16:40:13.446Z</time>
      </trkpt>
      <trkpt lat="45.76707" lon="4.65077">
        <ele>480.5</ele>
        <time>2019-05-24T16:40:14.445Z</time>
      </trkpt>
      <trkpt lat="45.76713" lon="4.65053">
        <ele>477.2</ele>
        <time>2019-05-24T16:40:14.805Z</time>
      </trkpt>
      <trkpt lat="45.7672" lon="4.65043">
        <ele>475.5</ele>
        <time>2019-05-24T16:40:15.010Z</time>
      </trkpt>
      <trkpt lat="45.76731" lon="4.65049">
        <ele>475.1</ele>
        <time>2019-05-24T16:40:15.237Z</time>
      </trkpt>
      <trkpt lat="45.76748" lon="4.65051">
        <ele>475.8</ele>
        <time>2019-05-24T16:40:15.584Z</time>
      </trkpt>
      <trkpt lat="45.76775" lon="4.65058">
        <ele>476.2</ele>
        <time>2019-05-24T16:40:16.132Z</time>
      </trkpt>
      <trkpt lat="45.76811" lon="4.6505">
        <ele>479</ele>
        <time>2019-05-24T16:40:16.869Z</time>
      </trkpt>
      <trkpt lat="45.76829" lon="4.65033">
        <ele>481.3</ele>
        <time>2019-05-24T16:40:17.288Z</time>
      </trkpt>
      <trkpt lat="45.76842" lon="4.65023">
        <ele>482.2</ele>
        <time>2019-05-24T16:40:17.591Z</time>
      </trkpt>
      <trkpt lat="45.76861" lon="4.65012">
        <ele>482.3</ele>
        <time>2019-05-24T16:40:18.000Z</time>
      </trkpt>
      <trkpt lat="45.76874" lon="4.64991">
        <ele>485.5</ele>
        <time>2019-05-24T16:40:18.389Z</time>
      </trkpt>
      <trkpt lat="45.76885" lon="4.64982">
        <ele>487.1</ele>
        <time>2019-05-24T16:40:18.654Z</time>
      </trkpt>
      <trkpt lat="45.76894" lon="4.64979">
        <ele>488.3</ele>
        <time>2019-05-24T16:40:18.822Z</time>
      </trkpt>
      <trkpt lat="45.76907" lon="4.64969">
        <ele>492.4</ele>
        <time>2019-05-24T16:40:19.128Z</time>
      </trkpt>
      <trkpt lat="45.76914" lon="4.6497">
        <ele>493.3</ele>
        <time>2019-05-24T16:40:19.269Z</time>
      </trkpt>
      <trkpt lat="45.76927" lon="4.64979">
        <ele>495.3</ele>
        <time>2019-05-24T16:40:19.553Z</time>
      </trkpt>
      <trkpt lat="45.76939" lon="4.64982">
        <ele>498.8</ele>
        <time>2019-05-24T16:40:19.800Z</time>
      </trkpt>
      <trkpt lat="45.76957" lon="4.64997">
        <ele>500.7</ele>
        <time>2019-05-24T16:40:20.213Z</time>
      </trkpt>
      <trkpt lat="45.76977" lon="4.65001">
        <ele>503.1</ele>
        <time>2019-05-24T16:40:20.604Z</time>
      </trkpt>
      <trkpt lat="45.76984" lon="4.65">
        <ele>503.5</ele>
        <time>2019-05-24T16:40:20.754Z</time>
      </trkpt>
      <trkpt lat="45.76998" lon="4.64994">
        <ele>504.6</ele>
        <time>2019-05-24T16:40:21.049Z</time>
      </trkpt>
      <trkpt lat="45.76999" lon="4.64987">
        <ele>505.4</ele>
        <time>2019-05-24T16:40:21.157Z</time>
      </trkpt>
      <trkpt lat="45.76977" lon="4.64917">
        <ele>513.6</ele>
        <time>2019-05-24T16:40:22.221Z</time>
      </trkpt>
      <trkpt lat="45.76974" lon="4.64904">
        <ele>514.8</ele>
        <time>2019-05-24T16:40:22.418Z</time>
      </trkpt>
      <trkpt lat="45.76973" lon="4.64891">
        <ele>515.8</ele>
        <time>2019-05-24T16:40:22.597Z</time>
      </trkpt>
      <trkpt lat="45.76974" lon="4.64887">
        <ele>516.2</ele>
        <time>2019-05-24T16:40:22.659Z</time>
      </trkpt>
      <trkpt lat="45.76972" lon="4.64886">
        <ele>516.4</ele>
        <time>2019-05-24T16:40:22.697Z</time>
      </trkpt>
      <trkpt lat="45.76977" lon="4.64938">
        <ele>510.8</ele>
        <time>2019-05-24T16:40:23.426Z</time>
      </trkpt>
      <trkpt lat="45.76989" lon="4.64984">
        <ele>505.3</ele>
        <time>2019-05-24T16:40:24.111Z</time>
      </trkpt>
      <trkpt lat="45.76991" lon="4.64987">
        <ele>505.1</ele>
        <time>2019-05-24T16:40:24.172Z</time>
      </trkpt>
      <trkpt lat="45.76999" lon="4.64983">
        <ele>505.8</ele>
        <time>2019-05-24T16:40:24.335Z</time>
      </trkpt>
      <trkpt lat="45.77012" lon="4.64972">
        <ele>506.6</ele>
        <time>2019-05-24T16:40:24.646Z</time>
      </trkpt>
      <trkpt lat="45.77036" lon="4.64948">
        <ele>506.8</ele>
        <time>2019-05-24T16:40:25.235Z</time>
      </trkpt>
      <trkpt lat="45.77043" lon="4.6494">
        <ele>506.8</ele>
        <time>2019-05-24T16:40:25.407Z</time>
      </trkpt>
      <trkpt lat="45.77049" lon="4.64922">
        <ele>507.3</ele>
        <time>2019-05-24T16:40:25.689Z</time>
      </trkpt>
      <trkpt lat="45.7706" lon="4.64881">
        <ele>507</ele>
        <time>2019-05-24T16:40:26.299Z</time>
      </trkpt>
      <trkpt lat="45.77064" lon="4.64859">
        <ele>506.7</ele>
        <time>2019-05-24T16:40:26.619Z</time>
      </trkpt>
      <trkpt lat="45.77082" lon="4.64798">
        <ele>502.4</ele>
        <time>2019-05-24T16:40:27.549Z</time>
      </trkpt>
      <trkpt lat="45.77105" lon="4.64765">
        <ele>495.4</ele>
        <time>2019-05-24T16:40:28.199Z</time>
      </trkpt>
      <trkpt lat="45.77119" lon="4.64757">
        <ele>494.3</ele>
        <time>2019-05-24T16:40:28.505Z</time>
      </trkpt>
      <trkpt lat="45.77129" lon="4.64754">
        <ele>495</ele>
        <time>2019-05-24T16:40:28.708Z</time>
      </trkpt>
      <trkpt lat="45.77155" lon="4.64758">
        <ele>496.3</ele>
        <time>2019-05-24T16:40:29.218Z</time>
      </trkpt>
      <trkpt lat="45.77163" lon="4.64765">
        <ele>495.6</ele>
        <time>2019-05-24T16:40:29.398Z</time>
      </trkpt>
      <trkpt lat="45.77182" lon="4.64764">
        <ele>498.5</ele>
        <time>2019-05-24T16:40:29.794Z</time>
      </trkpt>
      <trkpt lat="45.77203" lon="4.64756">
        <ele>501.6</ele>
        <time>2019-05-24T16:40:30.224Z</time>
      </trkpt>
      <trkpt lat="45.77214" lon="4.64749">
        <ele>502.7</ele>
        <time>2019-05-24T16:40:30.468Z</time>
      </trkpt>
      <trkpt lat="45.77219" lon="4.64743">
        <ele>503.9</ele>
        <time>2019-05-24T16:40:30.598Z</time>
      </trkpt>
      <trkpt lat="45.77238" lon="4.64727">
        <ele>504.9</ele>
        <time>2019-05-24T16:40:31.045Z</time>
      </trkpt>
      <trkpt lat="45.77249" lon="4.64701">
        <ele>506.5</ele>
        <time>2019-05-24T16:40:31.473Z</time>
      </trkpt>
      <trkpt lat="45.7726" lon="4.64633">
        <ele>504.6</ele>
        <time>2019-05-24T16:40:32.446Z</time>
      </trkpt>
      <trkpt lat="45.77258" lon="4.64553">
        <ele>504.9</ele>
        <time>2019-05-24T16:40:33.563Z</time>
      </trkpt>
      <trkpt lat="45.77256" lon="4.64543">
        <ele>505.5</ele>
        <time>2019-05-24T16:40:33.704Z</time>
      </trkpt>
      <trkpt lat="45.77259" lon="4.64534">
        <ele>505.9</ele>
        <time>2019-05-24T16:40:33.845Z</time>
      </trkpt>
      <trkpt lat="45.77283" lon="4.64524">
        <ele>510.3</ele>
        <time>2019-05-24T16:40:34.352Z</time>
      </trkpt>
      <trkpt lat="45.77299" lon="4.64535">
        <ele>506.5</ele>
        <time>2019-05-24T16:40:34.695Z</time>
      </trkpt>
      <trkpt lat="45.77317" lon="4.64536">
        <ele>506.8</ele>
        <time>2019-05-24T16:40:35.060Z</time>
      </trkpt>
      <trkpt lat="45.77351" lon="4.64532">
        <ele>509.6</ele>
        <time>2019-05-24T16:40:35.754Z</time>
      </trkpt>
      <trkpt lat="45.77376" lon="4.64523">
        <ele>511</ele>
        <time>2019-05-24T16:40:36.259Z</time>
      </trkpt>
      <trkpt lat="45.77383" lon="4.64515">
        <ele>511.8</ele>
        <time>2019-05-24T16:40:36.441Z</time>
      </trkpt>
      <trkpt lat="45.77386" lon="4.64505">
        <ele>513.4</ele>
        <time>2019-05-24T16:40:36.588Z</time>
      </trkpt>
      <trkpt lat="45.77392" lon="4.64494">
        <ele>514.4</ele>
        <time>2019-05-24T16:40:36.788Z</time>
      </trkpt>
      <trkpt lat="45.77414" lon="4.64467">
        <ele>514.5</ele>
        <time>2019-05-24T16:40:37.364Z</time>
      </trkpt>
      <trkpt lat="45.7746" lon="4.64432">
        <ele>508</ele>
        <time>2019-05-24T16:40:38.403Z</time>
      </trkpt>
      <trkpt lat="45.77473" lon="4.64417">
        <ele>506.7</ele>
        <time>2019-05-24T16:40:38.744Z</time>
      </trkpt>
      <trkpt lat="45.7749" lon="4.64402">
        <ele>503.4</ele>
        <time>2019-05-24T16:40:39.148Z</time>
      </trkpt>
      <trkpt lat="45.77491" lon="4.64402">
        <ele>503.4</ele>
        <time>2019-05-24T16:40:39.155Z</time>
      </trkpt>
      <trkpt lat="45.77491" lon="4.64402">
        <ele>503.4</ele>
        <time>2019-05-24T16:40:39.155Z</time>
      </trkpt>
      <trkpt lat="45.77516" lon="4.64384">
        <ele>503.2</ele>
        <time>2019-05-24T16:40:39.731Z</time>
      </trkpt>
      <trkpt lat="45.77531" lon="4.6438">
        <ele>503.4</ele>
        <time>2019-05-24T16:40:40.025Z</time>
      </trkpt>
      <trkpt lat="45.77555" lon="4.64385">
        <ele>506.9</ele>
        <time>2019-05-24T16:40:40.516Z</time>
      </trkpt>
      <trkpt lat="45.77561" lon="4.64388">
        <ele>508.6</ele>
        <time>2019-05-24T16:40:40.648Z</time>
      </trkpt>
      <trkpt lat="45.77565" lon="4.6439">
        <ele>509.7</ele>
        <time>2019-05-24T16:40:40.722Z</time>
      </trkpt>
      <trkpt lat="45.77568" lon="4.64399">
        <ele>511.5</ele>
        <time>2019-05-24T16:40:40.864Z</time>
      </trkpt>
      <trkpt lat="45.77563" lon="4.6441">
        <ele>511</ele>
        <time>2019-05-24T16:40:41.045Z</time>
      </trkpt>
      <trkpt lat="45.77567" lon="4.64418">
        <ele>512.9</ele>
        <time>2019-05-24T16:40:41.183Z</time>
      </trkpt>
      <trkpt lat="45.77569" lon="4.64427">
        <ele>514.3</ele>
        <time>2019-05-24T16:40:41.316Z</time>
      </trkpt>
      <trkpt lat="45.77569" lon="4.64439">
        <ele>515</ele>
        <time>2019-05-24T16:40:41.473Z</time>
      </trkpt>
      <trkpt lat="45.77554" lon="4.64469">
        <ele>511.4</ele>
        <time>2019-05-24T16:40:41.996Z</time>
      </trkpt>
      <trkpt lat="45.77549" lon="4.64529">
        <ele>511</ele>
        <time>2019-05-24T16:40:42.838Z</time>
      </trkpt>
      <trkpt lat="45.77534" lon="4.64589">
        <ele>505.5</ele>
        <time>2019-05-24T16:40:43.738Z</time>
      </trkpt>
      <trkpt lat="45.77531" lon="4.64619">
        <ele>503.7</ele>
        <time>2019-05-24T16:40:44.160Z</time>
      </trkpt>
      <trkpt lat="45.77533" lon="4.64621">
        <ele>503.9</ele>
        <time>2019-05-24T16:40:44.199Z</time>
      </trkpt>
      <trkpt lat="45.77556" lon="4.64598">
        <ele>511.5</ele>
        <time>2019-05-24T16:40:44.761Z</time>
      </trkpt>
      <trkpt lat="45.77567" lon="4.6458">
        <ele>515</ele>
        <time>2019-05-24T16:40:45.094Z</time>
      </trkpt>
      <trkpt lat="45.77573" lon="4.64565">
        <ele>517.4</ele>
        <time>2019-05-24T16:40:45.341Z</time>
      </trkpt>
      <trkpt lat="45.77577" lon="4.64546">
        <ele>519.1</ele>
        <time>2019-05-24T16:40:45.613Z</time>
      </trkpt>
      <trkpt lat="45.77579" lon="4.64518">
        <ele>519.8</ele>
        <time>2019-05-24T16:40:46.012Z</time>
      </trkpt>
      <trkpt lat="45.77587" lon="4.6449">
        <ele>522.1</ele>
        <time>2019-05-24T16:40:46.432Z</time>
      </trkpt>
      <trkpt lat="45.77591" lon="4.64466">
        <ele>522.6</ele>
        <time>2019-05-24T16:40:46.779Z</time>
      </trkpt>
      <trkpt lat="45.77601" lon="4.64436">
        <ele>523.5</ele>
        <time>2019-05-24T16:40:47.250Z</time>
      </trkpt>
      <trkpt lat="45.77616" lon="4.64414">
        <ele>526.4</ele>
        <time>2019-05-24T16:40:47.674Z</time>
      </trkpt>
      <trkpt lat="45.77625" lon="4.64385">
        <ele>526.6</ele>
        <time>2019-05-24T16:40:48.112Z</time>
      </trkpt>
      <trkpt lat="45.7764" lon="4.64354">
        <ele>527.5</ele>
        <time>2019-05-24T16:40:48.642Z</time>
      </trkpt>
      <trkpt lat="45.77648" lon="4.64307">
        <ele>526.7</ele>
        <time>2019-05-24T16:40:49.321Z</time>
      </trkpt>
      <trkpt lat="45.77655" lon="4.64299">
        <ele>528.6</ele>
        <time>2019-05-24T16:40:49.506Z</time>
      </trkpt>
      <trkpt lat="45.77655" lon="4.64296">
        <ele>528.3</ele>
        <time>2019-05-24T16:40:49.549Z</time>
      </trkpt>
      <trkpt lat="45.77657" lon="4.64292">
        <ele>528.9</ele>
        <time>2019-05-24T16:40:49.621Z</time>
      </trkpt>
      <trkpt lat="45.77665" lon="4.64251">
        <ele>530.8</ele>
        <time>2019-05-24T16:40:50.226Z</time>
      </trkpt>
      <trkpt lat="45.77666" lon="4.64252">
        <ele>530.9</ele>
        <time>2019-05-24T16:40:50.251Z</time>
      </trkpt>
      <trkpt lat="45.7767" lon="4.64248">
        <ele>532.2</ele>
        <time>2019-05-24T16:40:50.339Z</time>
      </trkpt>
      <trkpt lat="45.77666" lon="4.64238">
        <ele>531.8</ele>
        <time>2019-05-24T16:40:50.509Z</time>
      </trkpt>
      <trkpt lat="45.7766" lon="4.64229">
        <ele>532.5</ele>
        <time>2019-05-24T16:40:50.676Z</time>
      </trkpt>
      <trkpt lat="45.77655" lon="4.64213">
        <ele>535.5</ele>
        <time>2019-05-24T16:40:50.931Z</time>
      </trkpt>
      <trkpt lat="45.77638" lon="4.64203">
        <ele>538.2</ele>
        <time>2019-05-24T16:40:51.299Z</time>
      </trkpt>
      <trkpt lat="45.77632" lon="4.64197">
        <ele>539.5</ele>
        <time>2019-05-24T16:40:51.434Z</time>
      </trkpt>
      <trkpt lat="45.77635" lon="4.64188">
        <ele>541.5</ele>
        <time>2019-05-24T16:40:51.578Z</time>
      </trkpt>
      <trkpt lat="45.7763" lon="4.64173">
        <ele>544.4</ele>
        <time>2019-05-24T16:40:51.798Z</time>
      </trkpt>
      <trkpt lat="45.77616" lon="4.64156">
        <ele>548</ele>
        <time>2019-05-24T16:40:52.173Z</time>
      </trkpt>
      <trkpt lat="45.77613" lon="4.64145">
        <ele>550.5</ele>
        <time>2019-05-24T16:40:52.326Z</time>
      </trkpt>
      <trkpt lat="45.77613" lon="4.64133">
        <ele>553.4</ele>
        <time>2019-05-24T16:40:52.498Z</time>
      </trkpt>
      <trkpt lat="45.77607" lon="4.64115">
        <ele>556.2</ele>
        <time>2019-05-24T16:40:52.773Z</time>
      </trkpt>
      <trkpt lat="45.7761" lon="4.64104">
        <ele>559</ele>
        <time>2019-05-24T16:40:52.943Z</time>
      </trkpt>
      <trkpt lat="45.77607" lon="4.6409">
        <ele>560.8</ele>
        <time>2019-05-24T16:40:53.141Z</time>
      </trkpt>
      <trkpt lat="45.77612" lon="4.64075">
        <ele>564.6</ele>
        <time>2019-05-24T16:40:53.379Z</time>
      </trkpt>
      <trkpt lat="45.77614" lon="4.64075">
        <ele>564.9</ele>
        <time>2019-05-24T16:40:53.427Z</time>
      </trkpt>
      <trkpt lat="45.77618" lon="4.6407">
        <ele>566.3</ele>
        <time>2019-05-24T16:40:53.530Z</time>
      </trkpt>
      <trkpt lat="45.77623" lon="4.64068">
        <ele>567.3</ele>
        <time>2019-05-24T16:40:53.632Z</time>
      </trkpt>
      <trkpt lat="45.77629" lon="4.6407">
        <ele>567.7</ele>
        <time>2019-05-24T16:40:53.772Z</time>
      </trkpt>
      <trkpt lat="45.77634" lon="4.64065">
        <ele>569.2</ele>
        <time>2019-05-24T16:40:53.882Z</time>
      </trkpt>
      <trkpt lat="45.77639" lon="4.64069">
        <ele>569.1</ele>
        <time>2019-05-24T16:40:53.992Z</time>
      </trkpt>
      <trkpt lat="45.77696" lon="4.64053">
        <ele>576.1</ele>
        <time>2019-05-24T16:40:55.158Z</time>
      </trkpt>
      <trkpt lat="45.77705" lon="4.64052">
        <ele>579.1</ele>
        <time>2019-05-24T16:40:55.334Z</time>
      </trkpt>
      <trkpt lat="45.77712" lon="4.64047">
        <ele>582.2</ele>
        <time>2019-05-24T16:40:55.493Z</time>
      </trkpt>
      <trkpt lat="45.77713" lon="4.64039">
        <ele>584.3</ele>
        <time>2019-05-24T16:40:55.614Z</time>
      </trkpt>
      <trkpt lat="45.77722" lon="4.64037">
        <ele>586.6</ele>
        <time>2019-05-24T16:40:55.796Z</time>
      </trkpt>
      <trkpt lat="45.77736" lon="4.64028">
        <ele>591</ele>
        <time>2019-05-24T16:40:56.099Z</time>
      </trkpt>
      <trkpt lat="45.77745" lon="4.64028">
        <ele>592.9</ele>
        <time>2019-05-24T16:40:56.282Z</time>
      </trkpt>
      <trkpt lat="45.77749" lon="4.64025">
        <ele>594.2</ele>
        <time>2019-05-24T16:40:56.380Z</time>
      </trkpt>
      <trkpt lat="45.77757" lon="4.64001">
        <ele>598.6</ele>
        <time>2019-05-24T16:40:56.750Z</time>
      </trkpt>
      <trkpt lat="45.77783" lon="4.64003">
        <ele>601.1</ele>
        <time>2019-05-24T16:40:57.285Z</time>
      </trkpt>
      <trkpt lat="45.77793" lon="4.64002">
        <ele>601.9</ele>
        <time>2019-05-24T16:40:57.476Z</time>
      </trkpt>
      <trkpt lat="45.77798" lon="4.64">
        <ele>602.4</ele>
        <time>2019-05-24T16:40:57.575Z</time>
      </trkpt>
      <trkpt lat="45.77797" lon="4.63998">
        <ele>602.4</ele>
        <time>2019-05-24T16:40:57.599Z</time>
      </trkpt>
      <trkpt lat="45.778" lon="4.63996">
        <ele>602.6</ele>
        <time>2019-05-24T16:40:57.666Z</time>
      </trkpt>
      <trkpt lat="45.77802" lon="4.6399">
        <ele>602.8</ele>
        <time>2019-05-24T16:40:57.760Z</time>
      </trkpt>
      <trkpt lat="45.77814" lon="4.63978">
        <ele>603.3</ele>
        <time>2019-05-24T16:40:58.063Z</time>
      </trkpt>
      <trkpt lat="45.77821" lon="4.63976">
        <ele>603.6</ele>
        <time>2019-05-24T16:40:58.201Z</time>
      </trkpt>
      <trkpt lat="45.77826" lon="4.63969">
        <ele>603.4</ele>
        <time>2019-05-24T16:40:58.344Z</time>
      </trkpt>
      <trkpt lat="45.77829" lon="4.63967">
        <ele>603.3</ele>
        <time>2019-05-24T16:40:58.412Z</time>
      </trkpt>
      <trkpt lat="45.77829" lon="4.63963">
        <ele>602.9</ele>
        <time>2019-05-24T16:40:58.473Z</time>
      </trkpt>
      <trkpt lat="45.77863" lon="4.63964">
        <ele>605.6</ele>
        <time>2019-05-24T16:40:59.167Z</time>
      </trkpt>
      <trkpt lat="45.77883" lon="4.63972">
        <ele>608.4</ele>
        <time>2019-05-24T16:40:59.581Z</time>
      </trkpt>
      <trkpt lat="45.77892" lon="4.63973">
        <ele>609.5</ele>
        <time>2019-05-24T16:40:59.756Z</time>
      </trkpt>
      <trkpt lat="45.77897" lon="4.63978">
        <ele>611</ele>
        <time>2019-05-24T16:40:59.885Z</time>
      </trkpt>
      <trkpt lat="45.77907" lon="4.63982">
        <ele>612.8</ele>
        <time>2019-05-24T16:41:00.083Z</time>
      </trkpt>
      <trkpt lat="45.77923" lon="4.63982">
        <ele>614.6</ele>
        <time>2019-05-24T16:41:00.408Z</time>
      </trkpt>
      <trkpt lat="45.77945" lon="4.63984">
        <ele>616.7</ele>
        <time>2019-05-24T16:41:00.860Z</time>
      </trkpt>
      <trkpt lat="45.77968" lon="4.63979">
        <ele>616.1</ele>
        <time>2019-05-24T16:41:01.310Z</time>
      </trkpt>
      <trkpt lat="45.77984" lon="4.6398">
        <ele>616.4</ele>
        <time>2019-05-24T16:41:01.635Z</time>
      </trkpt>
      <trkpt lat="45.78016" lon="4.63996">
        <ele>619.3</ele>
        <time>2019-05-24T16:41:02.327Z</time>
      </trkpt>
      <trkpt lat="45.78056" lon="4.64007">
        <ele>620.6</ele>
        <time>2019-05-24T16:41:03.127Z</time>
      </trkpt>
      <trkpt lat="45.78129" lon="4.64007">
        <ele>618.3</ele>
        <time>2019-05-24T16:41:04.593Z</time>
      </trkpt>
      <trkpt lat="45.78147" lon="4.64011">
        <ele>617.9</ele>
        <time>2019-05-24T16:41:04.959Z</time>
      </trkpt>
      <trkpt lat="45.7817" lon="4.6403">
        <ele>621.2</ele>
        <time>2019-05-24T16:41:05.501Z</time>
      </trkpt>
      <trkpt lat="45.78186" lon="4.6404">
        <ele>621.5</ele>
        <time>2019-05-24T16:41:05.848Z</time>
      </trkpt>
      <trkpt lat="45.78235" lon="4.64059">
        <ele>621.6</ele>
        <time>2019-05-24T16:41:06.864Z</time>
      </trkpt>
      <trkpt lat="45.78252" lon="4.64067">
        <ele>621.5</ele>
        <time>2019-05-24T16:41:07.225Z</time>
      </trkpt>
      <trkpt lat="45.7827" lon="4.64078">
        <ele>622</ele>
        <time>2019-05-24T16:41:07.618Z</time>
      </trkpt>
      <trkpt lat="45.78299" lon="4.64115">
        <ele>622.5</ele>
        <time>2019-05-24T16:41:08.391Z</time>
      </trkpt>
      <trkpt lat="45.78312" lon="4.64141">
        <ele>623.3</ele>
        <time>2019-05-24T16:41:08.845Z</time>
      </trkpt>
      <trkpt lat="45.78357" lon="4.64188">
        <ele>620.9</ele>
        <time>2019-05-24T16:41:09.961Z</time>
      </trkpt>
      <trkpt lat="45.78372" lon="4.64206">
        <ele>621.8</ele>
        <time>2019-05-24T16:41:10.348Z</time>
      </trkpt>
      <trkpt lat="45.7842" lon="4.64248">
        <ele>621.2</ele>
        <time>2019-05-24T16:41:11.463Z</time>
      </trkpt>
      <trkpt lat="45.78452" lon="4.64246">
        <ele>616</ele>
        <time>2019-05-24T16:41:12.116Z</time>
      </trkpt>
      <trkpt lat="45.78471" lon="4.64241">
        <ele>612</ele>
        <time>2019-05-24T16:41:12.495Z</time>
      </trkpt>
      <trkpt lat="45.7848" lon="4.64236">
        <ele>609.8</ele>
        <time>2019-05-24T16:41:12.699Z</time>
      </trkpt>
      <trkpt lat="45.78498" lon="4.64221">
        <ele>605.1</ele>
        <time>2019-05-24T16:41:13.117Z</time>
      </trkpt>
      <trkpt lat="45.78561" lon="4.642">
        <ele>593</ele>
        <time>2019-05-24T16:41:14.399Z</time>
      </trkpt>
      <trkpt lat="45.78596" lon="4.64173">
        <ele>584.8</ele>
        <time>2019-05-24T16:41:15.200Z</time>
      </trkpt>
      <trkpt lat="45.78601" lon="4.64141">
        <ele>581.9</ele>
        <time>2019-05-24T16:41:15.652Z</time>
      </trkpt>
      <trkpt lat="45.78602" lon="4.64101">
        <ele>578.2</ele>
        <time>2019-05-24T16:41:16.207Z</time>
      </trkpt>
      <trkpt lat="45.7861" lon="4.64086">
        <ele>576.2</ele>
        <time>2019-05-24T16:41:16.475Z</time>
      </trkpt>
      <trkpt lat="45.78619" lon="4.64077">
        <ele>574.4</ele>
        <time>2019-05-24T16:41:16.705Z</time>
      </trkpt>
      <trkpt lat="45.7866" lon="4.64102">
        <ele>568.2</ele>
        <time>2019-05-24T16:41:17.599Z</time>
      </trkpt>
      <trkpt lat="45.78685" lon="4.64112">
        <ele>562.3</ele>
        <time>2019-05-24T16:41:18.113Z</time>
      </trkpt>
      <trkpt lat="45.787" lon="4.64114">
        <ele>558.8</ele>
        <time>2019-05-24T16:41:18.412Z</time>
      </trkpt>
      <trkpt lat="45.78737" lon="4.64106">
        <ele>553.5</ele>
        <time>2019-05-24T16:41:19.168Z</time>
      </trkpt>
      <trkpt lat="45.78747" lon="4.64113">
        <ele>552.1</ele>
        <time>2019-05-24T16:41:19.384Z</time>
      </trkpt>
      <trkpt lat="45.78763" lon="4.64133">
        <ele>546.7</ele>
        <time>2019-05-24T16:41:19.822Z</time>
      </trkpt>
      <trkpt lat="45.78781" lon="4.64146">
        <ele>542.9</ele>
        <time>2019-05-24T16:41:20.220Z</time>
      </trkpt>
      <trkpt lat="45.78789" lon="4.64155">
        <ele>541.3</ele>
        <time>2019-05-24T16:41:20.420Z</time>
      </trkpt>
      <trkpt lat="45.78807" lon="4.64159">
        <ele>539.5</ele>
        <time>2019-05-24T16:41:20.773Z</time>
      </trkpt>
      <trkpt lat="45.78829" lon="4.64153">
        <ele>537.9</ele>
        <time>2019-05-24T16:41:21.226Z</time>
      </trkpt>
      <trkpt lat="45.7887" lon="4.64153">
        <ele>534.8</ele>
        <time>2019-05-24T16:41:22.060Z</time>
      </trkpt>
      <trkpt lat="45.78893" lon="4.64151">
        <ele>533.4</ele>
        <time>2019-05-24T16:41:22.523Z</time>
      </trkpt>
      <trkpt lat="45.78891" lon="4.6415">
        <ele>533.5</ele>
        <time>2019-05-24T16:41:22.571Z</time>
      </trkpt>
      <trkpt lat="45.78884" lon="4.64153">
        <ele>533.9</ele>
        <time>2019-05-24T16:41:22.724Z</time>
      </trkpt>
      <trkpt lat="45.78865" lon="4.64189">
        <ele>532.4</ele>
        <time>2019-05-24T16:41:23.352Z</time>
      </trkpt>
      <trkpt lat="45.78855" lon="4.64203">
        <ele>531</ele>
        <time>2019-05-24T16:41:23.622Z</time>
      </trkpt>
      <trkpt lat="45.78848" lon="4.6421">
        <ele>530.3</ele>
        <time>2019-05-24T16:41:23.801Z</time>
      </trkpt>
      <trkpt lat="45.78839" lon="4.64214">
        <ele>530.1</ele>
        <time>2019-05-24T16:41:23.987Z</time>
      </trkpt>
      <trkpt lat="45.78812" lon="4.64222">
        <ele>529.8</ele>
        <time>2019-05-24T16:41:24.547Z</time>
      </trkpt>
      <trkpt lat="45.78791" lon="4.64233">
        <ele>530.3</ele>
        <time>2019-05-24T16:41:24.996Z</time>
      </trkpt>
      <trkpt lat="45.78785" lon="4.64248">
        <ele>530</ele>
        <time>2019-05-24T16:41:25.229Z</time>
      </trkpt>
      <trkpt lat="45.78785" lon="4.64264">
        <ele>529.8</ele>
        <time>2019-05-24T16:41:25.449Z</time>
      </trkpt>
      <trkpt lat="45.78788" lon="4.64288">
        <ele>529.5</ele>
        <time>2019-05-24T16:41:25.790Z</time>
      </trkpt>
      <trkpt lat="45.78801" lon="4.64313">
        <ele>527.9</ele>
        <time>2019-05-24T16:41:26.234Z</time>
      </trkpt>
      <trkpt lat="45.78817" lon="4.64361">
        <ele>527.6</ele>
        <time>2019-05-24T16:41:26.978Z</time>
      </trkpt>
      <trkpt lat="45.78832" lon="4.64399">
        <ele>525.7</ele>
        <time>2019-05-24T16:41:27.586Z</time>
      </trkpt>
      <trkpt lat="45.78851" lon="4.6447">
        <ele>521.4</ele>
        <time>2019-05-24T16:41:28.656Z</time>
      </trkpt>
      <trkpt lat="45.78853" lon="4.64487">
        <ele>520.7</ele>
        <time>2019-05-24T16:41:28.898Z</time>
      </trkpt>
      <trkpt lat="45.78866" lon="4.64532">
        <ele>515.6</ele>
        <time>2019-05-24T16:41:29.571Z</time>
      </trkpt>
      <trkpt lat="45.78866" lon="4.64546">
        <ele>515</ele>
        <time>2019-05-24T16:41:29.757Z</time>
      </trkpt>
      <trkpt lat="45.78859" lon="4.64568">
        <ele>517.4</ele>
        <time>2019-05-24T16:41:30.090Z</time>
      </trkpt>
      <trkpt lat="45.78857" lon="4.64568">
        <ele>518.6</ele>
        <time>2019-05-24T16:41:30.141Z</time>
      </trkpt>
      <trkpt lat="45.78853" lon="4.64583">
        <ele>519.7</ele>
        <time>2019-05-24T16:41:30.367Z</time>
      </trkpt>
      <trkpt lat="45.78853" lon="4.64614">
        <ele>519.3</ele>
        <time>2019-05-24T16:41:30.793Z</time>
      </trkpt>
      <trkpt lat="45.78862" lon="4.64646">
        <ele>519.6</ele>
        <time>2019-05-24T16:41:31.279Z</time>
      </trkpt>
      <trkpt lat="45.78874" lon="4.64673">
        <ele>518.1</ele>
        <time>2019-05-24T16:41:31.724Z</time>
      </trkpt>
      <trkpt lat="45.78925" lon="4.64745">
        <ele>514.2</ele>
        <time>2019-05-24T16:41:33.161Z</time>
      </trkpt>
      <trkpt lat="45.78942" lon="4.64778">
        <ele>514.7</ele>
        <time>2019-05-24T16:41:33.730Z</time>
      </trkpt>
      <trkpt lat="45.78947" lon="4.6479">
        <ele>515.7</ele>
        <time>2019-05-24T16:41:33.926Z</time>
      </trkpt>
      <trkpt lat="45.78959" lon="4.6481">
        <ele>516.3</ele>
        <time>2019-05-24T16:41:34.299Z</time>
      </trkpt>
      <trkpt lat="45.78991" lon="4.64853">
        <ele>519.2</ele>
        <time>2019-05-24T16:41:35.184Z</time>
      </trkpt>
      <trkpt lat="45.78999" lon="4.6486">
        <ele>519.9</ele>
        <time>2019-05-24T16:41:35.373Z</time>
      </trkpt>
      <trkpt lat="45.7902" lon="4.64891">
        <ele>523.8</ele>
        <time>2019-05-24T16:41:35.977Z</time>
      </trkpt>
      <trkpt lat="45.79029" lon="4.64898">
        <ele>523.8</ele>
        <time>2019-05-24T16:41:36.179Z</time>
      </trkpt>
      <trkpt lat="45.79033" lon="4.64899">
        <ele>523.4</ele>
        <time>2019-05-24T16:41:36.262Z</time>
      </trkpt>
      <trkpt lat="45.79044" lon="4.64918">
        <ele>523.7</ele>
        <time>2019-05-24T16:41:36.608Z</time>
      </trkpt>
      <trkpt lat="45.79026" lon="4.64993">
        <ele>527</ele>
        <time>2019-05-24T16:41:37.711Z</time>
      </trkpt>
      <trkpt lat="45.79029" lon="4.65064">
        <ele>523.4</ele>
        <time>2019-05-24T16:41:38.701Z</time>
      </trkpt>
      <trkpt lat="45.79023" lon="4.65182">
        <ele>524.8</ele>
        <time>2019-05-24T16:41:40.366Z</time>
      </trkpt>
      <trkpt lat="45.79018" lon="4.65211">
        <ele>526.6</ele>
        <time>2019-05-24T16:41:40.783Z</time>
      </trkpt>
      <trkpt lat="45.79008" lon="4.65232">
        <ele>528.5</ele>
        <time>2019-05-24T16:41:41.139Z</time>
      </trkpt>
      <trkpt lat="45.79003" lon="4.65254">
        <ele>528.5</ele>
        <time>2019-05-24T16:41:41.453Z</time>
      </trkpt>
      <trkpt lat="45.79004" lon="4.65308">
        <ele>526.8</ele>
        <time>2019-05-24T16:41:42.217Z</time>
      </trkpt>
      <trkpt lat="45.79003" lon="4.65332">
        <ele>526</ele>
        <time>2019-05-24T16:41:42.552Z</time>
      </trkpt>
      <trkpt lat="45.79002" lon="4.65341">
        <ele>525.7</ele>
        <time>2019-05-24T16:41:42.677Z</time>
      </trkpt>
      <trkpt lat="45.79005" lon="4.65331">
        <ele>526.1</ele>
        <time>2019-05-24T16:41:42.832Z</time>
      </trkpt>
      <trkpt lat="45.79021" lon="4.6532">
        <ele>526.1</ele>
        <time>2019-05-24T16:41:43.186Z</time>
      </trkpt>
      <trkpt lat="45.79031" lon="4.65324">
        <ele>525.9</ele>
        <time>2019-05-24T16:41:43.397Z</time>
      </trkpt>
      <trkpt lat="45.79048" lon="4.65323">
        <ele>525.5</ele>
        <time>2019-05-24T16:41:43.750Z</time>
      </trkpt>
      <trkpt lat="45.79078" lon="4.65352">
        <ele>525.4</ele>
        <time>2019-05-24T16:41:44.461Z</time>
      </trkpt>
      <trkpt lat="45.79096" lon="4.65364">
        <ele>524.9</ele>
        <time>2019-05-24T16:41:44.855Z</time>
      </trkpt>
      <trkpt lat="45.79117" lon="4.65382">
        <ele>524.5</ele>
        <time>2019-05-24T16:41:45.351Z</time>
      </trkpt>
      <trkpt lat="45.7916" lon="4.65403">
        <ele>519.8</ele>
        <time>2019-05-24T16:41:46.261Z</time>
      </trkpt>
      <trkpt lat="45.79188" lon="4.65422">
        <ele>514.9</ele>
        <time>2019-05-24T16:41:46.885Z</time>
      </trkpt>
      <trkpt lat="45.79201" lon="4.65426">
        <ele>512.1</ele>
        <time>2019-05-24T16:41:47.155Z</time>
      </trkpt>
      <trkpt lat="45.79223" lon="4.6543">
        <ele>507.2</ele>
        <time>2019-05-24T16:41:47.597Z</time>
      </trkpt>
      <trkpt lat="45.79231" lon="4.65433">
        <ele>505.8</ele>
        <time>2019-05-24T16:41:47.748Z</time>
      </trkpt>
      <trkpt lat="45.79237" lon="4.65433">
        <ele>504.4</ele>
        <time>2019-05-24T16:41:47.884Z</time>
      </trkpt>
      <trkpt lat="45.79242" lon="4.65431">
        <ele>503.3</ele>
        <time>2019-05-24T16:41:47.982Z</time>
      </trkpt>
      <trkpt lat="45.79243" lon="4.65425">
        <ele>502.9</ele>
        <time>2019-05-24T16:41:48.063Z</time>
      </trkpt>
      <trkpt lat="45.7925" lon="4.6543">
        <ele>501.6</ele>
        <time>2019-05-24T16:41:48.216Z</time>
      </trkpt>
      <trkpt lat="45.7925" lon="4.65428">
        <ele>501.5</ele>
        <time>2019-05-24T16:41:48.234Z</time>
      </trkpt>
      <trkpt lat="45.79254" lon="4.65428">
        <ele>500.9</ele>
        <time>2019-05-24T16:41:48.311Z</time>
      </trkpt>
      <trkpt lat="45.79253" lon="4.6543">
        <ele>501</ele>
        <time>2019-05-24T16:41:48.342Z</time>
      </trkpt>
      <trkpt lat="45.79246" lon="4.65421">
        <ele>501.9</ele>
        <time>2019-05-24T16:41:48.521Z</time>
      </trkpt>
      <trkpt lat="45.79247" lon="4.65424">
        <ele>501.9</ele>
        <time>2019-05-24T16:41:48.564Z</time>
      </trkpt>
      <trkpt lat="45.79249" lon="4.65424">
        <ele>501.5</ele>
        <time>2019-05-24T16:41:48.607Z</time>
      </trkpt>
      <trkpt lat="45.79258" lon="4.6542">
        <ele>500</ele>
        <time>2019-05-24T16:41:48.786Z</time>
      </trkpt>
      <trkpt lat="45.7927" lon="4.65412">
        <ele>497.8</ele>
        <time>2019-05-24T16:41:49.064Z</time>
      </trkpt>
      <trkpt lat="45.79277" lon="4.65404">
        <ele>496.6</ele>
        <time>2019-05-24T16:41:49.246Z</time>
      </trkpt>
      <trkpt lat="45.79284" lon="4.65393">
        <ele>495.9</ele>
        <time>2019-05-24T16:41:49.438Z</time>
      </trkpt>
      <trkpt lat="45.79298" lon="4.65379">
        <ele>494.7</ele>
        <time>2019-05-24T16:41:49.787Z</time>
      </trkpt>
      <trkpt lat="45.79297" lon="4.65357">
        <ele>493.3</ele>
        <time>2019-05-24T16:41:50.095Z</time>
      </trkpt>
      <trkpt lat="45.7931" lon="4.65327">
        <ele>490.4</ele>
        <time>2019-05-24T16:41:50.581Z</time>
      </trkpt>
      <trkpt lat="45.79318" lon="4.65316">
        <ele>489.2</ele>
        <time>2019-05-24T16:41:50.805Z</time>
      </trkpt>
      <trkpt lat="45.7932" lon="4.65315">
        <ele>489</ele>
        <time>2019-05-24T16:41:50.861Z</time>
      </trkpt>
      <trkpt lat="45.79329" lon="4.65314">
        <ele>488.9</ele>
        <time>2019-05-24T16:41:51.032Z</time>
      </trkpt>
      <trkpt lat="45.79338" lon="4.65318">
        <ele>489</ele>
        <time>2019-05-24T16:41:51.227Z</time>
      </trkpt>
      <trkpt lat="45.79333" lon="4.65315">
        <ele>489</ele>
        <time>2019-05-24T16:41:51.342Z</time>
      </trkpt>
      <trkpt lat="45.79324" lon="4.65316">
        <ele>489.1</ele>
        <time>2019-05-24T16:41:51.514Z</time>
      </trkpt>
      <trkpt lat="45.79322" lon="4.65318">
        <ele>489.3</ele>
        <time>2019-05-24T16:41:51.578Z</time>
      </trkpt>
      <trkpt lat="45.79315" lon="4.65313">
        <ele>488.8</ele>
        <time>2019-05-24T16:41:51.715Z</time>
      </trkpt>
      <trkpt lat="45.79315" lon="4.65304">
        <ele>487.8</ele>
        <time>2019-05-24T16:41:51.846Z</time>
      </trkpt>
      <trkpt lat="45.79319" lon="4.65274">
        <ele>483.9</ele>
        <time>2019-05-24T16:41:52.276Z</time>
      </trkpt>
      <trkpt lat="45.79316" lon="4.65266">
        <ele>482.8</ele>
        <time>2019-05-24T16:41:52.393Z</time>
      </trkpt>
      <trkpt lat="45.79316" lon="4.65244">
        <ele>480</ele>
        <time>2019-05-24T16:41:52.692Z</time>
      </trkpt>
      <trkpt lat="45.79313" lon="4.65224">
        <ele>477</ele>
        <time>2019-05-24T16:41:52.985Z</time>
      </trkpt>
      <trkpt lat="45.79308" lon="4.65209">
        <ele>474.3</ele>
        <time>2019-05-24T16:41:53.217Z</time>
      </trkpt>
      <trkpt lat="45.7931" lon="4.6518">
        <ele>470.4</ele>
        <time>2019-05-24T16:41:53.623Z</time>
      </trkpt>
      <trkpt lat="45.79305" lon="4.65135">
        <ele>463.2</ele>
        <time>2019-05-24T16:41:54.266Z</time>
      </trkpt>
      <trkpt lat="45.79308" lon="4.65126">
        <ele>461.9</ele>
        <time>2019-05-24T16:41:54.390Z</time>
      </trkpt>
      <trkpt lat="45.79322" lon="4.65103">
        <ele>459.4</ele>
        <time>2019-05-24T16:41:54.827Z</time>
      </trkpt>
      <trkpt lat="45.79329" lon="4.65089">
        <ele>457</ele>
        <time>2019-05-24T16:41:55.067Z</time>
      </trkpt>
      <trkpt lat="45.7933" lon="4.6508">
        <ele>455.2</ele>
        <time>2019-05-24T16:41:55.199Z</time>
      </trkpt>
      <trkpt lat="45.79329" lon="4.65061">
        <ele>451.8</ele>
        <time>2019-05-24T16:41:55.461Z</time>
      </trkpt>
      <trkpt lat="45.79334" lon="4.65037">
        <ele>447</ele>
        <time>2019-05-24T16:41:55.811Z</time>
      </trkpt>
      <trkpt lat="45.79336" lon="4.65016">
        <ele>442.8</ele>
        <time>2019-05-24T16:41:56.113Z</time>
      </trkpt>
      <trkpt lat="45.79331" lon="4.65003">
        <ele>440.6</ele>
        <time>2019-05-24T16:41:56.311Z</time>
      </trkpt>
      <trkpt lat="45.79338" lon="4.64986">
        <ele>438.8</ele>
        <time>2019-05-24T16:41:56.589Z</time>
      </trkpt>
      <trkpt lat="45.79341" lon="4.64985">
        <ele>438.6</ele>
        <time>2019-05-24T16:41:56.650Z</time>
      </trkpt>
      <trkpt lat="45.79341" lon="4.64977">
        <ele>437.9</ele>
        <time>2019-05-24T16:41:56.760Z</time>
      </trkpt>
      <trkpt lat="45.79339" lon="4.64975">
        <ele>437.8</ele>
        <time>2019-05-24T16:41:56.812Z</time>
      </trkpt>
      <trkpt lat="45.79343" lon="4.64981">
        <ele>438.1</ele>
        <time>2019-05-24T16:41:56.915Z</time>
      </trkpt>
      <trkpt lat="45.79341" lon="4.64987">
        <ele>438.8</ele>
        <time>2019-05-24T16:41:57.011Z</time>
      </trkpt>
      <trkpt lat="45.79347" lon="4.64996">
        <ele>439.5</ele>
        <time>2019-05-24T16:41:57.182Z</time>
      </trkpt>
      <trkpt lat="45.79355" lon="4.65">
        <ele>439.9</ele>
        <time>2019-05-24T16:41:57.340Z</time>
      </trkpt>
      <trkpt lat="45.79359" lon="4.65005">
        <ele>440.9</ele>
        <time>2019-05-24T16:41:57.459Z</time>
      </trkpt>
      <trkpt lat="45.79366" lon="4.65008">
        <ele>441.1</ele>
        <time>2019-05-24T16:41:57.597Z</time>
      </trkpt>
      <trkpt lat="45.79387" lon="4.65032">
        <ele>444.8</ele>
        <time>2019-05-24T16:41:58.148Z</time>
      </trkpt>
      <trkpt lat="45.79432" lon="4.65064">
        <ele>447.1</ele>
        <time>2019-05-24T16:41:59.143Z</time>
      </trkpt>
      <trkpt lat="45.79432" lon="4.65065">
        <ele>447.2</ele>
        <time>2019-05-24T16:41:59.158Z</time>
      </trkpt>
      <trkpt lat="45.79422" lon="4.65055">
        <ele>446.5</ele>
        <time>2019-05-24T16:41:59.391Z</time>
      </trkpt>
      <trkpt lat="45.79405" lon="4.65047">
        <ele>446.3</ele>
        <time>2019-05-24T16:41:59.754Z</time>
      </trkpt>
      <trkpt lat="45.79395" lon="4.65039">
        <ele>445.6</ele>
        <time>2019-05-24T16:41:59.985Z</time>
      </trkpt>
      <trkpt lat="45.79386" lon="4.65028">
        <ele>444.1</ele>
        <time>2019-05-24T16:42:00.219Z</time>
      </trkpt>
      <trkpt lat="45.79367" lon="4.65008">
        <ele>441.1</ele>
        <time>2019-05-24T16:42:00.686Z</time>
      </trkpt>
      <trkpt lat="45.7936" lon="4.65004">
        <ele>440.7</ele>
        <time>2019-05-24T16:42:00.839Z</time>
      </trkpt>
      <trkpt lat="45.79353" lon="4.65002">
        <ele>440.4</ele>
        <time>2019-05-24T16:42:00.996Z</time>
      </trkpt>
      <trkpt lat="45.79344" lon="4.64995">
        <ele>439.5</ele>
        <time>2019-05-24T16:42:01.187Z</time>
      </trkpt>
      <trkpt lat="45.79343" lon="4.64992">
        <ele>439.2</ele>
        <time>2019-05-24T16:42:01.241Z</time>
      </trkpt>
      <trkpt lat="45.79345" lon="4.64982">
        <ele>438.2</ele>
        <time>2019-05-24T16:42:01.376Z</time>
      </trkpt>
      <trkpt lat="45.79344" lon="4.64979">
        <ele>437.9</ele>
        <time>2019-05-24T16:42:01.436Z</time>
      </trkpt>
      <trkpt lat="45.79357" lon="4.64973">
        <ele>436.3</ele>
        <time>2019-05-24T16:42:01.726Z</time>
      </trkpt>
      <trkpt lat="45.79375" lon="4.64961">
        <ele>433.8</ele>
        <time>2019-05-24T16:42:02.107Z</time>
      </trkpt>
      <trkpt lat="45.79383" lon="4.64958">
        <ele>432.9</ele>
        <time>2019-05-24T16:42:02.277Z</time>
      </trkpt>
      <trkpt lat="45.7939" lon="4.64957">
        <ele>432.2</ele>
        <time>2019-05-24T16:42:02.431Z</time>
      </trkpt>
      <trkpt lat="45.79414" lon="4.64974">
        <ele>431.5</ele>
        <time>2019-05-24T16:42:02.966Z</time>
      </trkpt>
      <trkpt lat="45.79426" lon="4.64976">
        <ele>431</ele>
        <time>2019-05-24T16:42:03.196Z</time>
      </trkpt>
      <trkpt lat="45.79447" lon="4.64975">
        <ele>429.1</ele>
        <time>2019-05-24T16:42:03.615Z</time>
      </trkpt>
      <trkpt lat="45.79482" lon="4.64987">
        <ele>426.7</ele>
        <time>2019-05-24T16:42:04.341Z</time>
      </trkpt>
      <trkpt lat="45.79511" lon="4.65007">
        <ele>425</ele>
        <time>2019-05-24T16:42:05.000Z</time>
      </trkpt>
      <trkpt lat="45.79525" lon="4.6502">
        <ele>425.1</ele>
        <time>2019-05-24T16:42:05.329Z</time>
      </trkpt>
      <trkpt lat="45.79544" lon="4.65029">
        <ele>424</ele>
        <time>2019-05-24T16:42:05.719Z</time>
      </trkpt>
      <trkpt lat="45.79566" lon="4.65044">
        <ele>422.9</ele>
        <time>2019-05-24T16:42:06.221Z</time>
      </trkpt>
      <trkpt lat="45.79574" lon="4.65052">
        <ele>422.4</ele>
        <time>2019-05-24T16:42:06.406Z</time>
      </trkpt>
      <trkpt lat="45.79595" lon="4.65064">
        <ele>420.1</ele>
        <time>2019-05-24T16:42:06.857Z</time>
      </trkpt>
      <trkpt lat="45.79621" lon="4.65083">
        <ele>417.4</ele>
        <time>2019-05-24T16:42:07.438Z</time>
      </trkpt>
      <trkpt lat="45.79666" lon="4.65102">
        <ele>412.1</ele>
        <time>2019-05-24T16:42:08.391Z</time>
      </trkpt>
      <trkpt lat="45.79703" lon="4.65103">
        <ele>410</ele>
        <time>2019-05-24T16:42:09.115Z</time>
      </trkpt>
      <trkpt lat="45.79753" lon="4.65106">
        <ele>407.4</ele>
        <time>2019-05-24T16:42:10.120Z</time>
      </trkpt>
      <trkpt lat="45.7977" lon="4.65106">
        <ele>406.8</ele>
        <time>2019-05-24T16:42:10.466Z</time>
      </trkpt>
      <trkpt lat="45.79773" lon="4.65104">
        <ele>406.6</ele>
        <time>2019-05-24T16:42:10.528Z</time>
      </trkpt>
      <trkpt lat="45.79838" lon="4.65107">
        <ele>404.1</ele>
        <time>2019-05-24T16:42:11.846Z</time>
      </trkpt>
      <trkpt lat="45.79852" lon="4.65103">
        <ele>404.6</ele>
        <time>2019-05-24T16:42:12.118Z</time>
      </trkpt>
      <trkpt lat="45.79863" lon="4.65091">
        <ele>404.1</ele>
        <time>2019-05-24T16:42:12.404Z</time>
      </trkpt>
      <trkpt lat="45.7985" lon="4.65147">
        <ele>408.9</ele>
        <time>2019-05-24T16:42:13.219Z</time>
      </trkpt>
      <trkpt lat="45.7985" lon="4.65156">
        <ele>409.8</ele>
        <time>2019-05-24T16:42:13.348Z</time>
      </trkpt>
      <trkpt lat="45.79853" lon="4.65165">
        <ele>410.9</ele>
        <time>2019-05-24T16:42:13.484Z</time>
      </trkpt>
      <trkpt lat="45.79852" lon="4.6517">
        <ele>411.2</ele>
        <time>2019-05-24T16:42:13.570Z</time>
      </trkpt>
      <trkpt lat="45.79855" lon="4.65189">
        <ele>412.7</ele>
        <time>2019-05-24T16:42:13.833Z</time>
      </trkpt>
      <trkpt lat="45.79863" lon="4.65191">
        <ele>414</ele>
        <time>2019-05-24T16:42:13.996Z</time>
      </trkpt>
      <trkpt lat="45.79867" lon="4.65194">
        <ele>414.8</ele>
        <time>2019-05-24T16:42:14.090Z</time>
      </trkpt>
      <trkpt lat="45.79895" lon="4.65219">
        <ele>419.5</ele>
        <time>2019-05-24T16:42:14.744Z</time>
      </trkpt>
      <trkpt lat="45.79917" lon="4.65245">
        <ele>422.8</ele>
        <time>2019-05-24T16:42:15.325Z</time>
      </trkpt>
      <trkpt lat="45.79935" lon="4.65274">
        <ele>425.8</ele>
        <time>2019-05-24T16:42:15.867Z</time>
      </trkpt>
      <trkpt lat="45.79942" lon="4.65284">
        <ele>426.9</ele>
        <time>2019-05-24T16:42:16.063Z</time>
      </trkpt>
      <trkpt lat="45.79953" lon="4.65292">
        <ele>428.1</ele>
        <time>2019-05-24T16:42:16.311Z</time>
      </trkpt>
      <trkpt lat="45.80086" lon="4.65421">
        <ele>432.1</ele>
        <time>2019-05-24T16:42:19.534Z</time>
      </trkpt>
      <trkpt lat="45.80097" lon="4.65432">
        <ele>432.2</ele>
        <time>2019-05-24T16:42:19.799Z</time>
      </trkpt>
      <trkpt lat="45.80099" lon="4.65441">
        <ele>432.1</ele>
        <time>2019-05-24T16:42:19.916Z</time>
      </trkpt>
      <trkpt lat="45.80137" lon="4.65359">
        <ele>433.9</ele>
        <time>2019-05-24T16:42:21.295Z</time>
      </trkpt>
      <trkpt lat="45.80171" lon="4.65281">
        <ele>433.3</ele>
        <time>2019-05-24T16:42:22.573Z</time>
      </trkpt>
      <trkpt lat="45.80189" lon="4.65255">
        <ele>433</ele>
        <time>2019-05-24T16:42:23.088Z</time>
      </trkpt>
      <trkpt lat="45.8022" lon="4.65198">
        <ele>429.3</ele>
        <time>2019-05-24T16:42:24.088Z</time>
      </trkpt>
      <trkpt lat="45.80266" lon="4.65127">
        <ele>426.1</ele>
        <time>2019-05-24T16:42:25.451Z</time>
      </trkpt>
      <trkpt lat="45.80285" lon="4.65091">
        <ele>425</ele>
        <time>2019-05-24T16:42:26.076Z</time>
      </trkpt>
      <trkpt lat="45.80314" lon="4.64983">
        <ele>425.4</ele>
        <time>2019-05-24T16:42:27.695Z</time>
      </trkpt>
      <trkpt lat="45.80344" lon="4.64912">
        <ele>424.3</ele>
        <time>2019-05-24T16:42:28.857Z</time>
      </trkpt>
      <trkpt lat="45.80363" lon="4.64878">
        <ele>422.8</ele>
        <time>2019-05-24T16:42:29.466Z</time>
      </trkpt>
      <trkpt lat="45.80377" lon="4.64843">
        <ele>420.9</ele>
        <time>2019-05-24T16:42:30.034Z</time>
      </trkpt>
      <trkpt lat="45.80395" lon="4.64816">
        <ele>418.6</ele>
        <time>2019-05-24T16:42:30.545Z</time>
      </trkpt>
      <trkpt lat="45.8041" lon="4.648">
        <ele>416.6</ele>
        <time>2019-05-24T16:42:30.928Z</time>
      </trkpt>
      <trkpt lat="45.80438" lon="4.64776">
        <ele>412.6</ele>
        <time>2019-05-24T16:42:31.578Z</time>
      </trkpt>
      <trkpt lat="45.80448" lon="4.64758">
        <ele>411.4</ele>
        <time>2019-05-24T16:42:31.897Z</time>
      </trkpt>
      <trkpt lat="45.80452" lon="4.64744">
        <ele>410.5</ele>
        <time>2019-05-24T16:42:32.118Z</time>
      </trkpt>
      <trkpt lat="45.80465" lon="4.64683">
        <ele>406.8</ele>
        <time>2019-05-24T16:42:32.992Z</time>
      </trkpt>
      <trkpt lat="45.8047" lon="4.64667">
        <ele>406.3</ele>
        <time>2019-05-24T16:42:33.244Z</time>
      </trkpt>
      <trkpt lat="45.80504" lon="4.64593">
        <ele>402.6</ele>
        <time>2019-05-24T16:42:34.483Z</time>
      </trkpt>
      <trkpt lat="45.80504" lon="4.64592">
        <ele>402.6</ele>
        <time>2019-05-24T16:42:34.490Z</time>
      </trkpt>
      <trkpt lat="45.80504" lon="4.64593">
        <ele>402.5</ele>
        <time>2019-05-24T16:42:34.490Z</time>
      </trkpt>
      <trkpt lat="45.80512" lon="4.64572">
        <ele>401.7</ele>
        <time>2019-05-24T16:42:34.825Z</time>
      </trkpt>
      <trkpt lat="45.80511" lon="4.64567">
        <ele>402</ele>
        <time>2019-05-24T16:42:34.897Z</time>
      </trkpt>
      <trkpt lat="45.80524" lon="4.64556">
        <ele>400.5</ele>
        <time>2019-05-24T16:42:35.190Z</time>
      </trkpt>
      <trkpt lat="45.80546" lon="4.64482">
        <ele>399.7</ele>
        <time>2019-05-24T16:42:36.315Z</time>
      </trkpt>
      <trkpt lat="45.80554" lon="4.6446">
        <ele>399.6</ele>
        <time>2019-05-24T16:42:36.666Z</time>
      </trkpt>
      <trkpt lat="45.80586" lon="4.64383">
        <ele>398.7</ele>
        <time>2019-05-24T16:42:37.911Z</time>
      </trkpt>
      <trkpt lat="45.8059" lon="4.64379">
        <ele>398.3</ele>
        <time>2019-05-24T16:42:38.010Z</time>
      </trkpt>
      <trkpt lat="45.80591" lon="4.64372">
        <ele>398.3</ele>
        <time>2019-05-24T16:42:38.114Z</time>
      </trkpt>
      <trkpt lat="45.80625" lon="4.64288">
        <ele>396.9</ele>
        <time>2019-05-24T16:42:39.457Z</time>
      </trkpt>
      <trkpt lat="45.80643" lon="4.64212">
        <ele>396.8</ele>
        <time>2019-05-24T16:42:40.591Z</time>
      </trkpt>
      <trkpt lat="45.80644" lon="4.64175">
        <ele>396.2</ele>
        <time>2019-05-24T16:42:41.111Z</time>
      </trkpt>
      <trkpt lat="45.80647" lon="4.64162">
        <ele>396</ele>
        <time>2019-05-24T16:42:41.289Z</time>
      </trkpt>
      <trkpt lat="45.80653" lon="4.64152">
        <ele>396</ele>
        <time>2019-05-24T16:42:41.476Z</time>
      </trkpt>
      <trkpt lat="45.80663" lon="4.64147">
        <ele>396</ele>
        <time>2019-05-24T16:42:41.689Z</time>
      </trkpt>
      <trkpt lat="45.80675" lon="4.64148">
        <ele>395.8</ele>
        <time>2019-05-24T16:42:41.919Z</time>
      </trkpt>
      <trkpt lat="45.80685" lon="4.64157">
        <ele>395.1</ele>
        <time>2019-05-24T16:42:42.159Z</time>
      </trkpt>
      <trkpt lat="45.80707" lon="4.64193">
        <ele>393.6</ele>
        <time>2019-05-24T16:42:42.817Z</time>
      </trkpt>
      <trkpt lat="45.80723" lon="4.64212">
        <ele>392.3</ele>
        <time>2019-05-24T16:42:43.239Z</time>
      </trkpt>
      <trkpt lat="45.8076" lon="4.64294">
        <ele>382.3</ele>
        <time>2019-05-24T16:42:44.600Z</time>
      </trkpt>
      <trkpt lat="45.80774" lon="4.6432">
        <ele>379.4</ele>
        <time>2019-05-24T16:42:45.063Z</time>
      </trkpt>
      <trkpt lat="45.80781" lon="4.64331">
        <ele>377.9</ele>
        <time>2019-05-24T16:42:45.289Z</time>
      </trkpt>
      <trkpt lat="45.80794" lon="4.64344">
        <ele>376.1</ele>
        <time>2019-05-24T16:42:45.590Z</time>
      </trkpt>
      <trkpt lat="45.80849" lon="4.64414">
        <ele>367.1</ele>
        <time>2019-05-24T16:42:47.070Z</time>
      </trkpt>
      <trkpt lat="45.80867" lon="4.64433">
        <ele>364.4</ele>
        <time>2019-05-24T16:42:47.524Z</time>
      </trkpt>
      <trkpt lat="45.8088" lon="4.64452">
        <ele>362.1</ele>
        <time>2019-05-24T16:42:47.886Z</time>
      </trkpt>
      <trkpt lat="45.80895" lon="4.64483">
        <ele>359.4</ele>
        <time>2019-05-24T16:42:48.410Z</time>
      </trkpt>
      <trkpt lat="45.80918" lon="4.6452">
        <ele>357.2</ele>
        <time>2019-05-24T16:42:49.109Z</time>
      </trkpt>
      <trkpt lat="45.80929" lon="4.64533">
        <ele>356.3</ele>
        <time>2019-05-24T16:42:49.386Z</time>
      </trkpt>
      <trkpt lat="45.80921" lon="4.64526">
        <ele>356.9</ele>
        <time>2019-05-24T16:42:49.561Z</time>
      </trkpt>
      <trkpt lat="45.80907" lon="4.64602">
        <ele>351.2</ele>
        <time>2019-05-24T16:42:50.659Z</time>
      </trkpt>
      <trkpt lat="45.80906" lon="4.6465">
        <ele>348.5</ele>
        <time>2019-05-24T16:42:51.331Z</time>
      </trkpt>
      <trkpt lat="45.809" lon="4.64678">
        <ele>347</ele>
        <time>2019-05-24T16:42:51.742Z</time>
      </trkpt>
      <trkpt lat="45.80893" lon="4.64693">
        <ele>346.2</ele>
        <time>2019-05-24T16:42:51.993Z</time>
      </trkpt>
      <trkpt lat="45.80892" lon="4.64724">
        <ele>345.1</ele>
        <time>2019-05-24T16:42:52.424Z</time>
      </trkpt>
      <trkpt lat="45.80885" lon="4.64766">
        <ele>345.8</ele>
        <time>2019-05-24T16:42:53.028Z</time>
      </trkpt>
      <trkpt lat="45.80887" lon="4.64782">
        <ele>346.3</ele>
        <time>2019-05-24T16:42:53.255Z</time>
      </trkpt>
      <trkpt lat="45.80897" lon="4.64806">
        <ele>346.2</ele>
        <time>2019-05-24T16:42:53.639Z</time>
      </trkpt>
      <trkpt lat="45.80897" lon="4.64819">
        <ele>347.1</ele>
        <time>2019-05-24T16:42:53.824Z</time>
      </trkpt>
      <trkpt lat="45.80906" lon="4.64859">
        <ele>348.4</ele>
        <time>2019-05-24T16:42:54.414Z</time>
      </trkpt>
      <trkpt lat="45.8091" lon="4.64898">
        <ele>349.3</ele>
        <time>2019-05-24T16:42:54.965Z</time>
      </trkpt>
      <trkpt lat="45.80921" lon="4.64952">
        <ele>346.9</ele>
        <time>2019-05-24T16:42:55.745Z</time>
      </trkpt>
      <trkpt lat="45.80923" lon="4.64978">
        <ele>344.8</ele>
        <time>2019-05-24T16:42:56.114Z</time>
      </trkpt>
      <trkpt lat="45.80923" lon="4.64999">
        <ele>343.2</ele>
        <time>2019-05-24T16:42:56.405Z</time>
      </trkpt>
      <trkpt lat="45.80924" lon="4.65012">
        <ele>342.6</ele>
        <time>2019-05-24T16:42:56.590Z</time>
      </trkpt>
      <trkpt lat="45.80932" lon="4.6505">
        <ele>342.2</ele>
        <time>2019-05-24T16:42:57.135Z</time>
      </trkpt>
      <trkpt lat="45.8095" lon="4.65124">
        <ele>348.3</ele>
        <time>2019-05-24T16:42:58.227Z</time>
      </trkpt>
      <trkpt lat="45.80988" lon="4.65264">
        <ele>355.7</ele>
        <time>2019-05-24T16:43:00.331Z</time>
      </trkpt>
      <trkpt lat="45.80986" lon="4.65267">
        <ele>355.8</ele>
        <time>2019-05-24T16:43:00.389Z</time>
      </trkpt>
      <trkpt lat="45.80973" lon="4.6527">
        <ele>356</ele>
        <time>2019-05-24T16:43:00.666Z</time>
      </trkpt>
      <trkpt lat="45.80962" lon="4.65274">
        <ele>356.4</ele>
        <time>2019-05-24T16:43:00.887Z</time>
      </trkpt>
      <trkpt lat="45.80913" lon="4.65299">
        <ele>358.1</ele>
        <time>2019-05-24T16:43:01.929Z</time>
      </trkpt>
      <trkpt lat="45.80894" lon="4.65307">
        <ele>358.8</ele>
        <time>2019-05-24T16:43:02.333Z</time>
      </trkpt>
      <trkpt lat="45.80887" lon="4.65314">
        <ele>359.1</ele>
        <time>2019-05-24T16:43:02.496Z</time>
      </trkpt>
      <trkpt lat="45.80851" lon="4.65455">
        <ele>362.4</ele>
        <time>2019-05-24T16:43:04.595Z</time>
      </trkpt>
      <trkpt lat="45.80831" lon="4.65525">
        <ele>359.4</ele>
        <time>2019-05-24T16:43:05.649Z</time>
      </trkpt>
      <trkpt lat="45.80823" lon="4.65544">
        <ele>358.2</ele>
        <time>2019-05-24T16:43:05.949Z</time>
      </trkpt>
      <trkpt lat="45.80817" lon="4.65573">
        <ele>356.5</ele>
        <time>2019-05-24T16:43:06.387Z</time>
      </trkpt>
      <trkpt lat="45.80814" lon="4.65705">
        <ele>350.7</ele>
        <time>2019-05-24T16:43:08.229Z</time>
      </trkpt>
      <trkpt lat="45.80816" lon="4.65757">
        <ele>346.3</ele>
        <time>2019-05-24T16:43:08.952Z</time>
      </trkpt>
      <trkpt lat="45.8082" lon="4.65779">
        <ele>345</ele>
        <time>2019-05-24T16:43:09.271Z</time>
      </trkpt>
      <trkpt lat="45.80838" lon="4.65813">
        <ele>344.7</ele>
        <time>2019-05-24T16:43:09.878Z</time>
      </trkpt>
      <trkpt lat="45.80843" lon="4.65842">
        <ele>344.6</ele>
        <time>2019-05-24T16:43:10.286Z</time>
      </trkpt>
      <trkpt lat="45.80837" lon="4.65899">
        <ele>345.1</ele>
        <time>2019-05-24T16:43:11.098Z</time>
      </trkpt>
      <trkpt lat="45.80846" lon="4.65997">
        <ele>348.9</ele>
        <time>2019-05-24T16:43:12.472Z</time>
      </trkpt>
      <trkpt lat="45.80848" lon="4.66066">
        <ele>351.8</ele>
        <time>2019-05-24T16:43:13.442Z</time>
      </trkpt>
      <trkpt lat="45.80847" lon="4.66109">
        <ele>353</ele>
        <time>2019-05-24T16:43:14.035Z</time>
      </trkpt>
      <trkpt lat="45.80849" lon="4.66159">
        <ele>354.6</ele>
        <time>2019-05-24T16:43:14.741Z</time>
      </trkpt>
      <trkpt lat="45.80847" lon="4.66195">
        <ele>356</ele>
        <time>2019-05-24T16:43:15.238Z</time>
      </trkpt>
      <trkpt lat="45.80848" lon="4.66226">
        <ele>356.9</ele>
        <time>2019-05-24T16:43:15.679Z</time>
      </trkpt>
      <trkpt lat="45.8084" lon="4.66289">
        <ele>358.5</ele>
        <time>2019-05-24T16:43:16.571Z</time>
      </trkpt>
      <trkpt lat="45.80818" lon="4.66352">
        <ele>361.7</ele>
        <time>2019-05-24T16:43:17.554Z</time>
      </trkpt>
      <trkpt lat="45.80813" lon="4.66374">
        <ele>362.3</ele>
        <time>2019-05-24T16:43:17.873Z</time>
      </trkpt>
      <trkpt lat="45.80788" lon="4.66445">
        <ele>365.9</ele>
        <time>2019-05-24T16:43:18.986Z</time>
      </trkpt>
      <trkpt lat="45.80791" lon="4.66498">
        <ele>366.5</ele>
        <time>2019-05-24T16:43:19.739Z</time>
      </trkpt>
      <trkpt lat="45.80783" lon="4.66577">
        <ele>365.7</ele>
        <time>2019-05-24T16:43:20.853Z</time>
      </trkpt>
      <trkpt lat="45.80775" lon="4.66594">
        <ele>366.2</ele>
        <time>2019-05-24T16:43:21.130Z</time>
      </trkpt>
      <trkpt lat="45.80756" lon="4.66619">
        <ele>366.8</ele>
        <time>2019-05-24T16:43:21.650Z</time>
      </trkpt>
      <trkpt lat="45.80741" lon="4.66659">
        <ele>367.3</ele>
        <time>2019-05-24T16:43:22.283Z</time>
      </trkpt>
      <trkpt lat="45.80742" lon="4.6669">
        <ele>368.1</ele>
        <time>2019-05-24T16:43:22.708Z</time>
      </trkpt>
      <trkpt lat="45.80745" lon="4.66709">
        <ele>368.7</ele>
        <time>2019-05-24T16:43:22.990Z</time>
      </trkpt>
      <trkpt lat="45.80758" lon="4.66736">
        <ele>369.2</ele>
        <time>2019-05-24T16:43:23.443Z</time>
      </trkpt>
      <trkpt lat="45.80778" lon="4.66738">
        <ele>368.5</ele>
        <time>2019-05-24T16:43:23.847Z</time>
      </trkpt>
      <trkpt lat="45.80841" lon="4.66697">
        <ele>362.6</ele>
        <time>2019-05-24T16:43:25.240Z</time>
      </trkpt>
      <trkpt lat="45.80883" lon="4.6668">
        <ele>358.3</ele>
        <time>2019-05-24T16:43:26.110Z</time>
      </trkpt>
      <trkpt lat="45.8091" lon="4.66663">
        <ele>356.5</ele>
        <time>2019-05-24T16:43:26.700Z</time>
      </trkpt>
      <trkpt lat="45.80925" lon="4.6666">
        <ele>355.5</ele>
        <time>2019-05-24T16:43:26.999Z</time>
      </trkpt>
      <trkpt lat="45.80964" lon="4.6666">
        <ele>351.6</ele>
        <time>2019-05-24T16:43:27.772Z</time>
      </trkpt>
      <trkpt lat="45.81026" lon="4.66656">
        <ele>348.3</ele>
        <time>2019-05-24T16:43:29.019Z</time>
      </trkpt>
      <trkpt lat="45.81045" lon="4.66653">
        <ele>346.8</ele>
        <time>2019-05-24T16:43:29.401Z</time>
      </trkpt>
      <trkpt lat="45.81059" lon="4.66647">
        <ele>345.3</ele>
        <time>2019-05-24T16:43:29.698Z</time>
      </trkpt>
      <trkpt lat="45.8107" lon="4.66646">
        <ele>344.3</ele>
        <time>2019-05-24T16:43:29.914Z</time>
      </trkpt>
      <trkpt lat="45.81103" lon="4.66657">
        <ele>341.5</ele>
        <time>2019-05-24T16:43:30.596Z</time>
      </trkpt>
      <trkpt lat="45.8132" lon="4.66743">
        <ele>333</ele>
        <time>2019-05-24T16:43:35.098Z</time>
      </trkpt>
      <trkpt lat="45.81241" lon="4.66712">
        <ele>333.6</ele>
        <time>2019-05-24T16:43:36.720Z</time>
      </trkpt>
      <trkpt lat="45.81236" lon="4.66711">
        <ele>333.7</ele>
        <time>2019-05-24T16:43:36.838Z</time>
      </trkpt>
      <trkpt lat="45.81232" lon="4.66714">
        <ele>334</ele>
        <time>2019-05-24T16:43:36.919Z</time>
      </trkpt>
      <trkpt lat="45.81232" lon="4.66716">
        <ele>334.2</ele>
        <time>2019-05-24T16:43:36.949Z</time>
      </trkpt>
      <trkpt lat="45.81236" lon="4.66728">
        <ele>334.9</ele>
        <time>2019-05-24T16:43:37.141Z</time>
      </trkpt>
      <trkpt lat="45.81268" lon="4.66803">
        <ele>339.1</ele>
        <time>2019-05-24T16:43:38.373Z</time>
      </trkpt>
      <trkpt lat="45.8127" lon="4.66811">
        <ele>339.6</ele>
        <time>2019-05-24T16:43:38.488Z</time>
      </trkpt>
      <trkpt lat="45.81315" lon="4.66921">
        <ele>341.3</ele>
        <time>2019-05-24T16:43:40.278Z</time>
      </trkpt>
      <trkpt lat="45.81339" lon="4.66976">
        <ele>338.6</ele>
        <time>2019-05-24T16:43:41.172Z</time>
      </trkpt>
      <trkpt lat="45.81367" lon="4.67053">
        <ele>332.7</ele>
        <time>2019-05-24T16:43:42.400Z</time>
      </trkpt>
      <trkpt lat="45.81397" lon="4.67142">
        <ele>329.4</ele>
        <time>2019-05-24T16:43:43.773Z</time>
      </trkpt>
      <trkpt lat="45.81409" lon="4.67168">
        <ele>328.6</ele>
        <time>2019-05-24T16:43:44.205Z</time>
      </trkpt>
      <trkpt lat="45.81418" lon="4.67183">
        <ele>327.9</ele>
        <time>2019-05-24T16:43:44.491Z</time>
      </trkpt>
      <trkpt lat="45.81488" lon="4.67276">
        <ele>322.5</ele>
        <time>2019-05-24T16:43:46.394Z</time>
      </trkpt>
      <trkpt lat="45.81492" lon="4.67291">
        <ele>322.2</ele>
        <time>2019-05-24T16:43:46.615Z</time>
      </trkpt>
      <trkpt lat="45.81492" lon="4.67299">
        <ele>322.1</ele>
        <time>2019-05-24T16:43:46.728Z</time>
      </trkpt>
      <trkpt lat="45.81479" lon="4.67359">
        <ele>322.5</ele>
        <time>2019-05-24T16:43:47.603Z</time>
      </trkpt>
      <trkpt lat="45.81478" lon="4.67387">
        <ele>323</ele>
        <time>2019-05-24T16:43:47.995Z</time>
      </trkpt>
      <trkpt lat="45.81444" lon="4.67421">
        <ele>325.3</ele>
        <time>2019-05-24T16:43:48.821Z</time>
      </trkpt>
      <trkpt lat="45.81422" lon="4.6745">
        <ele>327.2</ele>
        <time>2019-05-24T16:43:49.426Z</time>
      </trkpt>
      <trkpt lat="45.81392" lon="4.67512">
        <ele>329.2</ele>
        <time>2019-05-24T16:43:50.472Z</time>
      </trkpt>
      <trkpt lat="45.81378" lon="4.67548">
        <ele>331.1</ele>
        <time>2019-05-24T16:43:51.054Z</time>
      </trkpt>
      <trkpt lat="45.8134" lon="4.67686">
        <ele>334</ele>
        <time>2019-05-24T16:43:53.132Z</time>
      </trkpt>
      <trkpt lat="45.81325" lon="4.67728">
        <ele>334.8</ele>
        <time>2019-05-24T16:43:53.786Z</time>
      </trkpt>
      <trkpt lat="45.8132" lon="4.67747">
        <ele>335</ele>
        <time>2019-05-24T16:43:54.065Z</time>
      </trkpt>
      <trkpt lat="45.81303" lon="4.67938">
        <ele>332.1</ele>
        <time>2019-05-24T16:43:56.760Z</time>
      </trkpt>
      <trkpt lat="45.81299" lon="4.6795">
        <ele>332.1</ele>
        <time>2019-05-24T16:43:56.947Z</time>
      </trkpt>
      <trkpt lat="45.8128" lon="4.6798">
        <ele>331.6</ele>
        <time>2019-05-24T16:43:57.519Z</time>
      </trkpt>
      <trkpt lat="45.81204" lon="4.68088">
        <ele>327.8</ele>
        <time>2019-05-24T16:43:59.648Z</time>
      </trkpt>
      <trkpt lat="45.81193" lon="4.68103">
        <ele>327.3</ele>
        <time>2019-05-24T16:43:59.961Z</time>
      </trkpt>
      <trkpt lat="45.81146" lon="4.6815">
        <ele>327.7</ele>
        <time>2019-05-24T16:44:01.110Z</time>
      </trkpt>
      <trkpt lat="45.8114" lon="4.68161">
        <ele>327.4</ele>
        <time>2019-05-24T16:44:01.305Z</time>
      </trkpt>
      <trkpt lat="45.81134" lon="4.68179">
        <ele>326.8</ele>
        <time>2019-05-24T16:44:01.586Z</time>
      </trkpt>
      <trkpt lat="45.8111" lon="4.68373">
        <ele>320.2</ele>
        <time>2019-05-24T16:44:04.332Z</time>
      </trkpt>
      <trkpt lat="45.81109" lon="4.68437">
        <ele>320.1</ele>
        <time>2019-05-24T16:44:05.228Z</time>
      </trkpt>
      <trkpt lat="45.81105" lon="4.6852">
        <ele>319.7</ele>
        <time>2019-05-24T16:44:06.385Z</time>
      </trkpt>
      <trkpt lat="45.811" lon="4.68588">
        <ele>318.7</ele>
        <time>2019-05-24T16:44:07.344Z</time>
      </trkpt>
      <trkpt lat="45.81097" lon="4.68606">
        <ele>318.2</ele>
        <time>2019-05-24T16:44:07.607Z</time>
      </trkpt>
      <trkpt lat="45.81091" lon="4.68622">
        <ele>318.2</ele>
        <time>2019-05-24T16:44:07.856Z</time>
      </trkpt>
      <trkpt lat="45.81081" lon="4.68629">
        <ele>318.4</ele>
        <time>2019-05-24T16:44:08.077Z</time>
      </trkpt>
      <trkpt lat="45.81076" lon="4.6863">
        <ele>318.6</ele>
        <time>2019-05-24T16:44:08.186Z</time>
      </trkpt>
      <trkpt lat="45.81013" lon="4.68624">
        <ele>320.8</ele>
        <time>2019-05-24T16:44:09.434Z</time>
      </trkpt>
      <trkpt lat="45.80985" lon="4.68627">
        <ele>321.2</ele>
        <time>2019-05-24T16:44:10.014Z</time>
      </trkpt>
      <trkpt lat="45.80954" lon="4.6868">
        <ele>321</ele>
        <time>2019-05-24T16:44:10.977Z</time>
      </trkpt>
      <trkpt lat="45.80889" lon="4.68826">
        <ele>320</ele>
        <time>2019-05-24T16:44:13.397Z</time>
      </trkpt>
      <trkpt lat="45.80875" lon="4.68836">
        <ele>319.4</ele>
        <time>2019-05-24T16:44:13.704Z</time>
      </trkpt>
      <trkpt lat="45.80854" lon="4.68844">
        <ele>318.3</ele>
        <time>2019-05-24T16:44:14.144Z</time>
      </trkpt>
      <trkpt lat="45.80839" lon="4.68852">
        <ele>317.5</ele>
        <time>2019-05-24T16:44:14.462Z</time>
      </trkpt>
      <trkpt lat="45.80835" lon="4.68855">
        <ele>317.3</ele>
        <time>2019-05-24T16:44:14.554Z</time>
      </trkpt>
      <trkpt lat="45.80799" lon="4.68906">
        <ele>316.7</ele>
        <time>2019-05-24T16:44:15.571Z</time>
      </trkpt>
      <trkpt lat="45.80751" lon="4.68978">
        <ele>317</ele>
        <time>2019-05-24T16:44:16.956Z</time>
      </trkpt>
      <trkpt lat="45.80704" lon="4.69019">
        <ele>315.6</ele>
        <time>2019-05-24T16:44:18.067Z</time>
      </trkpt>
      <trkpt lat="45.80651" lon="4.6914">
        <ele>314.2</ele>
        <time>2019-05-24T16:44:20.058Z</time>
      </trkpt>
      <trkpt lat="45.80577" lon="4.69329">
        <ele>313.2</ele>
        <time>2019-05-24T16:44:23.083Z</time>
      </trkpt>
      <trkpt lat="45.80534" lon="4.69432">
        <ele>311.2</ele>
        <time>2019-05-24T16:44:24.764Z</time>
      </trkpt>
      <trkpt lat="45.80524" lon="4.69461">
        <ele>310.3</ele>
        <time>2019-05-24T16:44:25.205Z</time>
      </trkpt>
      <trkpt lat="45.80529" lon="4.69481">
        <ele>309.7</ele>
        <time>2019-05-24T16:44:25.501Z</time>
      </trkpt>
      <trkpt lat="45.8054" lon="4.69495">
        <ele>309.6</ele>
        <time>2019-05-24T16:44:25.802Z</time>
      </trkpt>
      <trkpt lat="45.8055" lon="4.69505">
        <ele>309.6</ele>
        <time>2019-05-24T16:44:26.034Z</time>
      </trkpt>
      <trkpt lat="45.80576" lon="4.69549">
        <ele>308.4</ele>
        <time>2019-05-24T16:44:26.847Z</time>
      </trkpt>
      <trkpt lat="45.80597" lon="4.69608">
        <ele>305.6</ele>
        <time>2019-05-24T16:44:27.778Z</time>
      </trkpt>
      <trkpt lat="45.80611" lon="4.69676">
        <ele>303.7</ele>
        <time>2019-05-24T16:44:28.760Z</time>
      </trkpt>
      <trkpt lat="45.80612" lon="4.69676">
        <ele>303.7</ele>
        <time>2019-05-24T16:44:28.770Z</time>
      </trkpt>
      <trkpt lat="45.80611" lon="4.69676">
        <ele>303.7</ele>
        <time>2019-05-24T16:44:28.772Z</time>
      </trkpt>
      <trkpt lat="45.80624" lon="4.69701">
        <ele>302.9</ele>
        <time>2019-05-24T16:44:29.204Z</time>
      </trkpt>
      <trkpt lat="45.80643" lon="4.69735">
        <ele>302.2</ele>
        <time>2019-05-24T16:44:29.810Z</time>
      </trkpt>
      <trkpt lat="45.80705" lon="4.69797">
        <ele>301.9</ele>
        <time>2019-05-24T16:44:31.319Z</time>
      </trkpt>
      <trkpt lat="45.80725" lon="4.69845">
        <ele>298.7</ele>
        <time>2019-05-24T16:44:32.110Z</time>
      </trkpt>
      <trkpt lat="45.80731" lon="4.6987">
        <ele>296.9</ele>
        <time>2019-05-24T16:44:32.471Z</time>
      </trkpt>
      <trkpt lat="45.80736" lon="4.69916">
        <ele>294.5</ele>
        <time>2019-05-24T16:44:33.121Z</time>
      </trkpt>
      <trkpt lat="45.80736" lon="4.69935">
        <ele>292.9</ele>
        <time>2019-05-24T16:44:33.385Z</time>
      </trkpt>
      <trkpt lat="45.80732" lon="4.69957">
        <ele>290.2</ele>
        <time>2019-05-24T16:44:33.704Z</time>
      </trkpt>
      <trkpt lat="45.80748" lon="4.69977">
        <ele>286.8</ele>
        <time>2019-05-24T16:44:34.119Z</time>
      </trkpt>
      <trkpt lat="45.80763" lon="4.6999">
        <ele>281.7</ele>
        <time>2019-05-24T16:44:34.470Z</time>
      </trkpt>
      <trkpt lat="45.80774" lon="4.69997">
        <ele>279</ele>
        <time>2019-05-24T16:44:34.707Z</time>
      </trkpt>
      <trkpt lat="45.80783" lon="4.70005">
        <ele>277.9</ele>
        <time>2019-05-24T16:44:34.934Z</time>
      </trkpt>
      <trkpt lat="45.80791" lon="4.70016">
        <ele>277.6</ele>
        <time>2019-05-24T16:44:35.155Z</time>
      </trkpt>
      <trkpt lat="45.80798" lon="4.70026">
        <ele>277.5</ele>
        <time>2019-05-24T16:44:35.348Z</time>
      </trkpt>
      <trkpt lat="45.80813" lon="4.70074">
        <ele>279</ele>
        <time>2019-05-24T16:44:36.077Z</time>
      </trkpt>
      <trkpt lat="45.80809" lon="4.7012">
        <ele>277.5</ele>
        <time>2019-05-24T16:44:36.725Z</time>
      </trkpt>
      <trkpt lat="45.80815" lon="4.70171">
        <ele>279.1</ele>
        <time>2019-05-24T16:44:37.446Z</time>
      </trkpt>
      <trkpt lat="45.80815" lon="4.70194">
        <ele>279.1</ele>
        <time>2019-05-24T16:44:37.771Z</time>
      </trkpt>
      <trkpt lat="45.80803" lon="4.70272">
        <ele>280.1</ele>
        <time>2019-05-24T16:44:38.883Z</time>
      </trkpt>
      <trkpt lat="45.80804" lon="4.70297">
        <ele>281.8</ele>
        <time>2019-05-24T16:44:39.231Z</time>
      </trkpt>
      <trkpt lat="45.80819" lon="4.70337">
        <ele>280.7</ele>
        <time>2019-05-24T16:44:39.880Z</time>
      </trkpt>
      <trkpt lat="45.80817" lon="4.70345">
        <ele>281.2</ele>
        <time>2019-05-24T16:44:39.994Z</time>
      </trkpt>
      <trkpt lat="45.80807" lon="4.70358">
        <ele>281.9</ele>
        <time>2019-05-24T16:44:40.271Z</time>
      </trkpt>
      <trkpt lat="45.80802" lon="4.70367">
        <ele>282.8</ele>
        <time>2019-05-24T16:44:40.418Z</time>
      </trkpt>
      <trkpt lat="45.80801" lon="4.70376">
        <ele>283.9</ele>
        <time>2019-05-24T16:44:40.542Z</time>
      </trkpt>
      <trkpt lat="45.80806" lon="4.70385">
        <ele>285.5</ele>
        <time>2019-05-24T16:44:40.709Z</time>
      </trkpt>
      <trkpt lat="45.80812" lon="4.70388">
        <ele>286.3</ele>
        <time>2019-05-24T16:44:40.834Z</time>
      </trkpt>
      <trkpt lat="45.80828" lon="4.7039">
        <ele>287.8</ele>
        <time>2019-05-24T16:44:41.148Z</time>
      </trkpt>
      <trkpt lat="45.80851" lon="4.70404">
        <ele>290.1</ele>
        <time>2019-05-24T16:44:41.644Z</time>
      </trkpt>
      <trkpt lat="45.80861" lon="4.70415">
        <ele>291.7</ele>
        <time>2019-05-24T16:44:41.907Z</time>
      </trkpt>
      <trkpt lat="45.80875" lon="4.70434">
        <ele>295.2</ele>
        <time>2019-05-24T16:44:42.298Z</time>
      </trkpt>
      <trkpt lat="45.80881" lon="4.70452">
        <ele>298</ele>
        <time>2019-05-24T16:44:42.570Z</time>
      </trkpt>
      <trkpt lat="45.80882" lon="4.7046">
        <ele>299.1</ele>
        <time>2019-05-24T16:44:42.679Z</time>
      </trkpt>
      <trkpt lat="45.80881" lon="4.70486">
        <ele>302.6</ele>
        <time>2019-05-24T16:44:43.047Z</time>
      </trkpt>
      <trkpt lat="45.80879" lon="4.70498">
        <ele>304</ele>
        <time>2019-05-24T16:44:43.209Z</time>
      </trkpt>
      <trkpt lat="45.8088" lon="4.70537">
        <ele>308.1</ele>
        <time>2019-05-24T16:44:43.764Z</time>
      </trkpt>
      <trkpt lat="45.80878" lon="4.70626">
        <ele>313.4</ele>
        <time>2019-05-24T16:44:44.999Z</time>
      </trkpt>
      <trkpt lat="45.80883" lon="4.70642">
        <ele>314.4</ele>
        <time>2019-05-24T16:44:45.239Z</time>
      </trkpt>
      <trkpt lat="45.80907" lon="4.70689">
        <ele>317.5</ele>
        <time>2019-05-24T16:44:46.064Z</time>
      </trkpt>
      <trkpt lat="45.80919" lon="4.70717">
        <ele>318.9</ele>
        <time>2019-05-24T16:44:46.511Z</time>
      </trkpt>
      <trkpt lat="45.80926" lon="4.70741">
        <ele>319.5</ele>
        <time>2019-05-24T16:44:46.882Z</time>
      </trkpt>
      <trkpt lat="45.80933" lon="4.70786">
        <ele>322</ele>
        <time>2019-05-24T16:44:47.518Z</time>
      </trkpt>
      <trkpt lat="45.80936" lon="4.70812">
        <ele>323.4</ele>
        <time>2019-05-24T16:44:47.891Z</time>
      </trkpt>
      <trkpt lat="45.80937" lon="4.70842">
        <ele>325</ele>
        <time>2019-05-24T16:44:48.305Z</time>
      </trkpt>
      <trkpt lat="45.80921" lon="4.7088">
        <ele>325.8</ele>
        <time>2019-05-24T16:44:48.926Z</time>
      </trkpt>
      <trkpt lat="45.80917" lon="4.70894">
        <ele>326.4</ele>
        <time>2019-05-24T16:44:49.144Z</time>
      </trkpt>
      <trkpt lat="45.80911" lon="4.7093">
        <ele>327.8</ele>
        <time>2019-05-24T16:44:49.654Z</time>
      </trkpt>
      <trkpt lat="45.80909" lon="4.70954">
        <ele>328.6</ele>
        <time>2019-05-24T16:44:49.993Z</time>
      </trkpt>
      <trkpt lat="45.80911" lon="4.70977">
        <ele>329.6</ele>
        <time>2019-05-24T16:44:50.318Z</time>
      </trkpt>
      <trkpt lat="45.80926" lon="4.71058">
        <ele>333</ele>
        <time>2019-05-24T16:44:51.483Z</time>
      </trkpt>
      <trkpt lat="45.80936" lon="4.71101">
        <ele>334.2</ele>
        <time>2019-05-24T16:44:52.115Z</time>
      </trkpt>
      <trkpt lat="45.80949" lon="4.71149">
        <ele>334.6</ele>
        <time>2019-05-24T16:44:52.837Z</time>
      </trkpt>
      <trkpt lat="45.80998" lon="4.71261">
        <ele>335.1</ele>
        <time>2019-05-24T16:44:54.692Z</time>
      </trkpt>
      <trkpt lat="45.81035" lon="4.71317">
        <ele>335.8</ele>
        <time>2019-05-24T16:44:55.770Z</time>
      </trkpt>
      <trkpt lat="45.81054" lon="4.71337">
        <ele>336.5</ele>
        <time>2019-05-24T16:44:56.234Z</time>
      </trkpt>
      <trkpt lat="45.81081" lon="4.71378">
        <ele>337.7</ele>
        <time>2019-05-24T16:44:57.015Z</time>
      </trkpt>
      <trkpt lat="45.811" lon="4.71418">
        <ele>339.8</ele>
        <time>2019-05-24T16:44:57.704Z</time>
      </trkpt>
      <trkpt lat="45.81121" lon="4.71482">
        <ele>342.1</ele>
        <time>2019-05-24T16:44:58.693Z</time>
      </trkpt>
      <trkpt lat="45.81125" lon="4.7149">
        <ele>342.5</ele>
        <time>2019-05-24T16:44:58.826Z</time>
      </trkpt>
      <trkpt lat="45.81149" lon="4.71552">
        <ele>343.8</ele>
        <time>2019-05-24T16:44:59.811Z</time>
      </trkpt>
      <trkpt lat="45.81159" lon="4.71585">
        <ele>343.4</ele>
        <time>2019-05-24T16:45:00.318Z</time>
      </trkpt>
      <trkpt lat="45.81176" lon="4.71622">
        <ele>343.3</ele>
        <time>2019-05-24T16:45:00.933Z</time>
      </trkpt>
      <trkpt lat="45.81195" lon="4.71673">
        <ele>340.6</ele>
        <time>2019-05-24T16:45:01.748Z</time>
      </trkpt>
      <trkpt lat="45.81201" lon="4.71709">
        <ele>338.6</ele>
        <time>2019-05-24T16:45:02.258Z</time>
      </trkpt>
      <trkpt lat="45.81197" lon="4.71777">
        <ele>334.1</ele>
        <time>2019-05-24T16:45:03.209Z</time>
      </trkpt>
      <trkpt lat="45.81186" lon="4.71804">
        <ele>331.8</ele>
        <time>2019-05-24T16:45:03.653Z</time>
      </trkpt>
      <trkpt lat="45.8118" lon="4.7181">
        <ele>331.2</ele>
        <time>2019-05-24T16:45:03.793Z</time>
      </trkpt>
      <trkpt lat="45.81159" lon="4.71819">
        <ele>329.7</ele>
        <time>2019-05-24T16:45:04.240Z</time>
      </trkpt>
      <trkpt lat="45.81078" lon="4.71862">
        <ele>324.6</ele>
        <time>2019-05-24T16:45:05.963Z</time>
      </trkpt>
      <trkpt lat="45.81036" lon="4.7188">
        <ele>321.6</ele>
        <time>2019-05-24T16:45:06.840Z</time>
      </trkpt>
      <trkpt lat="45.80992" lon="4.71891">
        <ele>319.7</ele>
        <time>2019-05-24T16:45:07.742Z</time>
      </trkpt>
      <trkpt lat="45.80872" lon="4.71907">
        <ele>315.8</ele>
        <time>2019-05-24T16:45:10.148Z</time>
      </trkpt>
      <trkpt lat="45.80811" lon="4.7192">
        <ele>313.8</ele>
        <time>2019-05-24T16:45:11.387Z</time>
      </trkpt>
      <trkpt lat="45.80798" lon="4.71914">
        <ele>313.5</ele>
        <time>2019-05-24T16:45:11.664Z</time>
      </trkpt>
      <trkpt lat="45.80786" lon="4.71911">
        <ele>312.6</ele>
        <time>2019-05-24T16:45:11.912Z</time>
      </trkpt>
      <trkpt lat="45.80756" lon="4.71934">
        <ele>311.4</ele>
        <time>2019-05-24T16:45:12.587Z</time>
      </trkpt>
      <trkpt lat="45.80729" lon="4.71941">
        <ele>310.5</ele>
        <time>2019-05-24T16:45:13.136Z</time>
      </trkpt>
      <trkpt lat="45.80648" lon="4.71965">
        <ele>308.6</ele>
        <time>2019-05-24T16:45:14.795Z</time>
      </trkpt>
      <trkpt lat="45.80592" lon="4.71979">
        <ele>307.8</ele>
        <time>2019-05-24T16:45:15.943Z</time>
      </trkpt>
      <trkpt lat="45.80539" lon="4.71977">
        <ele>307</ele>
        <time>2019-05-24T16:45:17.005Z</time>
      </trkpt>
      <trkpt lat="45.80433" lon="4.71946">
        <ele>306</ele>
        <time>2019-05-24T16:45:19.163Z</time>
      </trkpt>
      <trkpt lat="45.80407" lon="4.71939">
        <ele>306</ele>
        <time>2019-05-24T16:45:19.691Z</time>
      </trkpt>
      <trkpt lat="45.80388" lon="4.71938">
        <ele>306</ele>
        <time>2019-05-24T16:45:20.076Z</time>
      </trkpt>
      <trkpt lat="45.80381" lon="4.71939">
        <ele>305.7</ele>
        <time>2019-05-24T16:45:20.211Z</time>
      </trkpt>
      <trkpt lat="45.80361" lon="4.71946">
        <ele>305</ele>
        <time>2019-05-24T16:45:20.630Z</time>
      </trkpt>
      <trkpt lat="45.80348" lon="4.71953">
        <ele>305</ele>
        <time>2019-05-24T16:45:20.909Z</time>
      </trkpt>
      <trkpt lat="45.80331" lon="4.71968">
        <ele>304.9</ele>
        <time>2019-05-24T16:45:21.307Z</time>
      </trkpt>
      <trkpt lat="45.80233" lon="4.72078">
        <ele>301.4</ele>
        <time>2019-05-24T16:45:23.800Z</time>
      </trkpt>
      <trkpt lat="45.80172" lon="4.72141">
        <ele>299</ele>
        <time>2019-05-24T16:45:25.318Z</time>
      </trkpt>
      <trkpt lat="45.8016" lon="4.72151">
        <ele>298.7</ele>
        <time>2019-05-24T16:45:25.597Z</time>
      </trkpt>
      <trkpt lat="45.80141" lon="4.72159">
        <ele>298.1</ele>
        <time>2019-05-24T16:45:25.979Z</time>
      </trkpt>
      <trkpt lat="45.80124" lon="4.72185">
        <ele>298.1</ele>
        <time>2019-05-24T16:45:26.487Z</time>
      </trkpt>
      <trkpt lat="45.8007" lon="4.72229">
        <ele>298</ele>
        <time>2019-05-24T16:45:27.729Z</time>
      </trkpt>
      <trkpt lat="45.80022" lon="4.72264">
        <ele>298</ele>
        <time>2019-05-24T16:45:28.811Z</time>
      </trkpt>
      <trkpt lat="45.79999" lon="4.72278">
        <ele>298</ele>
        <time>2019-05-24T16:45:29.300Z</time>
      </trkpt>
      <trkpt lat="45.79922" lon="4.72317">
        <ele>297.6</ele>
        <time>2019-05-24T16:45:30.944Z</time>
      </trkpt>
      <trkpt lat="45.79848" lon="4.72348">
        <ele>297.5</ele>
        <time>2019-05-24T16:45:32.485Z</time>
      </trkpt>
      <trkpt lat="45.79784" lon="4.72367">
        <ele>296.8</ele>
        <time>2019-05-24T16:45:33.790Z</time>
      </trkpt>
      <trkpt lat="45.79712" lon="4.72383">
        <ele>296</ele>
        <time>2019-05-24T16:45:35.267Z</time>
      </trkpt>
      <trkpt lat="45.79679" lon="4.72399">
        <ele>296</ele>
        <time>2019-05-24T16:45:35.949Z</time>
      </trkpt>
      <trkpt lat="45.79633" lon="4.72434">
        <ele>296</ele>
        <time>2019-05-24T16:45:36.989Z</time>
      </trkpt>
      <trkpt lat="45.79588" lon="4.72459">
        <ele>296.4</ele>
        <time>2019-05-24T16:45:37.966Z</time>
      </trkpt>
      <trkpt lat="45.79523" lon="4.72512">
        <ele>296.6</ele>
        <time>2019-05-24T16:45:39.471Z</time>
      </trkpt>
      <trkpt lat="45.79419" lon="4.7261">
        <ele>293</ele>
        <time>2019-05-24T16:45:41.959Z</time>
      </trkpt>
      <trkpt lat="45.79378" lon="4.72653">
        <ele>290.5</ele>
        <time>2019-05-24T16:45:42.970Z</time>
      </trkpt>
      <trkpt lat="45.79349" lon="4.72689">
        <ele>288</ele>
        <time>2019-05-24T16:45:43.747Z</time>
      </trkpt>
      <trkpt lat="45.79314" lon="4.72745">
        <ele>284.8</ele>
        <time>2019-05-24T16:45:44.784Z</time>
      </trkpt>
      <trkpt lat="45.79292" lon="4.72787">
        <ele>283.3</ele>
        <time>2019-05-24T16:45:45.536Z</time>
      </trkpt>
      <trkpt lat="45.79222" lon="4.72928">
        <ele>280.6</ele>
        <time>2019-05-24T16:45:47.950Z</time>
      </trkpt>
      <trkpt lat="45.79182" lon="4.73011">
        <ele>278.6</ele>
        <time>2019-05-24T16:45:49.365Z</time>
      </trkpt>
      <trkpt lat="45.79175" lon="4.73031">
        <ele>277.9</ele>
        <time>2019-05-24T16:45:49.671Z</time>
      </trkpt>
      <trkpt lat="45.79172" lon="4.73052">
        <ele>277.1</ele>
        <time>2019-05-24T16:45:49.976Z</time>
      </trkpt>
      <trkpt lat="45.79175" lon="4.73073">
        <ele>276.4</ele>
        <time>2019-05-24T16:45:50.274Z</time>
      </trkpt>
      <trkpt lat="45.79196" lon="4.73147">
        <ele>273.4</ele>
        <time>2019-05-24T16:45:51.387Z</time>
      </trkpt>
      <trkpt lat="45.79197" lon="4.73158">
        <ele>272.4</ele>
        <time>2019-05-24T16:45:51.548Z</time>
      </trkpt>
      <trkpt lat="45.79193" lon="4.73183">
        <ele>269.8</ele>
        <time>2019-05-24T16:45:51.899Z</time>
      </trkpt>
      <trkpt lat="45.79179" lon="4.732">
        <ele>268.4</ele>
        <time>2019-05-24T16:45:52.265Z</time>
      </trkpt>
      <trkpt lat="45.79162" lon="4.73211">
        <ele>268.2</ele>
        <time>2019-05-24T16:45:52.648Z</time>
      </trkpt>
      <trkpt lat="45.79115" lon="4.73226">
        <ele>266.1</ele>
        <time>2019-05-24T16:45:53.601Z</time>
      </trkpt>
      <trkpt lat="45.79106" lon="4.73227">
        <ele>265.4</ele>
        <time>2019-05-24T16:45:53.790Z</time>
      </trkpt>
      <trkpt lat="45.79096" lon="4.73226">
        <ele>264.8</ele>
        <time>2019-05-24T16:45:53.978Z</time>
      </trkpt>
      <trkpt lat="45.7905" lon="4.73205">
        <ele>262.7</ele>
        <time>2019-05-24T16:45:54.947Z</time>
      </trkpt>
      <trkpt lat="45.79005" lon="4.73191">
        <ele>260.4</ele>
        <time>2019-05-24T16:45:55.879Z</time>
      </trkpt>
      <trkpt lat="45.78931" lon="4.73174">
        <ele>257.6</ele>
        <time>2019-05-24T16:45:57.382Z</time>
      </trkpt>
      <trkpt lat="45.78914" lon="4.73172">
        <ele>256.9</ele>
        <time>2019-05-24T16:45:57.725Z</time>
      </trkpt>
      <trkpt lat="45.78897" lon="4.73171">
        <ele>254.8</ele>
        <time>2019-05-24T16:45:58.056Z</time>
      </trkpt>
      <trkpt lat="45.7889" lon="4.73173">
        <ele>253.5</ele>
        <time>2019-05-24T16:45:58.200Z</time>
      </trkpt>
      <trkpt lat="45.78884" lon="4.73176">
        <ele>251.5</ele>
        <time>2019-05-24T16:45:58.344Z</time>
      </trkpt>
      <trkpt lat="45.78872" lon="4.73186">
        <ele>247.5</ele>
        <time>2019-05-24T16:45:58.624Z</time>
      </trkpt>
      <trkpt lat="45.78849" lon="4.73217">
        <ele>244.1</ele>
        <time>2019-05-24T16:45:59.247Z</time>
      </trkpt>
      <trkpt lat="45.78837" lon="4.73222">
        <ele>244</ele>
        <time>2019-05-24T16:45:59.489Z</time>
      </trkpt>
      <trkpt lat="45.78831" lon="4.73219">
        <ele>243.9</ele>
        <time>2019-05-24T16:45:59.616Z</time>
      </trkpt>
      <trkpt lat="45.7883" lon="4.73227">
        <ele>243.9</ele>
        <time>2019-05-24T16:45:59.732Z</time>
      </trkpt>
      <trkpt lat="45.78826" lon="4.73236">
        <ele>243.9</ele>
        <time>2019-05-24T16:45:59.888Z</time>
      </trkpt>
      <trkpt lat="45.78812" lon="4.7324">
        <ele>243.7</ele>
        <time>2019-05-24T16:46:00.177Z</time>
      </trkpt>
      <trkpt lat="45.78801" lon="4.73241">
        <ele>243.7</ele>
        <time>2019-05-24T16:46:00.410Z</time>
      </trkpt>
      <trkpt lat="45.78778" lon="4.73238">
        <ele>243.7</ele>
        <time>2019-05-24T16:46:00.857Z</time>
      </trkpt>
      <trkpt lat="45.78737" lon="4.7324">
        <ele>244.8</ele>
        <time>2019-05-24T16:46:01.680Z</time>
      </trkpt>
      <trkpt lat="45.78726" lon="4.73244">
        <ele>245</ele>
        <time>2019-05-24T16:46:01.917Z</time>
      </trkpt>
      <trkpt lat="45.78708" lon="4.73254">
        <ele>244.3</ele>
        <time>2019-05-24T16:46:02.298Z</time>
      </trkpt>
      <trkpt lat="45.78669" lon="4.733">
        <ele>244.2</ele>
        <time>2019-05-24T16:46:03.320Z</time>
      </trkpt>
      <trkpt lat="45.78629" lon="4.73356">
        <ele>243.7</ele>
        <time>2019-05-24T16:46:04.442Z</time>
      </trkpt>
      <trkpt lat="45.78581" lon="4.73428">
        <ele>238.4</ele>
        <time>2019-05-24T16:46:05.820Z</time>
      </trkpt>
      <trkpt lat="45.78567" lon="4.7344">
        <ele>236.3</ele>
        <time>2019-05-24T16:46:06.156Z</time>
      </trkpt>
      <trkpt lat="45.78552" lon="4.73435">
        <ele>232.7</ele>
        <time>2019-05-24T16:46:06.471Z</time>
      </trkpt>
      <trkpt lat="45.78516" lon="4.73391">
        <ele>232.7</ele>
        <time>2019-05-24T16:46:07.412Z</time>
      </trkpt>
      <trkpt lat="45.78503" lon="4.73362">
        <ele>235.4</ele>
        <time>2019-05-24T16:46:07.892Z</time>
      </trkpt>
      <trkpt lat="45.78487" lon="4.73318">
        <ele>239.7</ele>
        <time>2019-05-24T16:46:08.589Z</time>
      </trkpt>
      <trkpt lat="45.78459" lon="4.73234">
        <ele>247</ele>
        <time>2019-05-24T16:46:09.890Z</time>
      </trkpt>
      <trkpt lat="45.78462" lon="4.73225">
        <ele>248.1</ele>
        <time>2019-05-24T16:46:10.039Z</time>
      </trkpt>
      <trkpt lat="45.7847" lon="4.73217">
        <ele>250.8</ele>
        <time>2019-05-24T16:46:10.231Z</time>
      </trkpt>
      <trkpt lat="45.78475" lon="4.73214">
        <ele>252.7</ele>
        <time>2019-05-24T16:46:10.339Z</time>
      </trkpt>
      <trkpt lat="45.78486" lon="4.73213">
        <ele>255.4</ele>
        <time>2019-05-24T16:46:10.560Z</time>
      </trkpt>
      <trkpt lat="45.78489" lon="4.73214">
        <ele>255.9</ele>
        <time>2019-05-24T16:46:10.632Z</time>
      </trkpt>
      <trkpt lat="45.78502" lon="4.73235">
        <ele>255.9</ele>
        <time>2019-05-24T16:46:11.022Z</time>
      </trkpt>
      <trkpt lat="45.78509" lon="4.73256">
        <ele>254.5</ele>
        <time>2019-05-24T16:46:11.350Z</time>
      </trkpt>
      <trkpt lat="45.78516" lon="4.73266">
        <ele>253.9</ele>
        <time>2019-05-24T16:46:11.545Z</time>
      </trkpt>
      <trkpt lat="45.7852" lon="4.73268">
        <ele>254</ele>
        <time>2019-05-24T16:46:11.631Z</time>
      </trkpt>
      <trkpt lat="45.78525" lon="4.73267">
        <ele>254.7</ele>
        <time>2019-05-24T16:46:11.743Z</time>
      </trkpt>
      <trkpt lat="45.78535" lon="4.73264">
        <ele>252.9</ele>
        <time>2019-05-24T16:46:11.934Z</time>
      </trkpt>
      <trkpt lat="45.78546" lon="4.7325">
        <ele>253.5</ele>
        <time>2019-05-24T16:46:12.232Z</time>
      </trkpt>
      <trkpt lat="45.78555" lon="4.73223">
        <ele>257.8</ele>
        <time>2019-05-24T16:46:12.651Z</time>
      </trkpt>
      <trkpt lat="45.78577" lon="4.73172">
        <ele>260</ele>
        <time>2019-05-24T16:46:13.489Z</time>
      </trkpt>
      <trkpt lat="45.78584" lon="4.73146">
        <ele>265</ele>
        <time>2019-05-24T16:46:13.875Z</time>
      </trkpt>
      <trkpt lat="45.78583" lon="4.73141">
        <ele>266.6</ele>
        <time>2019-05-24T16:46:13.956Z</time>
      </trkpt>
      <trkpt lat="45.7858" lon="4.73133">
        <ele>267.7</ele>
        <time>2019-05-24T16:46:14.086Z</time>
      </trkpt>
      <trkpt lat="45.78574" lon="4.7313">
        <ele>267.9</ele>
        <time>2019-05-24T16:46:14.211Z</time>
      </trkpt>
      <trkpt lat="45.78507" lon="4.7313">
        <ele>268.3</ele>
        <time>2019-05-24T16:46:15.555Z</time>
      </trkpt>
      <trkpt lat="45.78484" lon="4.73125">
        <ele>269.2</ele>
        <time>2019-05-24T16:46:16.002Z</time>
      </trkpt>
      <trkpt lat="45.78467" lon="4.73119">
        <ele>270.1</ele>
        <time>2019-05-24T16:46:16.355Z</time>
      </trkpt>
      <trkpt lat="45.78451" lon="4.73108">
        <ele>271.1</ele>
        <time>2019-05-24T16:46:16.722Z</time>
      </trkpt>
      <trkpt lat="45.78432" lon="4.73088">
        <ele>271.3</ele>
        <time>2019-05-24T16:46:17.202Z</time>
      </trkpt>
      <trkpt lat="45.78422" lon="4.73066">
        <ele>272.6</ele>
        <time>2019-05-24T16:46:17.560Z</time>
      </trkpt>
      <trkpt lat="45.78419" lon="4.73053">
        <ele>273.3</ele>
        <time>2019-05-24T16:46:17.753Z</time>
      </trkpt>
      <trkpt lat="45.78415" lon="4.73018">
        <ele>275</ele>
        <time>2019-05-24T16:46:18.250Z</time>
      </trkpt>
      <trkpt lat="45.7842" lon="4.7301">
        <ele>275.8</ele>
        <time>2019-05-24T16:46:18.405Z</time>
      </trkpt>
      <trkpt lat="45.78436" lon="4.73005">
        <ele>276.5</ele>
        <time>2019-05-24T16:46:18.738Z</time>
      </trkpt>
      <trkpt lat="45.78439" lon="4.73006">
        <ele>276.6</ele>
        <time>2019-05-24T16:46:18.797Z</time>
      </trkpt>
      <trkpt lat="45.7844" lon="4.7302">
        <ele>276.1</ele>
        <time>2019-05-24T16:46:18.997Z</time>
      </trkpt>
      <trkpt lat="45.78445" lon="4.73026">
        <ele>276.1</ele>
        <time>2019-05-24T16:46:19.124Z</time>
      </trkpt>
      <trkpt lat="45.78451" lon="4.73024">
        <ele>276.3</ele>
        <time>2019-05-24T16:46:19.243Z</time>
      </trkpt>
      <trkpt lat="45.78452" lon="4.73025">
        <ele>276.3</ele>
        <time>2019-05-24T16:46:19.263Z</time>
      </trkpt>
      <trkpt lat="45.78448" lon="4.73024">
        <ele>276.3</ele>
        <time>2019-05-24T16:46:19.335Z</time>
      </trkpt>
      <trkpt lat="45.78448" lon="4.73028">
        <ele>276.1</ele>
        <time>2019-05-24T16:46:19.396Z</time>
      </trkpt>
      <trkpt lat="45.78454" lon="4.73025">
        <ele>276.4</ele>
        <time>2019-05-24T16:46:19.519Z</time>
      </trkpt>
      <trkpt lat="45.78468" lon="4.73035">
        <ele>276.4</ele>
        <time>2019-05-24T16:46:19.835Z</time>
      </trkpt>
    </trkseg>
  </trk>
</gpx>